Provisional Data: Moose Creek near Plymptonville, PA


Please select a monitoring station.
Please select start date.
Please select start date.

Toggle Unit: C/F Toggle Unit: C/F
Sample Time Temperature (C) Temperature (F) Specific Conductivity (mS/cm) pH   Turbidity (NTU+) DO (mg/L)
4/18/2023 12:00:00 AM 7.39 45.302 0.116 6.15 0.96 11.39
4/18/2023 12:15:00 AM 7.35 45.23 0.116 6.15 0.96 11.4
4/18/2023 12:30:00 AM 7.32 45.176 0.116 6.16 0.96 11.41
4/18/2023 12:45:00 AM 7.29 45.122 0.116 6.17 1.01 11.42
4/18/2023 1:00:00 AM 7.25 45.05 0.116 6.19 0.89 11.43
4/18/2023 1:15:00 AM 7.21 44.978 0.117 6.18 1.01 11.44
4/18/2023 1:30:00 AM 7.19 44.942 0.117 6.19 0.98 11.45
4/18/2023 1:45:00 AM 7.17 44.906 0.117 6.18 0.97 11.45
4/18/2023 2:00:00 AM 7.13 44.834 0.117 6.2 0.93 11.46
4/18/2023 2:15:00 AM 7.1 44.78 0.117 6.19 0.91 11.47
4/18/2023 2:30:00 AM 7.07 44.726 0.118 6.2 0.92 11.48
4/18/2023 2:45:00 AM 7.04 44.672 0.118 6.19 0.88 11.49
4/18/2023 3:00:00 AM 7 44.6 0.119 6.19 0.93 11.5
4/18/2023 3:15:00 AM 6.96 44.528 0.119 6.19 0.96 11.51
4/18/2023 3:30:00 AM 6.93 44.474 0.119 6.19 0.91 11.52
4/18/2023 3:45:00 AM 6.9 44.42 0.12 6.19 0.89 11.52
4/18/2023 4:00:00 AM 6.88 44.384 0.12 6.2 0.91 11.53
4/18/2023 4:15:00 AM 6.84 44.312 0.12 6.22 0.89 11.54
4/18/2023 4:30:00 AM 6.81 44.258 0.12 6.22 0.93 11.55
4/18/2023 4:45:00 AM 6.77 44.186 0.12 6.19 0.91 11.56
4/18/2023 5:00:00 AM 6.75 44.15 0.12 6.22 0.97 11.57
4/18/2023 5:15:00 AM 6.72 44.096 0.12 6.21 0.88 11.58
4/18/2023 5:30:00 AM 6.69 44.042 0.12 6.22 1.02 11.59
4/18/2023 5:45:00 AM 6.67 44.006 0.12 6.21 0.94 11.6
4/18/2023 6:00:00 AM 6.64 43.952 0.12 6.21 0.91 11.6
4/18/2023 6:15:00 AM 6.62 43.916 0.12 6.21 0.92 11.61
4/18/2023 6:30:00 AM 6.6 43.88 0.12 6.22 0.88 11.62
4/18/2023 6:45:00 AM 6.57 43.826 0.12 6.21 0.86 11.62
4/18/2023 7:00:00 AM 6.54 43.772 0.12 6.22 0.89 11.63
4/18/2023 7:15:00 AM 6.52 43.736 0.12 6.21 0.86 11.64
4/18/2023 7:30:00 AM 6.5 43.7 0.12 6.21 0.84 11.65
4/18/2023 7:45:00 AM 6.48 43.664 0.12 6.21 0.89 11.66
4/18/2023 8:00:00 AM 6.48 43.664 0.12 6.22 0.93 11.67
4/18/2023 8:15:00 AM 6.49 43.682 0.12 6.22 0.8 11.67
4/18/2023 8:30:00 AM 6.5 43.7 0.12 6.24 0.9 11.68
4/18/2023 8:45:00 AM 6.51 43.718 0.119 6.24 0.8 11.68
4/18/2023 9:00:00 AM 6.53 43.754 0.119 6.25 0.88 11.67
4/18/2023 9:15:00 AM 6.55 43.79 0.119 6.26 0.81 11.67
4/18/2023 9:30:00 AM 6.54 43.772 0.119 6.25 0.85 11.67
4/18/2023 9:45:00 AM 6.55 43.79 0.119 6.25 0.79 11.67
4/18/2023 10:00:00 AM 6.55 43.79 0.119 6.25 0.77 11.67
4/18/2023 10:15:00 AM 6.55 43.79 0.119 6.24 0.79 11.68
4/18/2023 10:30:00 AM 6.54 43.772 0.119 6.25 0.89 11.68
4/18/2023 10:45:00 AM 6.54 43.772 0.119 6.24 0.72 11.69
4/18/2023 11:00:00 AM 6.57 43.826 0.119 6.24 0.84 11.68
4/18/2023 11:15:00 AM 6.59 43.862 0.119 6.26 0.83 11.68
4/18/2023 11:30:00 AM 6.62 43.916 0.118 6.25 1.2 11.67
4/18/2023 11:45:00 AM 6.62 43.916 0.118 6.26 0.79 11.67
4/18/2023 12:00:00 PM 6.64 43.952 0.118 6.25 0.82 11.67
4/18/2023 12:15:00 PM 6.64 43.952 0.118 6.25 0.8 11.67
4/18/2023 12:30:00 PM 6.64 43.952 0.118 6.26 0.83 11.67
4/18/2023 12:45:00 PM 6.63 43.934 0.118 6.24 0.83 11.68
4/18/2023 1:00:00 PM 6.65 43.97 0.118 6.25 0.81 11.68
4/18/2023 1:15:00 PM 6.66 43.988 0.118 6.25 0.84 11.67
4/18/2023 1:30:00 PM 6.63 43.934 0.118 6.24 0.85 11.68
4/18/2023 1:45:00 PM 6.61 43.898 0.118 6.24 0.79 11.68
4/18/2023 2:00:00 PM 6.58 43.844 0.118 6.22 0.79 11.69
4/18/2023 2:15:00 PM 6.54 43.772 0.118 6.23 0.82 11.7
4/18/2023 2:30:00 PM 6.52 43.736 0.118 6.21 0.84 11.71
4/18/2023 2:45:00 PM 6.52 43.736 0.118 6.23 0.85 11.71
4/18/2023 3:00:00 PM 6.55 43.79 0.118 6.23 0.82 11.71
4/18/2023 3:15:00 PM 6.54 43.772 0.117 6.23 0.84 11.71
4/18/2023 3:30:00 PM 6.53 43.754 0.117 6.23 0.83 11.71
4/18/2023 3:45:00 PM 6.52 43.736 0.117 6.22 0.92 11.71
4/18/2023 4:00:00 PM 6.5 43.7 0.117 6.22 0.82 11.72
4/18/2023 4:15:00 PM 6.48 43.664 0.117 6.2 0.87 11.73
4/18/2023 4:30:00 PM 6.46 43.628 0.117 6.2 0.83 11.73
4/18/2023 4:45:00 PM 6.44 43.592 0.117 6.2 0.95 11.74
4/18/2023 5:00:00 PM 6.43 43.574 0.117 6.2 0.8 11.74
4/18/2023 5:15:00 PM 6.4 43.52 0.117 6.2 0.84 11.75
4/18/2023 5:30:00 PM 6.41 43.538 0.117 6.2 0.83 11.75
4/18/2023 5:45:00 PM 6.42 43.556 0.117 6.21 0.79 11.75
4/18/2023 6:00:00 PM 6.42 43.556 0.117 6.21 0.92 11.75
4/18/2023 6:15:00 PM 6.42 43.556 0.117 6.22 0.85 11.75
4/18/2023 6:30:00 PM 6.41 43.538 0.117 6.21 0.78 11.75
4/18/2023 6:45:00 PM 6.41 43.538 0.117 6.2 0.89 11.76
4/18/2023 7:00:00 PM 6.4 43.52 0.117 6.2 0.87 11.75
4/18/2023 7:15:00 PM 6.4 43.52 0.117 6.21 0.79 11.76
4/18/2023 7:30:00 PM 6.39 43.502 0.117 6.19 0.82 11.76
4/18/2023 7:45:00 PM 6.38 43.484 0.117 6.2 0.83 11.76
4/18/2023 8:00:00 PM 6.36 43.448 0.118 6.21 0.78 11.76
4/18/2023 8:15:00 PM 6.34 43.412 0.118 6.2 0.82 11.77
4/18/2023 8:30:00 PM 6.32 43.376 0.118 6.2 0.9 11.78
4/18/2023 8:45:00 PM 6.31 43.358 0.118 6.19 0.82 11.78
4/18/2023 9:00:00 PM 6.3 43.34 0.118 6.19 0.82 11.79
4/18/2023 9:15:00 PM 6.29 43.322 0.118 6.18 0.79 11.79
4/18/2023 9:30:00 PM 6.28 43.304 0.118 6.18 0.79 11.8
4/18/2023 9:45:00 PM 6.28 43.304 0.118 6.18 0.82 11.8
4/18/2023 10:00:00 PM 6.27 43.286 0.117 6.19 0.78 11.81
4/18/2023 10:15:00 PM 6.26 43.268 0.117 6.18 0.78 11.81
4/18/2023 10:30:00 PM 6.26 43.268 0.117 6.2 0.84 11.81
4/18/2023 10:45:00 PM 6.26 43.268 0.117 6.18 0.83 11.81
4/18/2023 11:00:00 PM 6.25 43.25 0.117 6.19 0.77 11.81
4/18/2023 11:15:00 PM 6.25 43.25 0.117 6.19 0.82 11.81
4/18/2023 11:30:00 PM 6.25 43.25 0.117 6.2 0.82 11.81
4/18/2023 11:45:00 PM 6.24 43.232 0.117 6.19 0.77 11.82
4/19/2023 12:00:00 AM 6.24 43.232 0.118 6.2 1.1 11.82
4/19/2023 12:15:00 AM 6.24 43.232 0.118 6.19 0.88 11.82
4/19/2023 12:30:00 AM 6.23 43.214 0.118 6.18 0.77 11.82
4/19/2023 12:45:00 AM 6.23 43.214 0.118 6.19 0.73 11.82
4/19/2023 1:00:00 AM 6.23 43.214 0.118 6.18 0.79 11.83
4/19/2023 1:15:00 AM 6.22 43.196 0.118 6.18 0.8 11.83
4/19/2023 1:30:00 AM 6.21 43.178 0.118 6.18 0.82 11.83
4/19/2023 1:45:00 AM 6.2 43.16 0.118 6.18 1.53 11.84
4/19/2023 2:00:00 AM 6.17 43.106 0.118 6.18 1.71 11.85
4/19/2023 2:15:00 AM 6.14 43.052 0.118 6.16 0.95 11.86
4/19/2023 2:30:00 AM 6.1 42.98 0.118 6.16 0.78 11.87
4/19/2023 2:45:00 AM 6.05 42.89 0.118 6.15 0.86 11.88
4/19/2023 3:00:00 AM 6 42.8 0.118 6.14 0.77 11.9
4/19/2023 3:15:00 AM 5.95 42.71 0.118 6.13 0.76 11.92
4/19/2023 3:30:00 AM 5.91 42.638 0.118 6.12 0.84 11.93
4/19/2023 3:45:00 AM 5.88 42.584 0.118 6.13 0.75 11.94
4/19/2023 4:00:00 AM 5.84 42.512 0.118 6.13 0.77 11.95
4/19/2023 4:15:00 AM 5.81 42.458 0.118 6.12 0.82 11.96
4/19/2023 4:30:00 AM 5.78 42.404 0.118 6.12 0.71 11.97
4/19/2023 4:45:00 AM 5.75 42.35 0.117 6.13 0.76 11.98
4/19/2023 5:00:00 AM 5.71 42.278 0.117 6.12 0.79 12
4/19/2023 5:15:00 AM 5.68 42.224 0.117 6.12 0.77 12
4/19/2023 5:30:00 AM 5.65 42.17 0.118 6.13 0.77 12.02
4/19/2023 5:45:00 AM 5.63 42.134 0.118 6.14 0.74 12.03
4/19/2023 6:00:00 AM 5.6 42.08 0.118 6.13 0.73 12.04
4/19/2023 6:15:00 AM 5.58 42.044 0.117 6.12 0.72 12.05
4/19/2023 6:30:00 AM 5.55 41.99 0.117 6.13 0.71 12.06
4/19/2023 6:45:00 AM 5.53 41.954 0.117 6.14 0.75 12.07
4/19/2023 7:00:00 AM 5.52 41.936 0.117 6.14 0.78 12.07
4/19/2023 7:15:00 AM 5.51 41.918 0.117 6.14 0.71 12.08
4/19/2023 7:30:00 AM 5.51 41.918 0.117 6.15 0.71 12.09
4/19/2023 7:45:00 AM 5.51 41.918 0.117 6.16 0.75 12.09
4/19/2023 8:00:00 AM 5.54 41.972 0.117 6.17 0.72 12.09
4/19/2023 8:15:00 AM 5.56 42.008 0.117 6.18 0.73 12.09
4/19/2023 8:30:00 AM 5.58 42.044 0.117 6.18 0.73 12.09
4/19/2023 8:45:00 AM 5.61 42.098 0.117 6.19 0.71 12.08
4/19/2023 9:00:00 AM 5.67 42.206 0.117 6.2 0.74 12.07
4/19/2023 9:15:00 AM 5.76 42.368 0.117 6.22 0.77 12.05
4/19/2023 9:30:00 AM 5.87 42.566 0.117 6.25 0.64 12.02
4/19/2023 9:45:00 AM 6 42.8 0.117 6.26 0.79 11.98
4/19/2023 10:00:00 AM 6.14 43.052 0.117 6.28 0.74 11.94
4/19/2023 10:15:00 AM 6.28 43.304 0.117 6.29 0.72 11.9
4/19/2023 10:30:00 AM 6.44 43.592 0.117 6.3 0.72 11.86
4/19/2023 10:45:00 AM 6.63 43.934 0.117 6.31 0.75 11.81
4/19/2023 11:00:00 AM 6.84 44.312 0.117 6.32 0.73 11.75
4/19/2023 11:15:00 AM 7.03 44.654 0.117 6.33 0.74 11.69
4/19/2023 11:30:00 AM 7.2 44.96 0.117 6.33 0.76 11.64
4/19/2023 11:45:00 AM 7.38 45.284 0.117 6.33 0.72 11.59
4/19/2023 12:00:00 PM 7.57 45.626 0.116 6.33 0.71 11.53
4/19/2023 12:15:00 PM 7.76 45.968 0.116 6.33 0.78 11.48
4/19/2023 12:30:00 PM 7.94 46.292 0.116 6.33 0.84 11.42
4/19/2023 12:45:00 PM 8.12 46.616 0.116 6.33 0.75 11.37
4/19/2023 1:00:00 PM 8.3 46.94 0.116 6.33 0.86 11.31
4/19/2023 1:15:00 PM 8.48 47.264 0.116 6.33 0.76 11.27
4/19/2023 1:30:00 PM 8.62 47.516 0.116 6.33 0.81 11.22
4/19/2023 1:45:00 PM 8.72 47.696 0.116 6.32 0.83 11.19
4/19/2023 2:00:00 PM 8.82 47.876 0.116 6.32 0.83 11.16
4/19/2023 2:15:00 PM 8.93 48.074 0.116 6.31 0.87 11.13
4/19/2023 2:30:00 PM 9.01 48.218 0.116 6.31 0.97 11.11
4/19/2023 2:45:00 PM 9.04 48.272 0.116 6.3 0.86 11.1
4/19/2023 3:00:00 PM 9.1 48.38 0.116 6.29 0.86 11.08
4/19/2023 3:15:00 PM 9.13 48.434 0.116 6.28 0.94 11.08
4/19/2023 3:30:00 PM 9.16 48.488 0.116 6.27 0.87 11.07
4/19/2023 3:45:00 PM 9.17 48.506 0.116 6.26 0.86 11.06
4/19/2023 4:00:00 PM 9.18 48.524 0.116 6.26 0.87 11.05
4/19/2023 4:15:00 PM 9.17 48.506 0.116 6.24 0.9 11.05
4/19/2023 4:30:00 PM 9.15 48.47 0.116 6.24 0.89 11.05
4/19/2023 4:45:00 PM 9.13 48.434 0.116 6.22 0.85 11.06
4/19/2023 5:00:00 PM 9.08 48.344 0.116 6.22 0.85 11.07
4/19/2023 5:15:00 PM 9.03 48.254 0.116 6.21 0.89 11.08
4/19/2023 5:30:00 PM 8.99 48.182 0.116 6.2 0.85 11.09
4/19/2023 5:45:00 PM 8.92 48.056 0.116 6.19 0.93 11.11
4/19/2023 6:00:00 PM 8.85 47.93 0.116 6.18 0.91 11.12
4/19/2023 6:15:00 PM 8.77 47.786 0.116 6.16 0.93 11.15
4/19/2023 6:30:00 PM 8.7 47.66 0.116 6.16 0.88 11.16
4/19/2023 6:45:00 PM 8.62 47.516 0.116 6.15 0.96 11.18
4/19/2023 7:00:00 PM 8.54 47.372 0.116 6.13 0.9 11.21
4/19/2023 7:15:00 PM 8.46 47.228 0.116 6.12 0.94 11.23
4/19/2023 7:30:00 PM 8.38 47.084 0.116 6.13 0.87 11.25
4/19/2023 7:45:00 PM 8.3 46.94 0.116 6.1 0.87 11.27
4/19/2023 8:00:00 PM 8.21 46.778 0.116 6.1 0.92 11.29
4/19/2023 8:15:00 PM 8.13 46.634 0.116 6.1 0.89 11.31
4/19/2023 8:30:00 PM 8.05 46.49 0.116 6.08 0.86 11.34
4/19/2023 8:45:00 PM 7.97 46.346 0.116 6.08 0.88 11.36
4/19/2023 9:00:00 PM 7.89 46.202 0.116 6.09 0.89 11.39
4/19/2023 9:15:00 PM 7.82 46.076 0.116 6.08 0.92 11.41
4/19/2023 9:30:00 PM 7.74 45.932 0.116 6.08 1 11.44
4/19/2023 9:45:00 PM 7.68 45.824 0.116 6.07 0.87 11.46
4/19/2023 10:00:00 PM 7.61 45.698 0.116 6.08 0.87 11.48
4/19/2023 10:15:00 PM 7.56 45.608 0.116 6.09 0.85 11.5
4/19/2023 10:30:00 PM 7.5 45.5 0.116 6.09 0.8 11.51
4/19/2023 10:45:00 PM 7.45 45.41 0.116 6.08 0.78 11.53
4/19/2023 11:00:00 PM 7.4 45.32 0.116 6.09 0.84 11.54
4/19/2023 11:15:00 PM 7.36 45.248 0.116 6.1 0.83 11.55
4/19/2023 11:30:00 PM 7.31 45.158 0.116 6.1 0.83 11.57
4/19/2023 11:45:00 PM 7.28 45.104 0.116 6.1 0.83 11.58
4/20/2023 12:00:00 AM 7.25 45.05 0.116 6.11 0.86 11.58
4/20/2023 12:15:00 AM 7.23 45.014 0.116 6.12 0.85 11.59
4/20/2023 12:30:00 AM 7.21 44.978 0.116 6.11 0.87 11.6
4/20/2023 12:45:00 AM 7.19 44.942 0.116 6.14 0.94 11.61
4/20/2023 1:00:00 AM 7.17 44.906 0.116 6.14 0.85 11.61
4/20/2023 1:15:00 AM 7.15 44.87 0.116 6.13 0.82 11.61
4/20/2023 1:30:00 AM 7.14 44.852 0.116 6.14 0.77 11.62
4/20/2023 1:45:00 AM 7.13 44.834 0.116 6.14 0.82 11.63
4/20/2023 2:00:00 AM 7.12 44.816 0.116 6.15 0.82 11.63
4/20/2023 2:15:00 AM 7.11 44.798 0.116 6.15 0.81 11.63
4/20/2023 2:30:00 AM 7.11 44.798 0.116 6.16 0.89 11.63
4/20/2023 2:45:00 AM 7.1 44.78 0.116 6.16 0.77 11.64
4/20/2023 3:00:00 AM 7.09 44.762 0.116 6.17 0.83 11.64
4/20/2023 3:15:00 AM 7.06 44.708 0.116 6.17 0.78 11.64
4/20/2023 3:30:00 AM 7.04 44.672 0.116 6.16 0.8 11.65
4/20/2023 3:45:00 AM 7.01 44.618 0.116 6.15 0.79 11.66
4/20/2023 4:00:00 AM 6.97 44.546 0.116 6.15 0.74 11.67
4/20/2023 4:15:00 AM 6.94 44.492 0.116 6.14 0.83 11.68
4/20/2023 4:30:00 AM 6.9 44.42 0.116 6.14 0.86 11.69
4/20/2023 4:45:00 AM 6.86 44.348 0.116 6.14 0.78 11.7
4/20/2023 5:00:00 AM 6.82 44.276 0.116 6.14 0.76 11.71
4/20/2023 5:15:00 AM 6.8 44.24 0.116 6.13 0.79 11.72
4/20/2023 5:30:00 AM 6.79 44.222 0.116 6.15 0.8 11.72
4/20/2023 5:45:00 AM 6.77 44.186 0.116 6.14 0.87 11.73
4/20/2023 6:00:00 AM 6.74 44.132 0.116 6.13 0.74 11.74
4/20/2023 6:15:00 AM 6.72 44.096 0.116 6.14 0.81 11.75
4/20/2023 6:30:00 AM 6.7 44.06 0.116 6.14 0.77 11.76
4/20/2023 6:45:00 AM 6.67 44.006 0.116 6.15 0.7 11.76
4/20/2023 7:00:00 AM 6.65 43.97 0.116 6.14 0.89 11.78
4/20/2023 7:15:00 AM 6.64 43.952 0.116 6.15 0.78 11.78
4/20/2023 7:30:00 AM 6.63 43.934 0.116 6.15 0.76 11.79
4/20/2023 7:45:00 AM 6.64 43.952 0.116 6.16 0.79 11.79
4/20/2023 8:00:00 AM 6.67 44.006 0.116 6.17 0.75 11.79
4/20/2023 8:15:00 AM 6.71 44.078 0.116 6.18 0.73 11.79
4/20/2023 8:30:00 AM 6.76 44.168 0.116 6.2 0.72 11.78
4/20/2023 8:45:00 AM 6.82 44.276 0.116 6.22 0.71 11.76
4/20/2023 9:00:00 AM 6.92 44.456 0.116 6.24 0.71 11.74
4/20/2023 9:15:00 AM 7.04 44.672 0.116 6.26 0.72 11.7
4/20/2023 9:30:00 AM 7.18 44.924 0.116 6.28 0.75 11.67
4/20/2023 9:45:00 AM 7.34 45.212 0.116 6.3 0.68 11.62
4/20/2023 10:00:00 AM 7.51 45.518 0.115 6.3 0.73 11.57
4/20/2023 10:15:00 AM 7.68 45.824 0.115 6.32 0.83 11.52
4/20/2023 10:30:00 AM 7.88 46.184 0.115 6.32 0.77 11.47
4/20/2023 10:45:00 AM 8.1 46.58 0.115 6.33 0.72 11.41
4/20/2023 11:00:00 AM 8.32 46.976 0.115 6.34 0.82 11.34
4/20/2023 11:15:00 AM 8.55 47.39 0.115 6.34 0.73 11.27
4/20/2023 11:30:00 AM 8.77 47.786 0.115 6.35 0.78 11.21
4/20/2023 11:45:00 AM 8.97 48.146 0.115 6.35 0.77 11.15
4/20/2023 12:00:00 PM 9.18 48.524 0.115 6.35 0.82 11.09
4/20/2023 12:15:00 PM 9.43 48.974 0.115 6.35 0.79 11.02
4/20/2023 12:30:00 PM 9.67 49.406 0.115 6.36 0.78 10.96
4/20/2023 12:45:00 PM 9.9 49.82 0.115 6.36 0.89 10.89
4/20/2023 1:00:00 PM 10.12 50.216 0.115 6.37 0.83 10.83
4/20/2023 1:15:00 PM 10.34 50.612 0.115 6.36 0.85 10.77
4/20/2023 1:30:00 PM 10.56 51.008 0.115 6.37 0.89 10.72
4/20/2023 1:45:00 PM 10.74 51.332 0.115 6.37 0.88 10.67
4/20/2023 2:00:00 PM 10.91 51.638 0.115 6.37 0.87 10.63
4/20/2023 2:15:00 PM 11.04 51.872 0.115 6.36 0.88 10.6
4/20/2023 2:30:00 PM 11.13 52.034 0.115 6.36 0.92 10.57
4/20/2023 2:45:00 PM 11.22 52.196 0.115 6.35 0.93 10.55
4/20/2023 3:00:00 PM 11.31 52.358 0.115 6.34 0.88 10.53
4/20/2023 3:15:00 PM 11.36 52.448 0.115 6.33 0.93 10.51
4/20/2023 3:30:00 PM 11.35 52.43 0.115 6.31 0.94 10.51
4/20/2023 3:45:00 PM 11.36 52.448 0.115 6.29 0.98 10.5
4/20/2023 4:00:00 PM 11.37 52.466 0.115 6.28 1.04 10.5
4/20/2023 4:15:00 PM 11.37 52.466 0.115 6.26 0.95 10.5
4/20/2023 4:30:00 PM 11.36 52.448 0.115 6.25 1.02 10.49
4/20/2023 4:45:00 PM 11.29 52.322 0.115 6.25 1.02 10.5
4/20/2023 5:00:00 PM 11.23 52.214 0.115 6.23 1.02 10.52
4/20/2023 5:15:00 PM 11.2 52.16 0.115 6.21 0.94 10.53
4/20/2023 5:30:00 PM 11.15 52.07 0.115 6.19 1.04 10.54
4/20/2023 5:45:00 PM 11.09 51.962 0.115 6.19 1.03 10.55
4/20/2023 6:00:00 PM 11.03 51.854 0.115 6.18 1.1 10.56
4/20/2023 6:15:00 PM 10.96 51.728 0.115 6.16 1.05 10.58
4/20/2023 6:30:00 PM 10.89 51.602 0.115 6.16 1.04 10.59
4/20/2023 6:45:00 PM 10.81 51.458 0.115 6.15 1.03 10.6
4/20/2023 7:00:00 PM 10.74 51.332 0.115 6.15 0.99 10.62
4/20/2023 7:15:00 PM 10.66 51.188 0.115 6.13 1.01 10.64
4/20/2023 7:30:00 PM 10.57 51.026 0.115 6.12 1.07 10.66
4/20/2023 7:45:00 PM 10.48 50.864 0.115 6.11 0.9 10.68
4/20/2023 8:00:00 PM 10.38 50.684 0.115 6.11 1.03 10.7
4/20/2023 8:15:00 PM 10.29 50.522 0.115 6.09 1 10.72
4/20/2023 8:30:00 PM 10.2 50.36 0.115 6.08 1.08 10.74
4/20/2023 8:45:00 PM 10.1 50.18 0.115 6.07 1 10.77
4/20/2023 9:00:00 PM 10.01 50.018 0.116 6.07 1.09 10.79
4/20/2023 9:15:00 PM 9.93 49.874 0.116 6.06 1 10.81
4/20/2023 9:30:00 PM 9.85 49.73 0.116 6.06 1.09 10.83
4/20/2023 9:45:00 PM 9.77 49.586 0.116 6.06 1.08 10.85
4/20/2023 10:00:00 PM 9.7 49.46 0.116 6.06 1.04 10.87
4/20/2023 10:15:00 PM 9.63 49.334 0.116 6.06 0.99 10.89
4/20/2023 10:30:00 PM 9.56 49.208 0.116 6.07 0.96 10.9
4/20/2023 10:45:00 PM 9.5 49.1 0.116 6.08 1.03 10.92
4/20/2023 11:00:00 PM 9.43 48.974 0.116 6.07 1.05 10.94
4/20/2023 11:15:00 PM 9.37 48.866 0.116 6.07 0.95 10.95
4/20/2023 11:30:00 PM 9.31 48.758 0.116 6.08 0.97 10.97
4/20/2023 11:45:00 PM 9.25 48.65 0.116 6.09 0.96 10.98
4/21/2023 12:00:00 AM 9.2 48.56 0.116 6.09 0.94 10.99
4/21/2023 12:15:00 AM 9.15 48.47 0.116 6.1 0.91 11.01
4/21/2023 12:30:00 AM 9.1 48.38 0.116 6.09 0.98 11.02
4/21/2023 12:45:00 AM 9.05 48.29 0.116 6.1 0.92 11.03
4/21/2023 1:00:00 AM 9 48.2 0.116 6.11 1.19 11.04
4/21/2023 1:15:00 AM 8.95 48.11 0.116 6.12 0.95 11.06
4/21/2023 1:30:00 AM 8.91 48.038 0.116 6.12 0.97 11.07
4/21/2023 1:45:00 AM 8.87 47.966 0.116 6.13 0.95 11.08
4/21/2023 2:00:00 AM 8.84 47.912 0.116 6.12 1.01 11.09
4/21/2023 2:15:00 AM 8.81 47.858 0.116 6.13 0.98 11.1
4/21/2023 2:30:00 AM 8.78 47.804 0.116 6.13 0.97 11.11
4/21/2023 2:45:00 AM 8.75 47.75 0.116 6.14 0.98 11.11
4/21/2023 3:00:00 AM 8.72 47.696 0.116 6.14 0.95 11.12
4/21/2023 3:15:00 AM 8.69 47.642 0.116 6.14 0.93 11.13
4/21/2023 3:30:00 AM 8.66 47.588 0.116 6.13 0.91 11.13
4/21/2023 3:45:00 AM 8.63 47.534 0.116 6.14 0.98 11.14
4/21/2023 4:00:00 AM 8.6 47.48 0.116 6.13 0.95 11.15
4/21/2023 4:15:00 AM 8.57 47.426 0.116 6.13 0.96 11.16
4/21/2023 4:30:00 AM 8.53 47.354 0.116 6.14 0.88 11.16
4/21/2023 4:45:00 AM 8.5 47.3 0.116 6.14 0.94 11.17
4/21/2023 5:00:00 AM 8.47 47.246 0.116 6.14 0.87 11.18
4/21/2023 5:15:00 AM 8.44 47.192 0.116 6.15 0.95 11.19
4/21/2023 5:30:00 AM 8.41 47.138 0.116 6.15 0.87 11.2
4/21/2023 5:45:00 AM 8.39 47.102 0.116 6.16 0.91 11.21
4/21/2023 6:00:00 AM 8.36 47.048 0.116 6.17 0.85 11.22
4/21/2023 6:15:00 AM 8.33 46.994 0.116 6.16 1 11.22
4/21/2023 6:30:00 AM 8.31 46.958 0.116 6.16 0.91 11.23
4/21/2023 6:45:00 AM 8.29 46.922 0.116 6.17 0.87 11.24
4/21/2023 7:00:00 AM 8.27 46.886 0.116 6.18 0.91 11.25
4/21/2023 7:15:00 AM 8.26 46.868 0.116 6.16 0.91 11.25
4/21/2023 7:30:00 AM 8.26 46.868 0.116 6.16 0.88 11.26
4/21/2023 7:45:00 AM 8.28 46.904 0.116 6.16 1.02 11.26
4/21/2023 8:00:00 AM 8.32 46.976 0.115 6.19 0.91 11.26
4/21/2023 8:15:00 AM 8.36 47.048 0.115 6.2 0.85 11.25
4/21/2023 8:30:00 AM 8.42 47.156 0.116 6.21 0.92 11.24
4/21/2023 8:45:00 AM 8.51 47.318 0.115 6.24 0.9 11.21
4/21/2023 9:00:00 AM 8.64 47.552 0.115 6.28 0.85 11.18
4/21/2023 9:15:00 AM 8.78 47.804 0.115 6.29 0.91 11.15
4/21/2023 9:30:00 AM 8.95 48.11 0.115 6.32 0.95 11.1
4/21/2023 9:45:00 AM 9.14 48.452 0.115 6.33 0.9 11.06
4/21/2023 10:00:00 AM 9.32 48.776 0.115 6.34 0.82 11.01
4/21/2023 10:15:00 AM 9.52 49.136 0.115 6.35 0.92 10.96
4/21/2023 10:30:00 AM 9.73 49.514 0.115 6.37 0.85 10.9
4/21/2023 10:45:00 AM 9.96 49.928 0.115 6.37 0.93 10.84
4/21/2023 11:00:00 AM 10.2 50.36 0.115 6.38 0.88 10.78
4/21/2023 11:15:00 AM 10.44 50.792 0.115 6.39 0.84 10.72
4/21/2023 11:30:00 AM 10.65 51.17 0.115 6.39 0.88 10.66
4/21/2023 11:45:00 AM 10.86 51.548 0.115 6.39 0.9 10.61
4/21/2023 12:00:00 PM 11.08 51.944 0.115 6.39 0.9 10.55
4/21/2023 12:15:00 PM 11.29 52.322 0.115 6.39 0.98 10.49
4/21/2023 12:30:00 PM 11.51 52.718 0.115 6.4 0.93 10.44
4/21/2023 12:45:00 PM 11.71 53.078 0.115 6.4 0.95 10.38
4/21/2023 1:00:00 PM 11.91 53.438 0.115 6.4 0.99 10.33
4/21/2023 1:15:00 PM 12.1 53.78 0.115 6.4 1.01 10.29
4/21/2023 1:30:00 PM 12.28 54.104 0.115 6.41 1.04 10.24
4/21/2023 1:45:00 PM 12.42 54.356 0.115 6.4 1.2 10.2
4/21/2023 2:00:00 PM 12.53 54.554 0.115 6.39 1.07 10.18
4/21/2023 2:15:00 PM 12.66 54.788 0.115 6.39 0.99 10.15
4/21/2023 2:30:00 PM 12.75 54.95 0.115 6.38 1.16 10.12
4/21/2023 2:45:00 PM 12.83 55.094 0.115 6.39 1.09 10.1
4/21/2023 3:00:00 PM 12.88 55.184 0.115 6.39 1.02 10.09
4/21/2023 3:15:00 PM 12.87 55.166 0.115 6.37 1.04 10.09
4/21/2023 3:30:00 PM 12.87 55.166 0.115 6.36 1.16 10.09
4/21/2023 3:45:00 PM 12.86 55.148 0.115 6.34 1.03 10.08
4/21/2023 4:00:00 PM 12.87 55.166 0.115 6.34 1.25 10.08
4/21/2023 4:15:00 PM 12.86 55.148 0.115 6.34 1.17 10.08
4/21/2023 4:30:00 PM 12.81 55.058 0.115 6.33 1.07 10.08
4/21/2023 4:45:00 PM 12.74 54.932 0.115 6.29 1.22 10.1
4/21/2023 5:00:00 PM 12.67 54.806 0.115 6.29 1.09 10.12
4/21/2023 5:15:00 PM 12.61 54.698 0.115 6.31 1.13 10.13
4/21/2023 5:30:00 PM 12.52 54.536 0.115 6.27 1.25 10.14
4/21/2023 5:45:00 PM 12.45 54.41 0.115 6.27 1.16 10.16
4/21/2023 6:00:00 PM 12.37 54.266 0.115 6.26 1.15 10.18
4/21/2023 6:15:00 PM 12.29 54.122 0.115 6.25 1.13 10.19
4/21/2023 6:30:00 PM 12.2 53.96 0.116 6.22 1.17 10.21
4/21/2023 6:45:00 PM 12.11 53.798 0.116 6.23 1.19 10.23
4/21/2023 7:00:00 PM 12.03 53.654 0.115 6.2 1.18 10.24
4/21/2023 7:15:00 PM 11.94 53.492 0.116 6.19 1.17 10.25
4/21/2023 7:30:00 PM 11.86 53.348 0.116 6.19 1.15 10.28
4/21/2023 7:45:00 PM 11.77 53.186 0.115 6.19 1.1 10.29
4/21/2023 8:00:00 PM 11.69 53.042 0.116 6.17 1.21 10.31
4/21/2023 8:15:00 PM 11.61 52.898 0.116 6.17 1.2 10.32
4/21/2023 8:30:00 PM 11.55 52.79 0.116 6.17 1.24 10.34
4/21/2023 8:45:00 PM 11.48 52.664 0.116 6.16 1.21 10.36
4/21/2023 9:00:00 PM 11.41 52.538 0.116 6.16 1.81 10.37
4/21/2023 9:15:00 PM 11.33 52.394 0.116 6.15 1.38 10.39
4/21/2023 9:30:00 PM 11.27 52.286 0.116 6.16 1.27 10.4
4/21/2023 9:45:00 PM 11.21 52.178 0.116 6.18 1.19 10.41
4/21/2023 10:00:00 PM 11.16 52.088 0.115 6.17 1.73 10.43
4/21/2023 10:15:00 PM 11.14 52.052 0.115 6.19 2.2 10.43
4/21/2023 10:30:00 PM 11.11 51.998 0.115 6.18 1.92 10.43
4/21/2023 10:45:00 PM 11.08 51.944 0.115 6.17 1.47 10.44
4/21/2023 11:00:00 PM 11.05 51.89 0.115 6.18 1.5 10.45
4/21/2023 11:15:00 PM 11.03 51.854 0.116 6.19 1.48 10.45
4/21/2023 11:30:00 PM 11 51.8 0.116 6.21 1.28 10.45
4/21/2023 11:45:00 PM 10.98 51.764 0.116 6.22 1.32 10.46
4/22/2023 12:00:00 AM 10.96 51.728 0.116 6.23 1.18 10.46
4/22/2023 12:15:00 AM 10.93 51.674 0.116 6.22 1.29 10.47
4/22/2023 12:30:00 AM 10.89 51.602 0.115 6.22 1.16 10.48
4/22/2023 12:45:00 AM 10.85 51.53 0.115 6.23 1.21 10.49
4/22/2023 1:00:00 AM 10.81 51.458 0.115 6.24 1.22 10.5
4/22/2023 1:15:00 AM 10.78 51.404 0.115 6.2 1.3 10.51
4/22/2023 1:30:00 AM 10.74 51.332 0.115 6.24 1.15 10.51
4/22/2023 1:45:00 AM 10.7 51.26 0.115 6.24 1.39 10.52
4/22/2023 2:00:00 AM 10.66 51.188 0.115 6.23 1.29 10.53
4/22/2023 2:15:00 AM 10.61 51.098 0.115 6.23 1.34 10.54
4/22/2023 2:30:00 AM 10.56 51.008 0.115 6.21 1.29 10.55
4/22/2023 2:45:00 AM 10.52 50.936 0.116 6.21 1.2 10.56
4/22/2023 3:00:00 AM 10.47 50.846 0.116 6.19 1.17 10.57
4/22/2023 3:15:00 AM 10.42 50.756 0.116 6.21 1.16 10.58
4/22/2023 3:30:00 AM 10.37 50.666 0.116 6.22 1.1 10.59
4/22/2023 3:45:00 AM 10.32 50.576 0.116 6.2 1.15 10.6
4/22/2023 4:00:00 AM 10.26 50.468 0.116 6.2 1.14 10.61
4/22/2023 4:15:00 AM 10.22 50.396 0.116 6.21 1.16 10.63
4/22/2023 4:30:00 AM 10.18 50.324 0.116 6.2 1.13 10.64
4/22/2023 4:45:00 AM 10.16 50.288 0.116 6.21 1.18 10.65
4/22/2023 5:00:00 AM 10.16 50.288 0.116 6.24 1.09 10.65
4/22/2023 5:15:00 AM 10.15 50.27 0.115 6.25 1.16 10.65
4/22/2023 5:30:00 AM 10.14 50.252 0.115 6.25 1.29 10.65
4/22/2023 5:45:00 AM 10.14 50.252 0.115 6.26 1.08 10.65
4/22/2023 6:00:00 AM 10.14 50.252 0.115 6.25 1.11 10.65
4/22/2023 6:15:00 AM 10.15 50.27 0.115 6.26 1.15 10.65
4/22/2023 6:30:00 AM 10.15 50.27 0.116 6.27 1.18 10.64
4/22/2023 6:45:00 AM 10.15 50.27 0.116 6.27 1.21 10.64
4/22/2023 7:00:00 AM 10.15 50.27 0.116 6.28 1.15 10.64
4/22/2023 7:15:00 AM 10.15 50.27 0.116 6.28 1.09 10.65
4/22/2023 7:30:00 AM 10.15 50.27 0.116 6.29 1.14 10.65
4/22/2023 7:45:00 AM 10.15 50.27 0.116 6.29 1 10.65
4/22/2023 8:00:00 AM 10.16 50.288 0.116 6.28 1.05 10.65
4/22/2023 8:15:00 AM 10.17 50.306 0.116 6.25 1.02 10.65
4/22/2023 8:30:00 AM 10.19 50.342 0.116 6.28 1.07 10.65
4/22/2023 8:45:00 AM 10.22 50.396 0.116 6.28 1.06 10.64
4/22/2023 9:00:00 AM 10.27 50.486 0.116 6.3 1.03 10.63
4/22/2023 9:15:00 AM 10.32 50.576 0.116 6.29 1.11 10.62
4/22/2023 9:30:00 AM 10.36 50.648 0.116 6.31 1.06 10.6
4/22/2023 9:45:00 AM 10.39 50.702 0.116 6.3 1.06 10.59
4/22/2023 10:00:00 AM 10.4 50.72 0.116 6.31 2.11 10.58
4/22/2023 10:15:00 AM 10.43 50.774 0.116 6.31 1.06 10.58
4/22/2023 10:30:00 AM 10.46 50.828 0.115 6.31 1.14 10.59
4/22/2023 10:45:00 AM 10.47 50.846 0.115 6.32 1.12 10.59
4/22/2023 11:00:00 AM 10.46 50.828 0.115 6.3 1.23 10.59
4/22/2023 11:15:00 AM 10.46 50.828 0.115 6.29 1.09 10.59
4/22/2023 11:30:00 AM 10.46 50.828 0.115 6.3 1.08 10.59
4/22/2023 11:45:00 AM 10.45 50.81 0.115 6.28 1.36 10.59
4/22/2023 12:00:00 PM 10.44 50.792 0.115 6.29 1.25 10.6
4/22/2023 12:15:00 PM 10.43 50.774 0.115 6.26 1.17 10.61
4/22/2023 12:30:00 PM 10.42 50.756 0.115 6.28 1.11 10.61
4/22/2023 12:45:00 PM 10.4 50.72 0.116 6.28 1.21 10.61
4/22/2023 1:00:00 PM 10.4 50.72 0.116 6.28 1.13 10.62
4/22/2023 1:15:00 PM 10.41 50.738 0.116 6.27 1.25 10.62
4/22/2023 1:30:00 PM 10.41 50.738 0.116 6.28 1.22 10.62
4/22/2023 1:45:00 PM 10.39 50.702 0.116 6.29 1.3 10.62
4/22/2023 2:00:00 PM 10.37 50.666 0.116 6.29 1.16 10.62
4/22/2023 2:15:00 PM 10.35 50.63 0.115 6.28 1.32 10.63
4/22/2023 2:30:00 PM 10.33 50.594 0.115 6.27 1.33 10.64
4/22/2023 2:45:00 PM 10.31 50.558 0.115 6.27 1.3 10.64
4/22/2023 3:00:00 PM 10.27 50.486 0.115 6.27 1.31 10.64
4/22/2023 3:15:00 PM 10.24 50.432 0.115 6.26 1.39 10.65
4/22/2023 3:30:00 PM 10.2 50.36 0.116 6.24 1.38 10.66
4/22/2023 3:45:00 PM 10.17 50.306 0.116 6.27 1.34 10.67
4/22/2023 4:00:00 PM 10.12 50.216 0.117 6.26 1.43 10.67
4/22/2023 4:15:00 PM 10.08 50.144 0.117 6.25 1.44 10.69
4/22/2023 4:30:00 PM 10.05 50.09 0.117 6.26 1.48 10.7
4/22/2023 4:45:00 PM 10.03 50.054 0.118 6.27 1.57 10.71
4/22/2023 5:00:00 PM 9.99 49.982 0.118 6.27 1.42 10.72
4/22/2023 5:15:00 PM 9.95 49.91 0.119 6.27 1.63 10.73
4/22/2023 5:30:00 PM 9.92 49.856 0.119 6.28 1.45 10.74
4/22/2023 5:45:00 PM 9.89 49.802 0.121 6.27 1.4 10.75
4/22/2023 6:00:00 PM 9.86 49.748 0.122 6.28 1.26 10.76
4/22/2023 6:15:00 PM 9.84 49.712 0.124 6.28 1.41 10.77
4/22/2023 6:30:00 PM 9.82 49.676 0.124 6.29 1.34 10.78
4/22/2023 6:45:00 PM 9.81 49.658 0.125 6.3 1.25 10.78
4/22/2023 7:00:00 PM 9.77 49.586 0.125 6.3 1.21 10.79
4/22/2023 7:15:00 PM 9.75 49.55 0.125 6.31 1.29 10.79
4/22/2023 7:30:00 PM 9.72 49.496 0.125 6.31 1.22 10.8
4/22/2023 7:45:00 PM 9.69 49.442 0.125 6.32 1.21 10.81
4/22/2023 8:00:00 PM 9.64 49.352 0.125 6.31 1.14 10.82
4/22/2023 8:15:00 PM 9.57 49.226 0.125 6.3 1.23 10.83
4/22/2023 8:30:00 PM 9.5 49.1 0.124 6.31 1.21 10.86
4/22/2023 8:45:00 PM 9.42 48.956 0.124 6.28 1.19 10.88
4/22/2023 9:00:00 PM 9.34 48.812 0.124 6.27 1.27 10.9
4/22/2023 9:15:00 PM 9.27 48.686 0.124 6.27 1.2 10.92
4/22/2023 9:30:00 PM 9.21 48.578 0.124 6.28 1.16 10.94
4/22/2023 9:45:00 PM 9.16 48.488 0.124 6.29 1.37 10.96
4/22/2023 10:00:00 PM 9.12 48.416 0.124 6.29 1.33 10.97
4/22/2023 10:15:00 PM 9.09 48.362 0.124 6.29 1.29 10.98
4/22/2023 10:30:00 PM 9.06 48.308 0.125 6.29 1.41 10.98
4/22/2023 10:45:00 PM 9.04 48.272 0.125 6.29 1.12 10.99
4/22/2023 11:00:00 PM 9.02 48.236 0.125 6.31 1.09 11
4/22/2023 11:15:00 PM 8.99 48.182 0.125 6.29 1.15 11
4/22/2023 11:30:00 PM 8.96 48.128 0.125 6.3 1.13 11.01
4/22/2023 11:45:00 PM 8.92 48.056 0.125 6.3 1.13 11.02
4/23/2023 12:00:00 AM 8.87 47.966 0.125 6.29 1.2 11.03
4/23/2023 12:15:00 AM 8.82 47.876 0.125 6.29 1.14 11.04
4/23/2023 12:30:00 AM 8.76 47.768 0.125 6.27 1.18 11.06
4/23/2023 12:45:00 AM 8.69 47.642 0.125 6.26 1.06 11.08
4/23/2023 1:00:00 AM 8.62 47.516 0.124 6.26 1.11 11.1
4/23/2023 1:15:00 AM 8.55 47.39 0.124 6.25 1.09 11.12
4/23/2023 1:30:00 AM 8.48 47.264 0.124 6.24 1.13 11.14
4/23/2023 1:45:00 AM 8.41 47.138 0.124 6.25 1.08 11.15
4/23/2023 2:00:00 AM 8.34 47.012 0.124 6.24 1.05 11.17
4/23/2023 2:15:00 AM 8.27 46.886 0.124 6.24 0.99 11.19
4/23/2023 2:30:00 AM 8.2 46.76 0.124 6.23 1.05 11.21
4/23/2023 2:45:00 AM 8.15 46.67 0.124 6.23 1 11.23
4/23/2023 3:00:00 AM 8.11 46.598 0.125 6.24 0.92 11.24
4/23/2023 3:15:00 AM 8.08 46.544 0.125 6.25 1.03 11.25
4/23/2023 3:30:00 AM 8.06 46.508 0.124 6.26 1.13 11.26
4/23/2023 3:45:00 AM 8.05 46.49 0.124 6.27 1.19 11.26
4/23/2023 4:00:00 AM 8.04 46.472 0.124 6.27 1.02 11.26
4/23/2023 4:15:00 AM 8.03 46.454 0.124 6.28 1.07 11.27
4/23/2023 4:30:00 AM 8 46.4 0.124 6.27 0.98 11.27
4/23/2023 4:45:00 AM 7.97 46.346 0.124 6.27 0.92 11.28
4/23/2023 5:00:00 AM 7.93 46.274 0.124 6.27 0.93 11.29
4/23/2023 5:15:00 AM 7.88 46.184 0.124 6.27 0.97 11.3
4/23/2023 5:30:00 AM 7.83 46.094 0.124 6.27 0.96 11.32
4/23/2023 5:45:00 AM 7.77 45.986 0.124 6.26 0.94 11.33
4/23/2023 6:00:00 AM 7.73 45.914 0.124 6.25 1 11.35
4/23/2023 6:15:00 AM 7.68 45.824 0.124 6.26 0.99 11.37
4/23/2023 6:30:00 AM 7.64 45.752 0.124 6.26 0.94 11.38
4/23/2023 6:45:00 AM 7.61 45.698 0.124 6.26 0.9 11.39
4/23/2023 7:00:00 AM 7.61 45.698 0.123 6.25 0.93 11.4
4/23/2023 7:15:00 AM 7.61 45.698 0.123 6.27 0.92 11.4
4/23/2023 7:30:00 AM 7.64 45.752 0.123 6.29 0.9 11.41
4/23/2023 7:45:00 AM 7.68 45.824 0.123 6.31 0.89 11.4
4/23/2023 8:00:00 AM 7.71 45.878 0.123 6.33 0.86 11.39
4/23/2023 8:15:00 AM 7.74 45.932 0.123 6.33 0.86 11.38
4/23/2023 8:30:00 AM 7.77 45.986 0.123 6.35 0.86 11.38
4/23/2023 8:45:00 AM 7.79 46.022 0.123 6.35 0.89 11.37
4/23/2023 9:00:00 AM 7.82 46.076 0.123 6.34 0.84 11.37
4/23/2023 9:15:00 AM 7.84 46.112 0.123 6.35 0.94 11.37
4/23/2023 9:30:00 AM 7.84 46.112 0.123 6.35 0.86 11.37
4/23/2023 9:45:00 AM 7.86 46.148 0.123 6.34 0.87 11.37
4/23/2023 10:00:00 AM 7.9 46.22 0.122 6.36 0.86 11.35
4/23/2023 10:15:00 AM 7.89 46.202 0.122 6.33 0.88 11.35
4/23/2023 10:30:00 AM 7.87 46.166 0.122 6.32 0.91 11.36
4/23/2023 10:45:00 AM 7.95 46.31 0.122 6.35 0.92 11.35
4/23/2023 11:00:00 AM 8.1 46.58 0.122 6.39 0.84 11.32
4/23/2023 11:15:00 AM 8.25 46.85 0.122 6.4 0.87 11.28
4/23/2023 11:30:00 AM 8.28 46.904 0.122 6.38 0.86 11.26
4/23/2023 11:45:00 AM 8.24 46.832 0.122 6.35 0.86 11.26
4/23/2023 12:00:00 PM 8.25 46.85 0.122 6.34 0.9 11.27
4/23/2023 12:15:00 PM 8.23 46.814 0.122 6.35 0.84 11.27
4/23/2023 12:30:00 PM 8.21 46.778 0.122 6.35 0.87 11.27
4/23/2023 12:45:00 PM 8.28 46.904 0.122 6.36 0.94 11.27
4/23/2023 1:00:00 PM 8.35 47.03 0.122 6.37 0.87 11.25
4/23/2023 1:15:00 PM 8.35 47.03 0.122 6.35 0.88 11.24
4/23/2023 1:30:00 PM 8.34 47.012 0.122 6.34 0.88 11.25
4/23/2023 1:45:00 PM 8.31 46.958 0.122 6.32 0.88 11.25
4/23/2023 2:00:00 PM 8.25 46.85 0.122 6.32 0.91 11.26
4/23/2023 2:15:00 PM 8.25 46.85 0.122 6.32 0.9 11.28
4/23/2023 2:30:00 PM 8.27 46.886 0.122 6.32 0.88 11.27
4/23/2023 2:45:00 PM 8.21 46.778 0.122 6.32 0.89 11.28
4/23/2023 3:00:00 PM 8.17 46.706 0.122 6.3 0.93 11.3
4/23/2023 3:15:00 PM 8.19 46.742 0.122 6.32 0.9 11.29
4/23/2023 3:30:00 PM 8.12 46.616 0.122 6.29 0.86 11.3
4/23/2023 3:45:00 PM 8.05 46.49 0.121 6.29 0.9 11.32
4/23/2023 4:00:00 PM 8.05 46.49 0.121 6.3 0.88 11.33
4/23/2023 4:15:00 PM 8.04 46.472 0.121 6.31 0.9 11.33
4/23/2023 4:30:00 PM 7.99 46.382 0.121 6.27 0.98 11.34
4/23/2023 4:45:00 PM 7.95 46.31 0.121 6.29 0.89 11.35
4/23/2023 5:00:00 PM 7.93 46.274 0.121 6.28 1 11.36
4/23/2023 5:15:00 PM 7.9 46.22 0.121 6.28 0.95 11.37
4/23/2023 5:30:00 PM 7.85 46.13 0.121 6.28 0.92 11.38
4/23/2023 5:45:00 PM 7.81 46.058 0.121 6.27 0.87 11.39
4/23/2023 6:00:00 PM 7.78 46.004 0.121 6.27 0.88 11.4
4/23/2023 6:15:00 PM 7.74 45.932 0.121 6.27 0.85 11.42
4/23/2023 6:30:00 PM 7.7 45.86 0.121 6.27 0.93 11.42
4/23/2023 6:45:00 PM 7.67 45.806 0.121 6.27 0.89 11.43
4/23/2023 7:00:00 PM 7.63 45.734 0.121 6.28 0.89 11.44
4/23/2023 7:15:00 PM 7.58 45.644 0.121 6.28 0.91 11.45
4/23/2023 7:30:00 PM 7.52 45.536 0.121 6.25 0.93 11.47
4/23/2023 7:45:00 PM 7.48 45.464 0.121 6.28 0.97 11.48
4/23/2023 8:00:00 PM 7.44 45.392 0.122 6.28 0.88 11.49
4/23/2023 8:15:00 PM 7.4 45.32 0.122 6.29 0.91 11.5
4/23/2023 8:30:00 PM 7.37 45.266 0.122 6.28 0.95 11.52
4/23/2023 8:45:00 PM 7.34 45.212 0.122 6.28 0.93 11.52
4/23/2023 9:00:00 PM 7.31 45.158 0.121 6.27 0.89 11.53
4/23/2023 9:15:00 PM 7.28 45.104 0.121 6.26 0.92 11.54
4/23/2023 9:30:00 PM 7.25 45.05 0.121 6.27 0.91 11.55
4/23/2023 9:45:00 PM 7.21 44.978 0.121 6.27 0.84 11.56
4/23/2023 10:00:00 PM 7.19 44.942 0.121 6.27 0.86 11.57
4/23/2023 10:15:00 PM 7.16 44.888 0.121 6.26 0.88 11.58
4/23/2023 10:30:00 PM 7.13 44.834 0.121 6.28 0.8 11.59
4/23/2023 10:45:00 PM 7.1 44.78 0.121 6.27 0.83 11.6
4/23/2023 11:00:00 PM 7.06 44.708 0.122 6.28 0.86 11.61
4/23/2023 11:15:00 PM 7.03 44.654 0.122 6.29 0.83 11.62
4/23/2023 11:30:00 PM 7 44.6 0.122 6.26 0.84 11.62
4/23/2023 11:45:00 PM 6.98 44.564 0.121 6.28 0.96 11.63
4/24/2023 12:00:00 AM 6.94 44.492 0.121 6.29 0.86 11.64
4/24/2023 12:15:00 AM 6.92 44.456 0.121 6.3 0.81 11.65
4/24/2023 12:30:00 AM 6.9 44.42 0.121 6.28 0.81 11.65
4/24/2023 12:45:00 AM 6.88 44.384 0.121 6.28 0.86 11.66
4/24/2023 1:00:00 AM 6.86 44.348 0.121 6.29 0.83 11.66
4/24/2023 1:15:00 AM 6.84 44.312 0.121 6.31 0.86 11.67
4/24/2023 1:30:00 AM 6.81 44.258 0.121 6.3 0.79 11.68
4/24/2023 1:45:00 AM 6.78 44.204 0.121 6.3 0.83 11.68
4/24/2023 2:00:00 AM 6.76 44.168 0.121 6.28 0.84 11.69
4/24/2023 2:15:00 AM 6.73 44.114 0.121 6.28 0.84 11.69
4/24/2023 2:30:00 AM 6.71 44.078 0.121 6.29 0.85 11.7
4/24/2023 2:45:00 AM 6.69 44.042 0.121 6.29 0.83 11.7
4/24/2023 3:00:00 AM 6.67 44.006 0.121 6.3 0.87 11.71
4/24/2023 3:15:00 AM 6.66 43.988 0.121 6.29 0.79 11.71
4/24/2023 3:30:00 AM 6.64 43.952 0.121 6.31 0.81 11.72
4/24/2023 3:45:00 AM 6.61 43.898 0.121 6.31 0.79 11.73
4/24/2023 4:00:00 AM 6.59 43.862 0.121 6.29 0.9 11.74
4/24/2023 4:15:00 AM 6.57 43.826 0.121 6.3 1.02 11.74
4/24/2023 4:30:00 AM 6.55 43.79 0.121 6.28 0.99 11.74
4/24/2023 4:45:00 AM 6.53 43.754 0.121 6.31 0.89 11.75
4/24/2023 5:00:00 AM 6.51 43.718 0.121 6.31 0.81 11.76
4/24/2023 5:15:00 AM 6.5 43.7 0.121 6.32 0.84 11.76
4/24/2023 5:30:00 AM 6.49 43.682 0.121 6.31 0.83 11.77
4/24/2023 5:45:00 AM 6.48 43.664 0.121 6.33 0.82 11.77
4/24/2023 6:00:00 AM 6.47 43.646 0.121 6.34 0.81 11.77
4/24/2023 6:15:00 AM 6.45 43.61 0.121 6.31 0.8 11.78
4/24/2023 6:30:00 AM 6.43 43.574 0.121 6.34 0.82 11.78
4/24/2023 6:45:00 AM 6.42 43.556 0.121 6.31 0.79 11.79
4/24/2023 7:00:00 AM 6.41 43.538 0.121 6.32 0.79 11.79
4/24/2023 7:15:00 AM 6.41 43.538 0.121 6.34 0.75 11.8
4/24/2023 7:30:00 AM 6.4 43.52 0.121 6.31 0.78 11.81
4/24/2023 7:45:00 AM 6.41 43.538 0.121 6.32 0.74 11.81
4/24/2023 8:00:00 AM 6.42 43.556 0.121 6.34 0.75 11.81
4/24/2023 8:15:00 AM 6.43 43.574 0.121 6.34 0.81 11.81
4/24/2023 8:30:00 AM 6.47 43.646 0.121 6.35 0.78 11.81
4/24/2023 8:45:00 AM 6.51 43.718 0.121 6.35 0.78 11.8
4/24/2023 9:00:00 AM 6.54 43.772 0.121 6.35 0.76 11.79
4/24/2023 9:15:00 AM 6.59 43.862 0.121 6.36 0.78 11.78
4/24/2023 9:30:00 AM 6.69 44.042 0.121 6.38 0.77 11.76
4/24/2023 9:45:00 AM 6.79 44.222 0.121 6.39 0.75 11.73
4/24/2023 10:00:00 AM 6.85 44.33 0.121 6.39 0.79 11.71
4/24/2023 10:15:00 AM 6.9 44.42 0.121 6.41 0.77 11.69
4/24/2023 10:30:00 AM 6.92 44.456 0.121 6.38 0.76 11.68
4/24/2023 10:45:00 AM 6.93 44.474 0.121 6.38 0.71 11.68
4/24/2023 11:00:00 AM 6.97 44.546 0.121 6.37 0.76 11.68
4/24/2023 11:15:00 AM 7.03 44.654 0.121 6.38 0.74 11.66
4/24/2023 11:30:00 AM 7.16 44.888 0.121 6.39 0.79 11.63
4/24/2023 11:45:00 AM 7.36 45.248 0.121 6.42 0.76 11.58
4/24/2023 12:00:00 PM 7.6 45.68 0.121 6.44 0.78 11.51
4/24/2023 12:15:00 PM 7.8 46.04 0.121 6.44 0.8 11.45
4/24/2023 12:30:00 PM 7.93 46.274 0.121 6.44 0.78 11.4
4/24/2023 12:45:00 PM 8.07 46.526 0.121 6.42 0.83 11.36
4/24/2023 1:00:00 PM 8.18 46.724 0.12 6.44 0.79 11.33
4/24/2023 1:15:00 PM 8.27 46.886 0.12 6.44 0.81 11.3
4/24/2023 1:30:00 PM 8.3 46.94 0.12 6.43 0.78 11.29
4/24/2023 1:45:00 PM 8.3 46.94 0.12 6.42 0.81 11.29
4/24/2023 2:00:00 PM 8.31 46.958 0.12 6.42 0.82 11.29
4/24/2023 2:15:00 PM 8.31 46.958 0.12 6.43 0.8 11.29
4/24/2023 2:30:00 PM 8.27 46.886 0.121 6.39 0.89 11.3
4/24/2023 2:45:00 PM 8.22 46.796 0.121 6.38 0.84 11.31
4/24/2023 3:00:00 PM 8.25 46.85 0.121 6.39 0.79 11.3
4/24/2023 3:15:00 PM 8.26 46.868 0.121 6.39 0.83 11.3
4/24/2023 3:30:00 PM 8.22 46.796 0.121 6.38 0.89 11.3
4/24/2023 3:45:00 PM 8.18 46.724 0.121 6.37 0.83 11.32
4/24/2023 4:00:00 PM 8.1 46.58 0.121 6.37 0.86 11.33
4/24/2023 4:15:00 PM 8.04 46.472 0.121 6.34 0.86 11.35
4/24/2023 4:30:00 PM 8.04 46.472 0.121 6.35 0.88 11.36
4/24/2023 4:45:00 PM 8.04 46.472 0.121 6.34 0.75 11.36
4/24/2023 5:00:00 PM 8.01 46.418 0.121 6.35 0.78 11.37
4/24/2023 5:15:00 PM 7.98 46.364 0.121 6.34 0.79 11.38
4/24/2023 5:30:00 PM 7.95 46.31 0.121 6.34 0.8 11.39
4/24/2023 5:45:00 PM 7.9 46.22 0.121 6.34 0.82 11.4
4/24/2023 6:00:00 PM 7.85 46.13 0.121 6.32 0.79 11.41
4/24/2023 6:15:00 PM 7.79 46.022 0.121 6.31 0.8 11.43
4/24/2023 6:30:00 PM 7.75 45.95 0.121 6.32 0.83 11.44
4/24/2023 6:45:00 PM 7.69 45.842 0.121 6.31 0.85 11.46
4/24/2023 7:00:00 PM 7.63 45.734 0.121 6.27 0.87 11.47
4/24/2023 7:15:00 PM 7.55 45.59 0.121 6.3 0.74 11.49
4/24/2023 7:30:00 PM 7.47 45.446 0.121 6.28 0.73 11.51
4/24/2023 7:45:00 PM 7.4 45.32 0.121 6.26 0.85 11.53
4/24/2023 8:00:00 PM 7.33 45.194 0.121 6.29 0.77 11.55
4/24/2023 8:15:00 PM 7.26 45.068 0.121 6.28 0.8 11.57
4/24/2023 8:30:00 PM 7.17 44.906 0.121 6.26 0.78 11.6
4/24/2023 8:45:00 PM 7.08 44.744 0.121 6.24 0.84 11.62
4/24/2023 9:00:00 PM 6.99 44.582 0.121 6.21 0.76 11.65
4/24/2023 9:15:00 PM 6.91 44.438 0.121 6.23 0.89 11.68
4/24/2023 9:30:00 PM 6.84 44.312 0.121 6.24 0.79 11.7
4/24/2023 9:45:00 PM 6.77 44.186 0.121 6.24 0.81 11.72
4/24/2023 10:00:00 PM 6.71 44.078 0.121 6.23 0.7 11.74
4/24/2023 10:15:00 PM 6.65 43.97 0.121 6.23 0.77 11.75
4/24/2023 10:30:00 PM 6.59 43.862 0.121 6.21 0.76 11.77
4/24/2023 10:45:00 PM 6.53 43.754 0.122 6.25 0.76 11.79
4/24/2023 11:00:00 PM 6.48 43.664 0.122 6.22 0.72 11.8
4/24/2023 11:15:00 PM 6.43 43.574 0.122 6.22 0.74 11.81
4/24/2023 11:30:00 PM 6.37 43.466 0.122 6.22 0.68 11.83
4/24/2023 11:45:00 PM 6.32 43.376 0.122 6.23 0.7 11.85
4/25/2023 12:00:00 AM 6.26 43.268 0.122 6.22 0.73 11.86
4/25/2023 12:15:00 AM 6.21 43.178 0.122 6.24 0.67 11.88
4/25/2023 12:30:00 AM 6.16 43.088 0.122 6.23 0.72 11.89
4/25/2023 12:45:00 AM 6.12 43.016 0.122 6.23 0.7 11.91
4/25/2023 1:00:00 AM 6.07 42.926 0.122 6.24 0.69 11.92
4/25/2023 1:15:00 AM 6.03 42.854 0.122 6.24 0.75 11.93
4/25/2023 1:30:00 AM 5.99 42.782 0.122 6.24 0.69 11.94
4/25/2023 1:45:00 AM 5.96 42.728 0.122 6.25 0.64 11.95
4/25/2023 2:00:00 AM 5.92 42.656 0.122 6.26 0.71 11.97
4/25/2023 2:15:00 AM 5.88 42.584 0.122 6.24 0.81 11.98
4/25/2023 2:30:00 AM 5.83 42.494 0.122 6.26 0.69 11.99
4/25/2023 2:45:00 AM 5.79 42.422 0.122 6.25 0.69 12.01
4/25/2023 3:00:00 AM 5.75 42.35 0.122 6.26 0.65 12.02
4/25/2023 3:15:00 AM 5.7 42.26 0.122 6.25 0.67 12.03
4/25/2023 3:30:00 AM 5.66 42.188 0.122 6.26 0.67 12.05
4/25/2023 3:45:00 AM 5.62 42.116 0.122 6.24 0.67 12.07
4/25/2023 4:00:00 AM 5.59 42.062 0.122 6.23 0.72 12.07
4/25/2023 4:15:00 AM 5.57 42.026 0.122 6.23 0.7 12.08
4/25/2023 4:30:00 AM 5.55 41.99 0.122 6.27 0.65 12.09
4/25/2023 4:45:00 AM 5.52 41.936 0.122 6.27 0.67 12.1
4/25/2023 5:00:00 AM 5.5 41.9 0.122 6.27 0.7 12.11
4/25/2023 5:15:00 AM 5.48 41.864 0.122 6.26 0.67 12.11
4/25/2023 5:30:00 AM 5.46 41.828 0.122 6.27 0.66 12.11
4/25/2023 5:45:00 AM 5.44 41.792 0.122 6.25 0.67 12.12
4/25/2023 6:00:00 AM 5.42 41.756 0.122 6.25 0.65 12.13
4/25/2023 6:15:00 AM 5.39 41.702 0.122 6.26 0.7 12.14
4/25/2023 6:30:00 AM 5.36 41.648 0.122 6.27 0.7 12.15
4/25/2023 6:45:00 AM 5.32 41.576 0.122 6.26 0.68 12.17
4/25/2023 7:00:00 AM 5.3 41.54 0.122 6.26 0.68 12.18
4/25/2023 7:15:00 AM 5.27 41.486 0.122 6.24 0.62 12.19
4/25/2023 7:30:00 AM 5.25 41.45 0.122 6.26 0.62 12.2
4/25/2023 7:45:00 AM 5.26 41.468 0.122 6.26 0.6 12.21
4/25/2023 8:00:00 AM 5.27 41.486 0.122 6.28 0.65 12.21
4/25/2023 8:15:00 AM 5.28 41.504 0.122 6.29 0.63 12.21
4/25/2023 8:30:00 AM 5.3 41.54 0.122 6.3 0.63 12.21
4/25/2023 8:45:00 AM 5.35 41.63 0.122 6.27 0.63 12.2
4/25/2023 9:00:00 AM 5.41 41.738 0.122 6.32 0.62 12.19
4/25/2023 9:15:00 AM 5.48 41.864 0.122 6.29 0.61 12.16
4/25/2023 9:30:00 AM 5.58 42.044 0.121 6.33 0.61 12.14
4/25/2023 9:45:00 AM 5.71 42.278 0.121 6.34 0.62 12.1
4/25/2023 10:00:00 AM 5.82 42.476 0.121 6.38 0.63 12.07
4/25/2023 10:15:00 AM 5.93 42.674 0.121 6.36 0.62 12.03
4/25/2023 10:30:00 AM 6.03 42.854 0.121 6.37 0.62 12
4/25/2023 10:45:00 AM 6.21 43.178 0.121 6.37 0.59 11.95
4/25/2023 11:00:00 AM 6.41 43.538 0.121 6.37 0.61 11.89
4/25/2023 11:15:00 AM 6.62 43.916 0.121 6.4 0.65 11.83
4/25/2023 11:30:00 AM 6.84 44.312 0.121 6.4 0.61 11.77
4/25/2023 11:45:00 AM 6.93 44.474 0.121 6.38 0.62 11.73
4/25/2023 12:00:00 PM 6.96 44.528 0.121 6.39 0.65 11.72
4/25/2023 12:15:00 PM 7.01 44.618 0.121 6.39 0.67 11.69
4/25/2023 12:30:00 PM 7.09 44.762 0.121 6.37 0.67 11.68
4/25/2023 12:45:00 PM 7.14 44.852 0.121 6.34 0.73 11.66
4/25/2023 1:00:00 PM 7.25 45.05 0.121 6.37 0.63 11.64
4/25/2023 1:15:00 PM 7.34 45.212 0.121 6.38 0.71 11.61
4/25/2023 1:30:00 PM 7.56 45.608 0.121 6.39 0.64 11.56
4/25/2023 1:45:00 PM 7.72 45.896 0.121 6.4 0.68 11.51
4/25/2023 2:00:00 PM 7.81 46.058 0.121 6.4 0.68 11.47
4/25/2023 2:15:00 PM 7.92 46.256 0.121 6.4 0.7 11.44
4/25/2023 2:30:00 PM 7.93 46.274 0.121 6.38 0.7 11.43
4/25/2023 2:45:00 PM 8.07 46.526 0.121 6.37 0.65 11.39
4/25/2023 3:00:00 PM 8.11 46.598 0.121 6.36 0.7 11.37
4/25/2023 3:15:00 PM 8.1 46.58 0.121 6.36 0.69 11.37
4/25/2023 3:30:00 PM 8.1 46.58 0.121 6.35 0.7 11.37
4/25/2023 3:45:00 PM 8.12 46.616 0.121 6.33 0.7 11.36
4/25/2023 4:00:00 PM 8.1 46.58 0.121 6.32 0.7 11.37
4/25/2023 4:15:00 PM 8.1 46.58 0.121 6.31 0.73 11.36
4/25/2023 4:30:00 PM 8.06 46.508 0.121 6.3 0.73 11.37
4/25/2023 4:45:00 PM 8.02 46.436 0.121 6.31 0.73 11.38
4/25/2023 5:00:00 PM 8.01 46.418 0.121 6.3 0.76 11.39
4/25/2023 5:15:00 PM 7.97 46.346 0.121 6.28 0.78 11.39
4/25/2023 5:30:00 PM 7.94 46.292 0.121 6.28 0.71 11.4
4/25/2023 5:45:00 PM 7.9 46.22 0.121 6.29 0.77 11.41
4/25/2023 6:00:00 PM 7.84 46.112 0.121 6.25 0.72 11.43
4/25/2023 6:15:00 PM 7.76 45.968 0.121 6.27 0.73 11.45
4/25/2023 6:30:00 PM 7.7 45.86 0.121 6.24 0.71 11.47
4/25/2023 6:45:00 PM 7.65 45.77 0.121 6.25 0.79 11.48
4/25/2023 7:00:00 PM 7.62 45.716 0.121 6.25 0.71 11.49
4/25/2023 7:15:00 PM 7.59 45.662 0.121 6.26 0.7 11.5
4/25/2023 7:30:00 PM 7.55 45.59 0.121 6.23 0.68 11.5
4/25/2023 7:45:00 PM 7.51 45.518 0.121 6.26 0.75 11.51
4/25/2023 8:00:00 PM 7.46 45.428 0.121 6.25 0.77 11.52
4/25/2023 8:15:00 PM 7.41 45.338 0.121 6.2 0.71 11.53
4/25/2023 8:30:00 PM 7.36 45.248 0.121 6.21 0.68 11.55
4/25/2023 8:45:00 PM 7.31 45.158 0.121 6.2 0.71 11.56
4/25/2023 9:00:00 PM 7.27 45.086 0.121 6.23 0.75 11.57
4/25/2023 9:15:00 PM 7.23 45.014 0.121 6.22 0.75 11.59
4/25/2023 9:30:00 PM 7.2 44.96 0.121 6.21 0.76 11.6
4/25/2023 9:45:00 PM 7.16 44.888 0.121 6.22 0.76 11.61
4/25/2023 10:00:00 PM 7.13 44.834 0.122 6.23 0.7 11.62
4/25/2023 10:15:00 PM 7.11 44.798 0.122 6.21 0.71 11.63
4/25/2023 10:30:00 PM 7.08 44.744 0.122 6.22 0.74 11.63
4/25/2023 10:45:00 PM 7.04 44.672 0.122 6.22 0.72 11.64
4/25/2023 11:00:00 PM 7.01 44.618 0.121 6.22 0.69 11.65
4/25/2023 11:15:00 PM 6.99 44.582 0.121 6.22 0.7 11.66
4/25/2023 11:30:00 PM 6.96 44.528 0.122 6.22 0.71 11.67
4/25/2023 11:45:00 PM 6.92 44.456 0.122 6.23 0.7 11.67
4/26/2023 12:00:00 AM 6.88 44.384 0.122 6.23 0.69 11.69
4/26/2023 12:15:00 AM 6.84 44.312 0.122 6.21 0.69 11.7
4/26/2023 12:30:00 AM 6.78 44.204 0.122 6.19 0.71 11.71
4/26/2023 12:45:00 AM 6.72 44.096 0.122 6.21 0.68 11.73
4/26/2023 1:00:00 AM 6.67 44.006 0.122 6.23 0.67 11.74
4/26/2023 1:15:00 AM 6.61 43.898 0.122 6.23 0.77 11.76
4/26/2023 1:30:00 AM 6.54 43.772 0.122 6.23 0.71 11.78
4/26/2023 1:45:00 AM 6.49 43.682 0.122 6.2 0.72 11.8
4/26/2023 2:00:00 AM 6.44 43.592 0.122 6.21 0.7 11.81
4/26/2023 2:15:00 AM 6.38 43.484 0.122 6.2 0.66 11.82
4/26/2023 2:30:00 AM 6.33 43.394 0.122 6.2 0.7 11.84
4/26/2023 2:45:00 AM 6.29 43.322 0.122 6.18 0.72 11.85
4/26/2023 3:00:00 AM 6.27 43.286 0.122 6.19 0.68 11.86
4/26/2023 3:15:00 AM 6.23 43.214 0.122 6.19 0.72 11.87
4/26/2023 3:30:00 AM 6.2 43.16 0.122 6.2 0.69 11.88
4/26/2023 3:45:00 AM 6.17 43.106 0.122 6.19 0.66 11.88
4/26/2023 4:00:00 AM 6.14 43.052 0.122 6.2 0.65 11.89
4/26/2023 4:15:00 AM 6.11 42.998 0.122 6.19 0.61 11.9
4/26/2023 4:30:00 AM 6.07 42.926 0.122 6.2 0.67 11.91
4/26/2023 4:45:00 AM 6.02 42.836 0.122 6.2 0.66 11.93
4/26/2023 5:00:00 AM 5.98 42.764 0.122 6.19 0.66 11.94
4/26/2023 5:15:00 AM 5.93 42.674 0.122 6.19 0.67 11.95
4/26/2023 5:30:00 AM 5.89 42.602 0.122 6.18 0.65 11.97
4/26/2023 5:45:00 AM 5.84 42.512 0.122 6.16 0.65 11.99
4/26/2023 6:00:00 AM 5.8 42.44 0.122 6.18 0.65 12
4/26/2023 6:15:00 AM 5.77 42.386 0.122 6.2 0.6 12.01
4/26/2023 6:30:00 AM 5.73 42.314 0.122 6.17 0.66 12.02
4/26/2023 6:45:00 AM 5.71 42.278 0.122 6.18 0.62 12.04
4/26/2023 7:00:00 AM 5.69 42.242 0.122 6.19 0.66 12.04
4/26/2023 7:15:00 AM 5.68 42.224 0.122 6.18 0.63 12.06
4/26/2023 7:30:00 AM 5.68 42.224 0.122 6.21 0.63 12.06
4/26/2023 7:45:00 AM 5.69 42.242 0.122 6.22 0.66 12.06
4/26/2023 8:00:00 AM 5.72 42.296 0.122 6.23 0.62 12.06
4/26/2023 8:15:00 AM 5.77 42.386 0.122 6.25 0.61 12.05
4/26/2023 8:30:00 AM 5.86 42.548 0.122 6.26 0.65 12.03
4/26/2023 8:45:00 AM 5.95 42.71 0.122 6.27 0.68 12
4/26/2023 9:00:00 AM 6.05 42.89 0.122 6.3 0.64 11.97
4/26/2023 9:15:00 AM 6.16 43.088 0.122 6.32 0.66 11.94
4/26/2023 9:30:00 AM 6.28 43.304 0.122 6.32 0.6 11.91
4/26/2023 9:45:00 AM 6.41 43.538 0.122 6.33 0.58 11.87
4/26/2023 10:00:00 AM 6.51 43.718 0.122 6.33 0.63 11.83
4/26/2023 10:15:00 AM 6.56 43.808 0.121 6.33 0.58 11.81
4/26/2023 10:30:00 AM 6.62 43.916 0.121 6.32 0.61 11.8
4/26/2023 10:45:00 AM 6.68 44.024 0.121 6.3 0.62 11.78
4/26/2023 11:00:00 AM 6.69 44.042 0.121 6.31 0.66 11.78
4/26/2023 11:15:00 AM 6.71 44.078 0.121 6.3 0.63 11.77
4/26/2023 11:30:00 AM 6.8 44.24 0.121 6.3 0.6 11.75
4/26/2023 11:45:00 AM 6.92 44.456 0.121 6.33 0.6 11.72
4/26/2023 12:00:00 PM 7.01 44.618 0.121 6.34 0.68 11.7
4/26/2023 12:15:00 PM 7.19 44.942 0.121 6.36 0.6 11.65
4/26/2023 12:30:00 PM 7.36 45.248 0.121 6.36 0.63 11.59
4/26/2023 12:45:00 PM 7.47 45.446 0.121 6.37 0.62 11.55
4/26/2023 1:00:00 PM 7.51 45.518 0.121 6.35 0.66 11.53
4/26/2023 1:15:00 PM 7.57 45.626 0.121 6.34 0.69 11.51
4/26/2023 1:30:00 PM 7.62 45.716 0.121 6.34 0.66 11.5
4/26/2023 1:45:00 PM 7.7 45.86 0.121 6.33 0.7 11.47
4/26/2023 2:00:00 PM 7.79 46.022 0.121 6.34 0.63 11.45
4/26/2023 2:15:00 PM 7.86 46.148 0.121 6.35 0.68 11.43
4/26/2023 2:30:00 PM 7.96 46.328 0.121 6.34 0.67 11.4
4/26/2023 2:45:00 PM 8 46.4 0.121 6.35 0.69 11.39
4/26/2023 3:00:00 PM 8.06 46.508 0.121 6.33 0.83 11.37
4/26/2023 3:15:00 PM 8.06 46.508 0.121 6.32 0.72 11.37
4/26/2023 3:30:00 PM 8.08 46.544 0.121 6.32 0.72 11.37
4/26/2023 3:45:00 PM 8.13 46.634 0.121 6.32 0.68 11.35
4/26/2023 4:00:00 PM 8.16 46.688 0.121 6.3 0.67 11.34
4/26/2023 4:15:00 PM 8.2 46.76 0.121 6.3 0.67 11.32
4/26/2023 4:30:00 PM 8.22 46.796 0.121 6.29 0.73 11.32
4/26/2023 4:45:00 PM 8.24 46.832 0.121 6.31 0.77 11.31
4/26/2023 5:00:00 PM 8.24 46.832 0.121 6.3 0.76 11.31
4/26/2023 5:15:00 PM 8.22 46.796 0.121 6.28 0.77 11.31
4/26/2023 5:30:00 PM 8.21 46.778 0.121 6.26 0.7 11.32
4/26/2023 5:45:00 PM 8.18 46.724 0.121 6.29 0.74 11.32
4/26/2023 6:00:00 PM 8.14 46.652 0.121 6.26 0.75 11.33
4/26/2023 6:15:00 PM 8.11 46.598 0.121 6.27 0.76 11.34
4/26/2023 6:30:00 PM 8.07 46.526 0.121 6.26 0.77 11.34
4/26/2023 6:45:00 PM 8.02 46.436 0.121 6.25 0.71 11.35
4/26/2023 7:00:00 PM 7.97 46.346 0.121 6.24 0.77 11.36
4/26/2023 7:15:00 PM 7.91 46.238 0.121 6.22 0.75 11.38
4/26/2023 7:30:00 PM 7.85 46.13 0.121 6.21 0.72 11.4
4/26/2023 7:45:00 PM 7.78 46.004 0.121 6.21 0.77 11.42
4/26/2023 8:00:00 PM 7.7 45.86 0.121 6.19 0.81 11.44
4/26/2023 8:15:00 PM 7.62 45.716 0.121 6.18 0.77 11.46
4/26/2023 8:30:00 PM 7.54 45.572 0.121 6.17 0.75 11.48
4/26/2023 8:45:00 PM 7.46 45.428 0.122 6.16 0.74 11.51
4/26/2023 9:00:00 PM 7.37 45.266 0.122 6.15 0.76 11.53
4/26/2023 9:15:00 PM 7.29 45.122 0.122 6.15 0.75 11.55
4/26/2023 9:30:00 PM 7.21 44.978 0.122 6.15 0.81 11.58
4/26/2023 9:45:00 PM 7.12 44.816 0.122 6.15 0.74 11.6
4/26/2023 10:00:00 PM 7.04 44.672 0.122 6.14 0.72 11.63
4/26/2023 10:15:00 PM 6.96 44.528 0.122 6.15 0.76 11.65
4/26/2023 10:30:00 PM 6.88 44.384 0.122 6.17 0.75 11.68
4/26/2023 10:45:00 PM 6.8 44.24 0.122 6.15 0.83 11.7
4/26/2023 11:00:00 PM 6.72 44.096 0.122 6.15 0.68 11.72
4/26/2023 11:15:00 PM 6.66 43.988 0.122 6.16 0.74 11.74
4/26/2023 11:30:00 PM 6.59 43.862 0.122 6.16 0.74 11.76
4/26/2023 11:45:00 PM 6.54 43.772 0.122 6.15 0.74 11.77
4/27/2023 12:00:00 AM 6.49 43.682 0.122 6.14 0.75 11.79
4/27/2023 12:15:00 AM 6.44 43.592 0.122 6.16 0.72 11.8
4/27/2023 12:30:00 AM 6.4 43.52 0.122 6.17 0.73 11.82
4/27/2023 12:45:00 AM 6.35 43.43 0.122 6.18 0.71 11.83
4/27/2023 1:00:00 AM 6.32 43.376 0.122 6.18 0.72 11.84
4/27/2023 1:15:00 AM 6.29 43.322 0.122 6.19 0.67 11.85
4/27/2023 1:30:00 AM 6.26 43.268 0.122 6.17 0.76 11.86
4/27/2023 1:45:00 AM 6.22 43.196 0.122 6.19 0.65 11.87
4/27/2023 2:00:00 AM 6.18 43.124 0.122 6.19 0.68 11.88
4/27/2023 2:15:00 AM 6.14 43.052 0.122 6.18 0.65 11.89
4/27/2023 2:30:00 AM 6.09 42.962 0.122 6.19 0.65 11.9
4/27/2023 2:45:00 AM 6.04 42.872 0.122 6.2 0.66 11.92
4/27/2023 3:00:00 AM 5.99 42.782 0.122 6.2 0.67 11.93
4/27/2023 3:15:00 AM 5.94 42.692 0.122 6.2 0.66 11.95
4/27/2023 3:30:00 AM 5.89 42.602 0.122 6.19 0.69 11.96
4/27/2023 3:45:00 AM 5.84 42.512 0.122 6.21 0.65 11.98
4/27/2023 4:00:00 AM 5.79 42.422 0.122 6.19 0.66 12
4/27/2023 4:15:00 AM 5.74 42.332 0.122 6.2 0.66 12.01
4/27/2023 4:30:00 AM 5.7 42.26 0.122 6.21 0.67 12.03
4/27/2023 4:45:00 AM 5.66 42.188 0.122 6.17 0.66 12.04
4/27/2023 5:00:00 AM 5.62 42.116 0.122 6.24 0.64 12.05
4/27/2023 5:15:00 AM 5.58 42.044 0.122 6.21 0.68 12.07
4/27/2023 5:30:00 AM 5.54 41.972 0.122 6.2 0.72 12.08
4/27/2023 5:45:00 AM 5.5 41.9 0.122 6.2 0.64 12.1
4/27/2023 6:00:00 AM 5.46 41.828 0.122 6.21 0.63 12.11
4/27/2023 6:15:00 AM 5.42 41.756 0.122 6.2 0.65 12.12
4/27/2023 6:30:00 AM 5.39 41.702 0.122 6.18 0.65 12.14
4/27/2023 6:45:00 AM 5.36 41.648 0.122 6.2 0.63 12.15
4/27/2023 7:00:00 AM 5.34 41.612 0.122 6.21 0.65 12.16
4/27/2023 7:15:00 AM 5.34 41.612 0.122 6.21 0.65 12.17
4/27/2023 7:30:00 AM 5.36 41.648 0.122 6.25 0.63 12.17
4/27/2023 7:45:00 AM 5.4 41.72 0.122 6.24 0.65 12.17
4/27/2023 8:00:00 AM 5.44 41.792 0.122 6.26 0.63 12.15
4/27/2023 8:15:00 AM 5.51 41.918 0.122 6.27 0.66 12.14
4/27/2023 8:30:00 AM 5.6 42.08 0.122 6.3 0.63 12.12
4/27/2023 8:45:00 AM 5.71 42.278 0.122 6.32 0.6 12.09
4/27/2023 9:00:00 AM 5.84 42.512 0.122 6.32 0.63 12.05
4/27/2023 9:15:00 AM 5.97 42.746 0.122 6.33 0.59 12.01
4/27/2023 9:30:00 AM 6.09 42.962 0.122 6.34 0.62 11.97
4/27/2023 9:45:00 AM 6.21 43.178 0.122 6.34 0.62 11.93
4/27/2023 10:00:00 AM 6.37 43.466 0.122 6.35 0.58 11.88
4/27/2023 10:15:00 AM 6.62 43.916 0.121 6.38 0.61 11.82
4/27/2023 10:30:00 AM 6.83 44.294 0.121 6.39 0.67 11.75
4/27/2023 10:45:00 AM 7.02 44.636 0.121 6.39 0.62 11.7
4/27/2023 11:00:00 AM 7.22 44.996 0.121 6.39 0.63 11.64
4/27/2023 11:15:00 AM 7.45 45.41 0.121 6.4 0.62 11.57
4/27/2023 11:30:00 AM 7.75 45.95 0.121 6.41 0.58 11.49
4/27/2023 11:45:00 AM 8.01 46.418 0.121 6.42 0.63 11.41
4/27/2023 12:00:00 PM 8.24 46.832 0.121 6.42 0.6 11.35
4/27/2023 12:15:00 PM 8.45 47.21 0.121 6.41 0.59 11.28
4/27/2023 12:30:00 PM 8.65 47.57 0.121 6.41 0.63 11.22
4/27/2023 12:45:00 PM 8.85 47.93 0.121 6.41 0.62 11.16
4/27/2023 1:00:00 PM 9.04 48.272 0.121 6.42 0.69 11.1
4/27/2023 1:15:00 PM 9.23 48.614 0.121 6.41 0.64 11.05
4/27/2023 1:30:00 PM 9.41 48.938 0.121 6.41 0.71 11
4/27/2023 1:45:00 PM 9.58 49.244 0.121 6.4 0.65 10.95
4/27/2023 2:00:00 PM 9.72 49.496 0.121 6.39 0.75 10.92
4/27/2023 2:15:00 PM 9.83 49.694 0.121 6.39 0.72 10.89
4/27/2023 2:30:00 PM 9.92 49.856 0.121 6.39 0.74 10.86
4/27/2023 2:45:00 PM 9.97 49.946 0.121 6.36 0.73 10.85
4/27/2023 3:00:00 PM 9.99 49.982 0.121 6.35 0.66 10.84
4/27/2023 3:15:00 PM 10 50 0.121 6.33 0.73 10.84
4/27/2023 3:30:00 PM 10 50 0.121 6.32 0.77 10.83
4/27/2023 3:45:00 PM 9.96 49.928 0.121 6.31 0.78 10.84
4/27/2023 4:00:00 PM 9.91 49.838 0.121 6.28 0.84 10.85
4/27/2023 4:15:00 PM 9.86 49.748 0.121 6.27 0.76 10.86
4/27/2023 4:30:00 PM 9.8 49.64 0.121 6.26 0.79 10.88
4/27/2023 4:45:00 PM 9.75 49.55 0.121 6.25 0.79 10.89
4/27/2023 5:00:00 PM 9.71 49.478 0.121 6.25 0.77 10.9
4/27/2023 5:15:00 PM 9.65 49.37 0.121 6.24 0.77 10.91
4/27/2023 5:30:00 PM 9.58 49.244 0.121 6.23 0.76 10.93
4/27/2023 5:45:00 PM 9.51 49.118 0.121 6.21 0.89 10.95
4/27/2023 6:00:00 PM 9.44 48.992 0.121 6.2 0.84 10.96
4/27/2023 6:15:00 PM 9.37 48.866 0.121 6.21 0.81 10.98
4/27/2023 6:30:00 PM 9.3 48.74 0.121 6.2 0.84 10.99
4/27/2023 6:45:00 PM 9.22 48.596 0.121 6.2 0.79 11.01
4/27/2023 7:00:00 PM 9.14 48.452 0.121 6.2 0.89 11.02
4/27/2023 7:15:00 PM 9.06 48.308 0.121 6.19 0.89 11.04
4/27/2023 7:30:00 PM 8.97 48.146 0.121 6.17 0.94 11.05
4/27/2023 7:45:00 PM 8.89 48.002 0.121 6.17 0.85 11.07
4/27/2023 8:00:00 PM 8.8 47.84 0.121 6.17 0.8 11.1
4/27/2023 8:15:00 PM 8.7 47.66 0.121 6.17 0.86 11.12
4/27/2023 8:30:00 PM 8.61 47.498 0.121 6.15 0.85 11.15
4/27/2023 8:45:00 PM 8.52 47.336 0.121 6.14 0.84 11.17
4/27/2023 9:00:00 PM 8.44 47.192 0.121 6.16 0.86 11.2
4/27/2023 9:15:00 PM 8.36 47.048 0.121 6.15 0.85 11.22
4/27/2023 9:30:00 PM 8.29 46.922 0.122 6.16 0.87 11.24
4/27/2023 9:45:00 PM 8.21 46.778 0.122 6.17 0.84 11.26
4/27/2023 10:00:00 PM 8.14 46.652 0.121 6.16 0.82 11.28
4/27/2023 10:15:00 PM 8.07 46.526 0.121 6.17 0.81 11.3
4/27/2023 10:30:00 PM 8 46.4 0.121 6.15 0.8 11.32
4/27/2023 10:45:00 PM 7.94 46.292 0.121 6.17 0.75 11.34
4/27/2023 11:00:00 PM 7.89 46.202 0.122 6.17 0.78 11.35
4/27/2023 11:15:00 PM 7.84 46.112 0.122 6.18 0.81 11.37
4/27/2023 11:30:00 PM 7.81 46.058 0.122 6.19 0.75 11.38
4/27/2023 11:45:00 PM 7.77 45.986 0.122 6.22 0.76 11.39
4/28/2023 12:00:00 AM 7.74 45.932 0.122 6.2 0.74 11.39
4/28/2023 12:15:00 AM 7.72 45.896 0.122 6.21 0.74 11.4
4/28/2023 12:30:00 AM 7.71 45.878 0.122 6.22 0.75 11.41
4/28/2023 12:45:00 AM 7.72 45.896 0.122 6.22 0.73 11.41
4/28/2023 1:00:00 AM 7.74 45.932 0.122 6.22 0.76 11.39
4/28/2023 1:15:00 AM 7.76 45.968 0.122 6.29 0.76 11.39
4/28/2023 1:30:00 AM 7.79 46.022 0.122 6.28 0.73 11.38
4/28/2023 1:45:00 AM 7.81 46.058 0.122 6.26 0.71 11.38
4/28/2023 2:00:00 AM 7.84 46.112 0.122 6.28 0.77 11.37
4/28/2023 2:15:00 AM 7.87 46.166 0.122 6.29 1.08 11.36
4/28/2023 2:30:00 AM 7.9 46.22 0.122 6.29 0.78 11.35
4/28/2023 2:45:00 AM 7.92 46.256 0.122 6.29 0.85 11.34
4/28/2023 3:00:00 AM 7.94 46.292 0.122 6.29 0.89 11.34
4/28/2023 3:15:00 AM 7.96 46.328 0.122 6.28 0.75 11.33
4/28/2023 3:30:00 AM 7.98 46.364 0.122 6.28 0.73 11.32
4/28/2023 3:45:00 AM 7.99 46.382 0.122 6.28 0.79 11.32
4/28/2023 4:00:00 AM 8 46.4 0.122 6.28 0.73 11.31
4/28/2023 4:15:00 AM 8.02 46.436 0.122 6.27 0.82 11.31
4/28/2023 4:30:00 AM 8.03 46.454 0.122 6.26 0.92 11.31
4/28/2023 4:45:00 AM 8.04 46.472 0.122 6.27 0.81 11.3
4/28/2023 5:00:00 AM 8.05 46.49 0.122 6.27 0.77 11.3
4/28/2023 5:15:00 AM 8.05 46.49 0.122 6.27 0.75 11.29
4/28/2023 5:30:00 AM 8.06 46.508 0.122 6.26 0.82 11.29
4/28/2023 5:45:00 AM 8.06 46.508 0.122 6.28 0.75 11.29
4/28/2023 6:00:00 AM 8.07 46.526 0.122 6.27 0.77 11.28
4/28/2023 6:15:00 AM 8.07 46.526 0.121 6.27 0.75 11.28
4/28/2023 6:30:00 AM 8.07 46.526 0.121 6.27 0.7 11.28
4/28/2023 6:45:00 AM 8.07 46.526 0.121 6.25 0.73 11.28
4/28/2023 7:00:00 AM 8.07 46.526 0.121 6.27 0.74 11.28
4/28/2023 7:15:00 AM 8.07 46.526 0.121 6.26 0.75 11.28
4/28/2023 7:30:00 AM 8.07 46.526 0.121 6.27 0.76 11.28
4/28/2023 7:45:00 AM 8.07 46.526 0.121 6.29 0.79 11.28
4/28/2023 8:00:00 AM 8.06 46.508 0.121 6.27 0.76 11.29
4/28/2023 8:15:00 AM 8.06 46.508 0.121 6.27 0.75 11.29
4/28/2023 8:30:00 AM 8.06 46.508 0.121 6.27 0.76 11.29
4/28/2023 8:45:00 AM 8.05 46.49 0.121 6.27 0.79 11.3
4/28/2023 9:00:00 AM 8.05 46.49 0.121 6.27 0.74 11.3
4/28/2023 9:15:00 AM 8.05 46.49 0.121 6.28 0.76 11.3
4/28/2023 9:30:00 AM 8.05 46.49 0.121 6.27 0.73 11.3
4/28/2023 9:45:00 AM 8.04 46.472 0.121 6.26 0.79 11.3
4/28/2023 10:00:00 AM 8.04 46.472 0.121 6.28 0.86 11.3
4/28/2023 10:15:00 AM 8.03 46.454 0.121 6.26 0.98 11.31
4/28/2023 10:30:00 AM 8.03 46.454 0.12 6.27 1.06 11.31
4/28/2023 10:45:00 AM 8.03 46.454 0.12 6.27 1.12 11.31
4/28/2023 11:00:00 AM 8.03 46.454 0.12 6.28 1.11 11.31
4/28/2023 11:15:00 AM 8.03 46.454 0.12 6.28 1.18 11.31
4/28/2023 11:30:00 AM 8.03 46.454 0.12 6.27 1.14 11.31
4/28/2023 11:45:00 AM 8.03 46.454 0.12 6.28 1.23 11.31
4/28/2023 12:00:00 PM 8.04 46.472 0.12 6.28 1.28 11.31
4/28/2023 12:15:00 PM 8.04 46.472 0.12 6.3 1.25 11.3
4/28/2023 12:30:00 PM 8.04 46.472 0.12 6.29 1.32 11.31
4/28/2023 12:45:00 PM 8.05 46.49 0.12 6.31 1.34 11.3
4/28/2023 1:00:00 PM 8.06 46.508 0.12 6.31 1.41 11.3
4/28/2023 1:15:00 PM 8.06 46.508 0.121 6.31 1.54 11.3
4/28/2023 1:30:00 PM 8.06 46.508 0.122 6.34 1.58 11.3
4/28/2023 1:45:00 PM 8.07 46.526 0.122 6.33 1.65 11.3
4/28/2023 2:00:00 PM 8.07 46.526 0.123 6.35 1.82 11.29
4/28/2023 2:15:00 PM 8.08 46.544 0.123 6.36 1.67 11.29
4/28/2023 2:30:00 PM 8.08 46.544 0.125 6.36 1.82 11.29
4/28/2023 2:45:00 PM 8.09 46.562 0.127 6.36 1.78 11.29
4/28/2023 3:00:00 PM 8.1 46.58 0.129 6.39 1.79 11.28
4/28/2023 3:15:00 PM 8.1 46.58 0.131 6.38 1.68 11.28
4/28/2023 3:30:00 PM 8.1 46.58 0.132 6.39 1.86 11.27
4/28/2023 3:45:00 PM 8.1 46.58 0.133 6.39 1.94 11.27
4/28/2023 4:00:00 PM 8.09 46.562 0.134 6.41 2.01 11.27
4/28/2023 4:15:00 PM 8.08 46.544 0.135 6.42 1.93 11.27
4/28/2023 4:30:00 PM 8.07 46.526 0.135 6.43 1.72 11.28
4/28/2023 4:45:00 PM 8.06 46.508 0.136 6.43 1.7 11.28
4/28/2023 5:00:00 PM 8.05 46.49 0.136 6.44 1.59 11.28
4/28/2023 5:15:00 PM 8.03 46.454 0.136 6.45 1.62 11.29
4/28/2023 5:30:00 PM 8.02 46.436 0.136 6.45 1.69 11.29
4/28/2023 5:45:00 PM 8 46.4 0.136 6.47 1.73 11.29
4/28/2023 6:00:00 PM 7.98 46.364 0.137 6.48 1.93 11.29
4/28/2023 6:15:00 PM 7.97 46.346 0.138 6.47 1.94 11.3
4/28/2023 6:30:00 PM 7.95 46.31 0.139 6.46 2.22 11.3
4/28/2023 6:45:00 PM 7.94 46.292 0.139 6.47 1.88 11.31
4/28/2023 7:00:00 PM 7.92 46.256 0.139 6.47 1.79 11.31
4/28/2023 7:15:00 PM 7.9 46.22 0.139 6.47 1.69 11.31
4/28/2023 7:30:00 PM 7.88 46.184 0.14 6.47 1.83 11.32
4/28/2023 7:45:00 PM 7.86 46.148 0.14 6.47 1.76 11.32
4/28/2023 8:00:00 PM 7.84 46.112 0.139 6.48 1.78 11.33
4/28/2023 8:15:00 PM 7.81 46.058 0.139 6.48 1.99 11.34
4/28/2023 8:30:00 PM 7.78 46.004 0.139 6.48 1.92 11.35
4/28/2023 8:45:00 PM 7.75 45.95 0.139 6.47 1.88 11.36
4/28/2023 9:00:00 PM 7.72 45.896 0.14 6.47 1.83 11.37
4/28/2023 9:15:00 PM 7.69 45.842 0.14 6.46 1.6 11.37
4/28/2023 9:30:00 PM 7.67 45.806 0.14 6.46 1.78 11.38
4/28/2023 9:45:00 PM 7.64 45.752 0.139 6.46 1.64 11.39
4/28/2023 10:00:00 PM 7.61 45.698 0.139 6.46 1.48 11.4
4/28/2023 10:15:00 PM 7.59 45.662 0.139 6.45 1.6 11.4
4/28/2023 10:30:00 PM 7.56 45.608 0.138 6.45 1.48 11.41
4/28/2023 10:45:00 PM 7.54 45.572 0.138 6.44 1.43 11.41
4/28/2023 11:00:00 PM 7.52 45.536 0.138 6.45 1.49 11.42
4/28/2023 11:15:00 PM 7.49 45.482 0.138 6.43 1.53 11.42
4/28/2023 11:30:00 PM 7.47 45.446 0.137 6.44 1.44 11.43
4/28/2023 11:45:00 PM 7.45 45.41 0.137 6.44 1.42 11.43
4/29/2023 12:00:00 AM 7.43 45.374 0.137 6.44 1.48 11.44
4/29/2023 12:15:00 AM 7.42 45.356 0.137 6.42 1.34 11.44
4/29/2023 12:30:00 AM 7.4 45.32 0.137 6.43 1.42 11.44
4/29/2023 12:45:00 AM 7.39 45.302 0.137 6.43 1.37 11.44
4/29/2023 1:00:00 AM 7.37 45.266 0.137 6.43 1.37 11.45
4/29/2023 1:15:00 AM 7.36 45.248 0.136 6.43 1.44 11.45
4/29/2023 1:30:00 AM 7.34 45.212 0.136 6.43 1.33 11.45
4/29/2023 1:45:00 AM 7.33 45.194 0.136 6.42 1.3 11.45
4/29/2023 2:00:00 AM 7.32 45.176 0.136 6.43 1.32 11.45
4/29/2023 2:15:00 AM 7.31 45.158 0.136 6.42 1.26 11.45
4/29/2023 2:30:00 AM 7.3 45.14 0.136 6.41 1.27 11.46
4/29/2023 2:45:00 AM 7.3 45.14 0.136 6.41 1.25 11.45
4/29/2023 3:00:00 AM 7.29 45.122 0.136 6.41 1.28 11.46
4/29/2023 3:15:00 AM 7.28 45.104 0.136 6.42 1.23 11.46
4/29/2023 3:30:00 AM 7.27 45.086 0.135 6.41 1.25 11.46
4/29/2023 3:45:00 AM 7.27 45.086 0.135 6.41 1.22 11.46
4/29/2023 4:00:00 AM 7.26 45.068 0.135 6.41 1.18 11.46
4/29/2023 4:15:00 AM 7.25 45.05 0.135 6.41 1.12 11.46
4/29/2023 4:30:00 AM 7.25 45.05 0.135 6.41 1.21 11.46
4/29/2023 4:45:00 AM 7.24 45.032 0.135 6.41 1.2 11.46
4/29/2023 5:00:00 AM 7.24 45.032 0.135 6.4 1.22 11.46
4/29/2023 5:15:00 AM 7.23 45.014 0.135 6.4 1.17 11.47
4/29/2023 5:30:00 AM 7.23 45.014 0.135 6.4 1.36 11.47
4/29/2023 5:45:00 AM 7.22 44.996 0.135 6.4 2 11.47
4/29/2023 6:00:00 AM 7.22 44.996 0.135 6.4 1.15 11.47
4/29/2023 6:15:00 AM 7.22 44.996 0.135 6.39 1.08 11.47
4/29/2023 6:30:00 AM 7.22 44.996 0.134 6.38 1.16 11.47
4/29/2023 6:45:00 AM 7.22 44.996 0.134 6.39 1.13 11.48
4/29/2023 7:00:00 AM 7.22 44.996 0.134 6.39 1.16 11.48
4/29/2023 7:15:00 AM 7.22 44.996 0.134 6.4 1.27 11.48
4/29/2023 7:30:00 AM 7.22 44.996 0.134 6.39 1.16 11.47
4/29/2023 7:45:00 AM 7.23 45.014 0.135 6.38 1.14 11.48
4/29/2023 8:00:00 AM 7.23 45.014 0.135 6.4 1.1 11.47
4/29/2023 8:15:00 AM 7.24 45.032 0.135 6.4 1.21 11.47
4/29/2023 8:30:00 AM 7.26 45.068 0.135 6.4 1.1 11.47
4/29/2023 8:45:00 AM 7.27 45.086 0.136 6.4 1.12 11.47
4/29/2023 9:00:00 AM 7.29 45.122 0.136 6.41 1.11 11.46
4/29/2023 9:15:00 AM 7.3 45.14 0.136 6.4 1.1 11.46
4/29/2023 9:30:00 AM 7.32 45.176 0.136 6.41 1.11 11.46
4/29/2023 9:45:00 AM 7.34 45.212 0.136 6.42 1.2 11.45
4/29/2023 10:00:00 AM 7.36 45.248 0.137 6.42 1.16 11.45
4/29/2023 10:15:00 AM 7.38 45.284 0.138 6.43 1.18 11.44
4/29/2023 10:30:00 AM 7.41 45.338 0.138 6.42 1.14 11.44
4/29/2023 10:45:00 AM 7.43 45.374 0.139 6.43 1.06 11.43
4/29/2023 11:00:00 AM 7.46 45.428 0.139 6.43 1.16 11.42
4/29/2023 11:15:00 AM 7.48 45.464 0.139 6.42 1.08 11.42
4/29/2023 11:30:00 AM 7.51 45.518 0.139 6.44 1.02 11.41
4/29/2023 11:45:00 AM 7.54 45.572 0.139 6.44 1.1 11.4
4/29/2023 12:00:00 PM 7.58 45.644 0.139 6.45 1.06 11.4
4/29/2023 12:15:00 PM 7.61 45.698 0.139 6.46 1.08 11.38
4/29/2023 12:30:00 PM 7.64 45.752 0.139 6.45 1.04 11.37
4/29/2023 12:45:00 PM 7.68 45.824 0.139 6.44 1.03 11.36
4/29/2023 1:00:00 PM 7.71 45.878 0.139 6.45 1.07 11.36
4/29/2023 1:15:00 PM 7.76 45.968 0.139 6.45 1.07 11.34
4/29/2023 1:30:00 PM 7.8 46.04 0.139 6.45 1.12 11.33
4/29/2023 1:45:00 PM 7.84 46.112 0.139 6.45 1.06 11.31
4/29/2023 2:00:00 PM 7.87 46.166 0.139 6.46 1.12 11.3
4/29/2023 2:15:00 PM 7.9 46.22 0.139 6.46 1.12 11.29
4/29/2023 2:30:00 PM 7.94 46.292 0.139 6.46 1.07 11.28
4/29/2023 2:45:00 PM 7.97 46.346 0.139 6.46 1.02 11.27
4/29/2023 3:00:00 PM 7.99 46.382 0.139 6.46 1.04 11.26
4/29/2023 3:15:00 PM 8.02 46.436 0.139 6.45 1.04 11.25
4/29/2023 3:30:00 PM 8.05 46.49 0.139 6.45 1.09 11.25
4/29/2023 3:45:00 PM 8.07 46.526 0.139 6.45 1.14 11.24
4/29/2023 4:00:00 PM 8.09 46.562 0.139 6.44 1.09 11.23
4/29/2023 4:15:00 PM 8.09 46.562 0.139 6.44 1.08 11.22
4/29/2023 4:30:00 PM 8.08 46.544 0.139 6.43 1.1 11.22
4/29/2023 4:45:00 PM 8.07 46.526 0.139 6.42 1.04 11.22
4/29/2023 5:00:00 PM 8.07 46.526 0.139 6.42 1.08 11.23
4/29/2023 5:15:00 PM 8.07 46.526 0.139 6.42 1.09 11.23
4/29/2023 5:30:00 PM 8.06 46.508 0.139 6.41 1.05 11.23
4/29/2023 5:45:00 PM 8.05 46.49 0.139 6.4 1.02 11.23
4/29/2023 6:00:00 PM 8.06 46.508 0.14 6.41 1.07 11.23
4/29/2023 6:15:00 PM 8.09 46.562 0.14 6.4 1.09 11.23
4/29/2023 6:30:00 PM 8.11 46.598 0.139 6.42 1.07 11.22
4/29/2023 6:45:00 PM 8.11 46.598 0.139 6.41 1.05 11.21
4/29/2023 7:00:00 PM 8.12 46.616 0.139 6.41 1.08 11.21
4/29/2023 7:15:00 PM 8.12 46.616 0.139 6.4 1.08 11.2
4/29/2023 7:30:00 PM 8.11 46.598 0.139 6.39 1.06 11.2
4/29/2023 7:45:00 PM 8.1 46.58 0.139 6.37 1.12 11.2
4/29/2023 8:00:00 PM 8.08 46.544 0.139 6.37 1.08 11.2
4/29/2023 8:15:00 PM 8.07 46.526 0.139 6.37 1.04 11.2
4/29/2023 8:30:00 PM 8.05 46.49 0.14 6.35 1.07 11.21
4/29/2023 8:45:00 PM 8.03 46.454 0.14 6.35 1.1 11.21
4/29/2023 9:00:00 PM 8.02 46.436 0.14 6.34 1.01 11.22
4/29/2023 9:15:00 PM 8.01 46.418 0.14 6.35 1.05 11.22
4/29/2023 9:30:00 PM 8.01 46.418 0.14 6.37 1.02 11.22
4/29/2023 9:45:00 PM 8.01 46.418 0.14 6.36 1.03 11.23
4/29/2023 10:00:00 PM 8 46.4 0.14 6.36 1.04 11.23
4/29/2023 10:15:00 PM 8 46.4 0.14 6.36 1.02 11.23
4/29/2023 10:30:00 PM 8 46.4 0.14 6.37 0.97 11.22
4/29/2023 10:45:00 PM 8 46.4 0.14 6.37 1.02 11.22
4/29/2023 11:00:00 PM 8 46.4 0.14 6.36 1.02 11.22
4/29/2023 11:15:00 PM 8 46.4 0.14 6.35 1.02 11.22
4/29/2023 11:30:00 PM 8 46.4 0.14 6.36 0.97 11.21
4/29/2023 11:45:00 PM 8 46.4 0.14 6.36 0.98 11.21
4/30/2023 12:00:00 AM 8.01 46.418 0.14 6.36 0.97 11.21
4/30/2023 12:15:00 AM 8.01 46.418 0.14 6.36 0.97 11.2
4/30/2023 12:30:00 AM 8.01 46.418 0.14 6.38 0.99 11.2
4/30/2023 12:45:00 AM 8.02 46.436 0.14 6.38 1.57 11.2
4/30/2023 1:00:00 AM 8.03 46.454 0.14 6.38 0.91 11.19
4/30/2023 1:15:00 AM 8.03 46.454 0.14 6.38 1.03 11.19
4/30/2023 1:30:00 AM 8.04 46.472 0.14 6.38 1.03 11.19
4/30/2023 1:45:00 AM 8.05 46.49 0.14 6.38 0.99 11.18
4/30/2023 2:00:00 AM 8.05 46.49 0.14 6.39 1.1 11.18
4/30/2023 2:15:00 AM 8.06 46.508 0.14 6.38 0.92 11.18
4/30/2023 2:30:00 AM 8.06 46.508 0.14 6.38 0.99 11.18
4/30/2023 2:45:00 AM 8.07 46.526 0.14 6.38 0.99 11.17
4/30/2023 3:00:00 AM 8.07 46.526 0.139 6.38 0.97 11.17
4/30/2023 3:15:00 AM 8.08 46.544 0.139 6.38 1.05 11.16
4/30/2023 3:30:00 AM 8.08 46.544 0.139 6.38 0.94 11.16
4/30/2023 3:45:00 AM 8.08 46.544 0.139 6.38 0.94 11.15
4/30/2023 4:00:00 AM 8.09 46.562 0.139 6.38 0.96 11.15
4/30/2023 4:15:00 AM 8.09 46.562 0.139 6.38 0.94 11.15
4/30/2023 4:30:00 AM 8.09 46.562 0.139 6.38 1.01 11.14
4/30/2023 4:45:00 AM 8.1 46.58 0.139 6.38 0.9 11.14
4/30/2023 5:00:00 AM 8.1 46.58 0.139 6.39 0.98 11.14
4/30/2023 5:15:00 AM 8.11 46.598 0.139 6.38 0.97 11.14
4/30/2023 5:30:00 AM 8.11 46.598 0.139 6.39 0.96 11.14
4/30/2023 5:45:00 AM 8.12 46.616 0.139 6.39 0.98 11.13
4/30/2023 6:00:00 AM 8.12 46.616 0.139 6.39 1 11.13
4/30/2023 6:15:00 AM 8.13 46.634 0.139 6.4 1.03 11.12
4/30/2023 6:30:00 AM 8.13 46.634 0.138 6.39 1.08 11.12
4/30/2023 6:45:00 AM 8.14 46.652 0.138 6.39 1.09 11.12
4/30/2023 7:00:00 AM 8.14 46.652 0.138 6.39 1.04 11.12
4/30/2023 7:15:00 AM 8.14 46.652 0.138 6.38 1.12 11.11
4/30/2023 7:30:00 AM 8.15 46.67 0.138 6.39 1.12 11.11
4/30/2023 7:45:00 AM 8.16 46.688 0.138 6.39 1.24 11.11
4/30/2023 8:00:00 AM 8.17 46.706 0.138 6.39 1.12 11.11
4/30/2023 8:15:00 AM 8.18 46.724 0.138 6.39 1.14 11.1
4/30/2023 8:30:00 AM 8.2 46.76 0.138 6.4 1.17 11.1
4/30/2023 8:45:00 AM 8.22 46.796 0.139 6.4 1.24 11.09
4/30/2023 9:00:00 AM 8.24 46.832 0.139 6.39 1.38 11.08
4/30/2023 9:15:00 AM 8.26 46.868 0.139 6.41 1.61 11.08
4/30/2023 9:30:00 AM 8.29 46.922 0.14 6.42 1.64 11.07
4/30/2023 9:45:00 AM 8.31 46.958 0.141 6.43 1.65 11.06
4/30/2023 10:00:00 AM 8.34 47.012 0.142 6.44 1.68 11.05
4/30/2023 10:15:00 AM 8.36 47.048 0.144 6.46 1.9 11.05
4/30/2023 10:30:00 AM 8.38 47.084 0.146 6.47 2.02 11.04
4/30/2023 10:45:00 AM 8.4 47.12 0.148 6.48 2.12 11.03
4/30/2023 11:00:00 AM 8.41 47.138 0.149 6.49 2.29 11.03
4/30/2023 11:15:00 AM 8.42 47.156 0.15 6.49 2.3 11.02
4/30/2023 11:30:00 AM 8.43 47.174 0.15 6.49 2.45 11.02
4/30/2023 11:45:00 AM 8.45 47.21 0.15 6.51 2.31 11.01
4/30/2023 12:00:00 PM 8.48 47.264 0.15 6.52 2.3 11
4/30/2023 12:15:00 PM 8.5 47.3 0.15 6.52 1.97 10.99
4/30/2023 12:30:00 PM 8.53 47.354 0.15 6.53 2.04 10.99
4/30/2023 12:45:00 PM 8.56 47.408 0.15 6.53 1.95 10.98
4/30/2023 1:00:00 PM 8.61 47.498 0.15 6.54 2.05 10.96
4/30/2023 1:15:00 PM 8.66 47.588 0.15 6.55 2.22 10.95
4/30/2023 1:30:00 PM 8.69 47.642 0.151 6.55 2.18 10.94
4/30/2023 1:45:00 PM 8.71 47.678 0.151 6.55 2.26 10.92
4/30/2023 2:00:00 PM 8.72 47.696 0.152 6.55 2.19 10.92
4/30/2023 2:15:00 PM 8.73 47.714 0.152 6.55 2.19 10.91
4/30/2023 2:30:00 PM 8.74 47.732 0.152 6.54 2.16 10.91
4/30/2023 2:45:00 PM 8.76 47.768 0.152 6.54 2.25 10.9
4/30/2023 3:00:00 PM 8.77 47.786 0.152 6.55 2.22 10.9
4/30/2023 3:15:00 PM 8.78 47.804 0.152 6.53 2.29 10.89
4/30/2023 3:30:00 PM 8.77 47.786 0.152 6.53 2.44 10.89
4/30/2023 3:45:00 PM 8.77 47.786 0.153 6.52 2.51 10.88
4/30/2023 4:00:00 PM 8.76 47.768 0.153 6.51 2.62 10.88
4/30/2023 4:15:00 PM 8.76 47.768 0.153 6.51 2.48 10.88
4/30/2023 4:30:00 PM 8.75 47.75 0.153 6.5 2.64 10.88
4/30/2023 4:45:00 PM 8.74 47.732 0.153 6.5 3.07 10.88
4/30/2023 5:00:00 PM 8.75 47.75 0.152 6.51 3.82 10.89
4/30/2023 5:15:00 PM 8.74 47.732 0.153 6.49 4.04 10.89
4/30/2023 5:30:00 PM 8.74 47.732 0.154 6.48 4.15 10.89
4/30/2023 5:45:00 PM 8.74 47.732 0.155 6.48 4.24 10.89
4/30/2023 6:00:00 PM 8.73 47.714 0.156 6.49 4.87 10.89
4/30/2023 6:15:00 PM 8.72 47.696 0.156 6.5 6.61 10.9
4/30/2023 6:30:00 PM 8.69 47.642 0.159 6.53 7.95 10.9
4/30/2023 6:45:00 PM 8.65 47.57 0.162 6.53 9.98 10.92
4/30/2023 7:00:00 PM 8.59 47.462 0.166 6.59 11.94 10.94
4/30/2023 7:15:00 PM 8.53 47.354 0.168 6.63 15.47 10.96
4/30/2023 7:30:00 PM 8.47 47.246 0.169 6.67 15.99 10.98
4/30/2023 7:45:00 PM 8.42 47.156 0.172 6.7 16.33 11
4/30/2023 8:00:00 PM 8.37 47.066 0.174 6.68 16.35 11.02
4/30/2023 8:15:00 PM 8.32 46.976 0.174 6.67 12.71 11.03
4/30/2023 8:30:00 PM 8.27 46.886 0.173 6.67 13.02 11.04
4/30/2023 8:45:00 PM 8.23 46.814 0.173 6.67 10.72 11.05
4/30/2023 9:00:00 PM 8.19 46.742 0.174 6.66 9.62 11.06
4/30/2023 9:15:00 PM 8.15 46.67 0.174 6.66 8.65 11.07
4/30/2023 9:30:00 PM 8.11 46.598 0.174 6.66 7.9 11.08
4/30/2023 9:45:00 PM 8.07 46.526 0.174 6.66 7.45 11.09
4/30/2023 10:00:00 PM 8.04 46.472 0.174 6.65 7 11.1
4/30/2023 10:15:00 PM 8.01 46.418 0.175 6.66 6.52 11.11
4/30/2023 10:30:00 PM 7.98 46.364 0.175 6.66 6.99 11.12
4/30/2023 10:45:00 PM 7.95 46.31 0.175 6.66 6.32 11.13
4/30/2023 11:00:00 PM 7.92 46.256 0.174 6.65 6.41 11.13
4/30/2023 11:15:00 PM 7.89 46.202 0.174 6.64 6.63 11.14
4/30/2023 11:30:00 PM 7.86 46.148 0.173 6.64 6.44 11.15
4/30/2023 11:45:00 PM 7.84 46.112 0.173 6.64 6.2 11.15
5/1/2023 12:00:00 AM 7.81 46.058 0.172 6.63 6.04 11.16
5/1/2023 12:15:00 AM 7.78 46.004 0.171 6.63 6.39 11.16
5/1/2023 12:30:00 AM 7.76 45.968 0.171 6.61 5.97 11.17
5/1/2023 12:45:00 AM 7.73 45.914 0.171 6.61 5.58 11.18
5/1/2023 1:00:00 AM 7.71 45.878 0.171 6.6 6.09 11.18
5/1/2023 1:15:00 AM 7.68 45.824 0.17 6.6 5.88 11.19
5/1/2023 1:30:00 AM 7.66 45.788 0.17 6.59 5.86 11.2
5/1/2023 1:45:00 AM 7.63 45.734 0.17 6.6 6.08 11.2
5/1/2023 2:00:00 AM 7.61 45.698 0.169 6.59 6.07 11.2
5/1/2023 2:15:00 AM 7.59 45.662 0.169 6.59 5.79 11.21
5/1/2023 2:30:00 AM 7.57 45.626 0.169 6.58 5.93 11.21
5/1/2023 2:45:00 AM 7.55 45.59 0.168 6.58 6.32 11.22
5/1/2023 3:00:00 AM 7.53 45.554 0.168 6.57 5.92 11.22
5/1/2023 3:15:00 AM 7.52 45.536 0.167 6.56 5.51 11.22
5/1/2023 3:30:00 AM 7.5 45.5 0.167 6.57 5.5 11.23
5/1/2023 3:45:00 AM 7.48 45.464 0.167 6.56 4.9 11.23
5/1/2023 4:00:00 AM 7.45 45.41 0.166 6.56 4.77 11.24
5/1/2023 4:15:00 AM 7.43 45.374 0.166 6.57 4.83 11.25
5/1/2023 4:30:00 AM 7.4 45.32 0.166 6.56 4.61 11.25
5/1/2023 4:45:00 AM 7.37 45.266 0.166 6.56 4.4 11.26
5/1/2023 5:00:00 AM 7.34 45.212 0.166 6.55 4.48 11.27
5/1/2023 5:15:00 AM 7.31 45.158 0.166 6.56 4.22 11.28
5/1/2023 5:30:00 AM 7.28 45.104 0.166 6.56 4.03 11.29
5/1/2023 5:45:00 AM 7.25 45.05 0.166 6.56 3.96 11.29
5/1/2023 6:00:00 AM 7.22 44.996 0.166 6.55 3.66 11.3
5/1/2023 6:15:00 AM 7.19 44.942 0.166 6.55 3.59 11.31
5/1/2023 6:30:00 AM 7.16 44.888 0.166 6.54 3.49 11.32
5/1/2023 6:45:00 AM 7.15 44.87 0.167 6.55 3.36 11.32
5/1/2023 7:00:00 AM 7.13 44.834 0.167 6.55 3.27 11.33
5/1/2023 7:15:00 AM 7.12 44.816 0.167 6.55 3.25 11.33
5/1/2023 7:30:00 AM 7.1 44.78 0.167 6.55 3.04 11.34
5/1/2023 7:45:00 AM 7.09 44.762 0.167 6.55 2.87 11.34
5/1/2023 8:00:00 AM 7.07 44.726 0.166 6.55 2.83 11.35
5/1/2023 8:15:00 AM 7.05 44.69 0.166 6.54 2.85 11.36
5/1/2023 8:30:00 AM 7.05 44.69 0.166 6.55 2.85 11.36
5/1/2023 8:45:00 AM 7.06 44.708 0.167 6.56 2.69 11.37
5/1/2023 9:00:00 AM 7.06 44.708 0.167 6.56 2.65 11.36
5/1/2023 9:15:00 AM 7.07 44.726 0.167 6.55 2.53 11.36
5/1/2023 9:30:00 AM 7.09 44.762 0.167 6.56 2.57 11.35
5/1/2023 9:45:00 AM 7.14 44.852 0.168 6.58 2.52 11.35
5/1/2023 10:00:00 AM 7.21 44.978 0.168 6.59 2.43 11.33
5/1/2023 10:15:00 AM 7.24 45.032 0.168 6.58 2.33 11.32
5/1/2023 10:30:00 AM 7.29 45.122 0.167 6.58 2.44 11.3
5/1/2023 10:45:00 AM 7.34 45.212 0.167 6.58 2.31 11.29
5/1/2023 11:00:00 AM 7.38 45.284 0.168 6.59 2.41 11.28
5/1/2023 11:15:00 AM 7.38 45.284 0.168 6.58 2.31 11.28
5/1/2023 11:30:00 AM 7.36 45.248 0.169 6.57 2.29 11.28
5/1/2023 11:45:00 AM 7.32 45.176 0.168 6.56 2.22 11.29
5/1/2023 12:00:00 PM 7.24 45.032 0.168 6.56 2.22 11.31
5/1/2023 12:15:00 PM 7.27 45.086 0.168 6.57 2.12 11.31
5/1/2023 12:30:00 PM 7.44 45.392 0.168 6.61 2.23 11.27
5/1/2023 12:45:00 PM 7.57 45.626 0.168 6.62 2.23 11.24
5/1/2023 1:00:00 PM 7.7 45.86 0.168 6.62 2.22 11.2
5/1/2023 1:15:00 PM 7.89 46.202 0.169 6.64 2.26 11.14
5/1/2023 1:30:00 PM 8.03 46.454 0.169 6.66 2.15 11.1
5/1/2023 1:45:00 PM 8.14 46.652 0.168 6.65 2.24 11.06
5/1/2023 2:00:00 PM 7.92 46.256 0.168 6.6 2.38 11.11
5/1/2023 2:15:00 PM 8 46.4 0.169 6.62 2.41 11.11
5/1/2023 2:30:00 PM 8.05 46.49 0.17 6.61 2.38 11.1
5/1/2023 2:45:00 PM 8.13 46.634 0.17 6.62 2.23 11.08
5/1/2023 3:00:00 PM 8.25 46.85 0.17 6.64 2.28 11.04
5/1/2023 3:15:00 PM 8.28 46.904 0.17 6.62 2.28 11.02
5/1/2023 3:30:00 PM 8.15 46.67 0.17 6.6 2.28 11.05
5/1/2023 3:45:00 PM 8.03 46.454 0.169 6.59 2.67 11.08
5/1/2023 4:00:00 PM 7.84 46.112 0.169 6.56 2.87 11.14
5/1/2023 4:15:00 PM 7.73 45.914 0.17 6.56 3.23 11.18
5/1/2023 4:30:00 PM 7.65 45.77 0.17 6.56 3.07 11.21
5/1/2023 4:45:00 PM 7.62 45.716 0.171 6.57 3.15 11.22
5/1/2023 5:00:00 PM 7.57 45.626 0.173 6.56 3.05 11.23
5/1/2023 5:15:00 PM 7.56 45.608 0.174 6.59 3.39 11.23
5/1/2023 5:30:00 PM 7.55 45.59 0.174 6.59 3.39 11.24
5/1/2023 5:45:00 PM 7.5 45.5 0.175 6.6 3.57 11.25
5/1/2023 6:00:00 PM 7.47 45.446 0.177 6.61 3.8 11.26
5/1/2023 6:15:00 PM 7.45 45.41 0.178 6.61 3.8 11.27
5/1/2023 6:30:00 PM 7.43 45.374 0.179 6.61 3.69 11.27
5/1/2023 6:45:00 PM 7.41 45.338 0.179 6.64 3.8 11.28
5/1/2023 7:00:00 PM 7.38 45.284 0.18 6.63 3.86 11.29
5/1/2023 7:15:00 PM 7.35 45.23 0.18 6.64 4.09 11.29
5/1/2023 7:30:00 PM 7.32 45.176 0.18 6.64 3.91 11.3
5/1/2023 7:45:00 PM 7.28 45.104 0.18 6.66 3.66 11.31
5/1/2023 8:00:00 PM 7.24 45.032 0.181 6.66 3.68 11.32
5/1/2023 8:15:00 PM 7.2 44.96 0.181 6.65 4.02 11.33
5/1/2023 8:30:00 PM 7.17 44.906 0.181 6.66 3.66 11.34
5/1/2023 8:45:00 PM 7.14 44.852 0.181 6.66 3.95 11.35
5/1/2023 9:00:00 PM 7.12 44.816 0.181 6.66 3.6 11.36
5/1/2023 9:15:00 PM 7.1 44.78 0.181 6.67 3.91 11.36
5/1/2023 9:30:00 PM 7.07 44.726 0.18 6.66 3.67 11.37
5/1/2023 9:45:00 PM 7.04 44.672 0.18 6.66 3.65 11.38
5/1/2023 10:00:00 PM 7.02 44.636 0.179 6.66 3.75 11.39
5/1/2023 10:15:00 PM 7 44.6 0.179 6.66 3.66 11.39
5/1/2023 10:30:00 PM 6.98 44.564 0.178 6.66 3.6 11.4
5/1/2023 10:45:00 PM 6.95 44.51 0.178 6.66 3.63 11.41
5/1/2023 11:00:00 PM 6.92 44.456 0.178 6.65 3.51 11.41
5/1/2023 11:15:00 PM 6.9 44.42 0.178 6.65 3.64 11.42
5/1/2023 11:30:00 PM 6.87 44.366 0.178 6.65 3.47 11.43
5/1/2023 11:45:00 PM 6.84 44.312 0.178 6.64 3.42 11.44
5/2/2023 12:00:00 AM 6.82 44.276 0.178 6.66 3.41 11.44
5/2/2023 12:15:00 AM 6.8 44.24 0.177 6.65 3.37 11.45
5/2/2023 12:30:00 AM 6.78 44.204 0.177 6.65 3.32 11.45
5/2/2023 12:45:00 AM 6.76 44.168 0.177 6.62 3.3 11.46
5/2/2023 1:00:00 AM 6.73 44.114 0.177 6.63 3.16 11.47
5/2/2023 1:15:00 AM 6.72 44.096 0.177 6.63 3.18 11.47
5/2/2023 1:30:00 AM 6.7 44.06 0.177 6.63 3.25 11.47
5/2/2023 1:45:00 AM 6.68 44.024 0.177 6.6 3.14 11.47
5/2/2023 2:00:00 AM 6.67 44.006 0.177 6.66 3.02 11.48
5/2/2023 2:15:00 AM 6.65 43.97 0.177 6.67 3.04 11.48
5/2/2023 2:30:00 AM 6.64 43.952 0.177 6.63 3.1 11.48
5/2/2023 2:45:00 AM 6.63 43.934 0.177 6.62 2.93 11.49
5/2/2023 3:00:00 AM 6.61 43.898 0.177 6.61 2.91 11.49
5/2/2023 3:15:00 AM 6.6 43.88 0.178 6.62 2.79 11.49
5/2/2023 3:30:00 AM 6.58 43.844 0.178 6.62 2.72 11.49
5/2/2023 3:45:00 AM 6.56 43.808 0.178 6.62 2.76 11.5
5/2/2023 4:00:00 AM 6.53 43.754 0.178 6.62 2.67 11.51
5/2/2023 4:15:00 AM 6.47 43.646 0.178 6.62 2.53 11.53
5/2/2023 4:30:00 AM 6.42 43.556 0.178 6.6 2.65 11.54
5/2/2023 4:45:00 AM 6.37 43.466 0.179 6.61 2.69 11.56
5/2/2023 5:00:00 AM 6.31 43.358 0.179 6.6 2.65 11.57
5/2/2023 5:15:00 AM 6.27 43.286 0.179 6.6 2.68 11.59
5/2/2023 5:30:00 AM 6.24 43.232 0.18 6.6 2.53 11.6
5/2/2023 5:45:00 AM 6.22 43.196 0.18 6.6 2.51 11.6
5/2/2023 6:00:00 AM 6.21 43.178 0.18 6.62 2.59 11.61
5/2/2023 6:15:00 AM 6.2 43.16 0.18 6.61 2.53 11.61
5/2/2023 6:30:00 AM 6.19 43.142 0.18 6.62 2.44 11.62
5/2/2023 6:45:00 AM 6.18 43.124 0.18 6.63 2.38 11.62
5/2/2023 7:00:00 AM 6.17 43.106 0.181 6.63 2.4 11.63
5/2/2023 7:15:00 AM 6.17 43.106 0.181 6.64 2.34 11.64
5/2/2023 7:30:00 AM 6.18 43.124 0.181 6.63 2.33 11.64
5/2/2023 7:45:00 AM 6.19 43.142 0.181 6.65 2.24 11.63
5/2/2023 8:00:00 AM 6.21 43.178 0.181 6.64 2.19 11.63
5/2/2023 8:15:00 AM 6.22 43.196 0.181 6.64 2.16 11.63
5/2/2023 8:30:00 AM 6.23 43.214 0.181 6.64 2.11 11.63
5/2/2023 8:45:00 AM 6.24 43.232 0.181 6.66 2.1 11.63
5/2/2023 9:00:00 AM 6.26 43.268 0.181 6.65 2.13 11.62
5/2/2023 9:15:00 AM 6.28 43.304 0.181 6.66 2.04 11.62
5/2/2023 9:30:00 AM 6.29 43.322 0.181 6.66 2.07 11.62
5/2/2023 9:45:00 AM 6.31 43.358 0.181 6.65 2.13 11.61
5/2/2023 10:00:00 AM 6.32 43.376 0.181 6.66 2.17 11.61
5/2/2023 10:15:00 AM 6.36 43.448 0.181 6.66 2.06 11.6
5/2/2023 10:30:00 AM 6.38 43.484 0.181 6.66 1.96 11.6
5/2/2023 10:45:00 AM 6.42 43.556 0.182 6.67 2 11.59
5/2/2023 11:00:00 AM 6.48 43.664 0.182 6.69 2.01 11.58
5/2/2023 11:15:00 AM 6.55 43.79 0.182 6.68 2.01 11.56
5/2/2023 11:30:00 AM 6.6 43.88 0.182 6.69 2.13 11.54
5/2/2023 11:45:00 AM 6.64 43.952 0.182 6.68 2.01 11.54
5/2/2023 12:00:00 PM 6.69 44.042 0.182 6.7 2.07 11.53
5/2/2023 12:15:00 PM 6.72 44.096 0.183 6.68 2.04 11.52
5/2/2023 12:30:00 PM 6.79 44.222 0.183 6.7 2.01 11.49
5/2/2023 12:45:00 PM 6.85 44.33 0.182 6.69 2.06 11.48
5/2/2023 1:00:00 PM 6.93 44.474 0.182 6.7 2.01 11.46
5/2/2023 1:15:00 PM 7.01 44.618 0.182 6.71 2 11.43
5/2/2023 1:30:00 PM 7.08 44.744 0.182 6.71 2.06 11.42
5/2/2023 1:45:00 PM 7.12 44.816 0.182 6.71 2.01 11.4
5/2/2023 2:00:00 PM 7.11 44.798 0.181 6.68 2 11.41
5/2/2023 2:15:00 PM 7.14 44.852 0.181 6.69 2.01 11.4
5/2/2023 2:30:00 PM 7.08 44.744 0.181 6.67 2.01 11.41
5/2/2023 2:45:00 PM 7.07 44.726 0.181 6.67 2.05 11.42
5/2/2023 3:00:00 PM 7.1 44.78 0.181 6.67 2.06 11.41
5/2/2023 3:15:00 PM 7.04 44.672 0.18 6.66 2.08 11.42
5/2/2023 3:30:00 PM 7.07 44.726 0.18 6.67 2.12 11.42
5/2/2023 3:45:00 PM 7.09 44.762 0.18 6.67 2.03 11.42
5/2/2023 4:00:00 PM 7.11 44.798 0.18 6.67 2.2 11.41
5/2/2023 4:15:00 PM 7.17 44.906 0.179 6.67 2.19 11.4
5/2/2023 4:30:00 PM 7.23 45.014 0.179 6.68 2.24 11.38
5/2/2023 4:45:00 PM 7.23 45.014 0.179 6.67 2.47 11.38
5/2/2023 5:00:00 PM 7.19 44.942 0.179 6.66 2.45 11.39
5/2/2023 5:15:00 PM 7.16 44.888 0.178 6.67 2.47 11.4
5/2/2023 5:30:00 PM 7.11 44.798 0.178 6.66 2.51 11.41
5/2/2023 5:45:00 PM 7.07 44.726 0.178 6.65 2.44 11.43
5/2/2023 6:00:00 PM 7.05 44.69 0.178 6.65 2.27 11.43
5/2/2023 6:15:00 PM 7.01 44.618 0.178 6.65 2.34 11.44
5/2/2023 6:30:00 PM 6.98 44.564 0.178 6.64 2.31 11.45
5/2/2023 6:45:00 PM 6.95 44.51 0.177 6.64 2.27 11.46
5/2/2023 7:00:00 PM 6.91 44.438 0.177 6.64 2.33 11.47
5/2/2023 7:15:00 PM 6.88 44.384 0.177 6.64 2.44 11.48
5/2/2023 7:30:00 PM 6.84 44.312 0.177 6.62 2.41 11.49
5/2/2023 7:45:00 PM 6.8 44.24 0.177 6.63 2.48 11.51
5/2/2023 8:00:00 PM 6.76 44.168 0.177 6.63 2.56 11.52
5/2/2023 8:15:00 PM 6.72 44.096 0.177 6.63 2.75 11.53
5/2/2023 8:30:00 PM 6.69 44.042 0.177 6.63 2.83 11.54
5/2/2023 8:45:00 PM 6.65 43.97 0.178 6.63 2.89 11.55
5/2/2023 9:00:00 PM 6.63 43.934 0.178 6.64 3.21 11.56
5/2/2023 9:15:00 PM 6.6 43.88 0.178 6.64 3.24 11.57
5/2/2023 9:30:00 PM 6.58 43.844 0.178 6.64 3.37 11.57
5/2/2023 9:45:00 PM 6.56 43.808 0.178 6.65 3.79 11.58
5/2/2023 10:00:00 PM 6.54 43.772 0.178 6.65 3.73 11.58
5/2/2023 10:15:00 PM 6.52 43.736 0.178 6.65 3.85 11.59
5/2/2023 10:30:00 PM 6.5 43.7 0.178 6.65 3.83 11.59
5/2/2023 10:45:00 PM 6.49 43.682 0.178 6.66 3.66 11.6
5/2/2023 11:00:00 PM 6.46 43.628 0.178 6.65 3.96 11.61
5/2/2023 11:15:00 PM 6.45 43.61 0.177 6.66 3.75 11.61
5/2/2023 11:30:00 PM 6.43 43.574 0.177 6.65 3.75 11.61
5/2/2023 11:45:00 PM 6.4 43.52 0.176 6.66 3.82 11.62
5/3/2023 12:00:00 AM 6.38 43.484 0.176 6.67 3.76 11.63
5/3/2023 12:15:00 AM 6.37 43.466 0.176 6.66 3.92 11.63
5/3/2023 12:30:00 AM 6.36 43.448 0.176 6.67 3.96 11.64
5/3/2023 12:45:00 AM 6.34 43.412 0.176 6.68 3.98 11.64
5/3/2023 1:00:00 AM 6.33 43.394 0.176 6.68 4.05 11.64
5/3/2023 1:15:00 AM 6.31 43.358 0.176 6.68 4.31 11.65
5/3/2023 1:30:00 AM 6.3 43.34 0.176 6.67 4.27 11.65
5/3/2023 1:45:00 AM 6.29 43.322 0.177 6.68 4.24 11.65
5/3/2023 2:00:00 AM 6.29 43.322 0.177 6.68 4.31 11.65
5/3/2023 2:15:00 AM 6.28 43.304 0.177 6.69 4.4 11.65
5/3/2023 2:30:00 AM 6.27 43.286 0.177 6.68 4.41 11.66
5/3/2023 2:45:00 AM 6.26 43.268 0.177 6.69 5.04 11.66
5/3/2023 3:00:00 AM 6.25 43.25 0.176 6.68 4.42 11.66
5/3/2023 3:15:00 AM 6.24 43.232 0.176 6.67 5.21 11.66
5/3/2023 3:30:00 AM 6.23 43.214 0.176 6.68 6.21 11.66
5/3/2023 3:45:00 AM 6.21 43.178 0.176 6.67 4.55 11.67
5/3/2023 4:00:00 AM 6.2 43.16 0.176 6.67 4.25 11.67
5/3/2023 4:15:00 AM 6.19 43.142 0.176 6.67 4.17 11.67
5/3/2023 4:30:00 AM 6.18 43.124 0.176 6.68 4.12 11.68
5/3/2023 4:45:00 AM 6.16 43.088 0.176 6.67 4.15 11.68
5/3/2023 5:00:00 AM 6.15 43.07 0.176 6.67 4.37 11.69
5/3/2023 5:15:00 AM 6.13 43.034 0.176 6.67 4.09 11.69
5/3/2023 5:30:00 AM 6.12 43.016 0.176 6.67 3.91 11.7
5/3/2023 5:45:00 AM 6.1 42.98 0.176 6.67 3.98 11.7
5/3/2023 6:00:00 AM 6.09 42.962 0.177 6.67 3.81 11.71
5/3/2023 6:15:00 AM 6.07 42.926 0.177 6.67 3.8 11.71
5/3/2023 6:30:00 AM 6.06 42.908 0.177 6.66 3.54 11.71
5/3/2023 6:45:00 AM 6.05 42.89 0.177 6.66 3.54 11.72
5/3/2023 7:00:00 AM 6.05 42.89 0.177 6.67 3.49 11.73
5/3/2023 7:15:00 AM 6.05 42.89 0.177 6.67 3.47 11.73
5/3/2023 7:30:00 AM 6.05 42.89 0.177 6.67 3.28 11.73
5/3/2023 7:45:00 AM 6.07 42.926 0.177 6.68 3.4 11.74
5/3/2023 8:00:00 AM 6.09 42.962 0.177 6.69 3.19 11.74
5/3/2023 8:15:00 AM 6.11 42.998 0.177 6.69 3.18 11.73
5/3/2023 8:30:00 AM 6.14 43.052 0.177 6.69 3.41 11.73
5/3/2023 8:45:00 AM 6.17 43.106 0.177 6.69 2.99 11.72
5/3/2023 9:00:00 AM 6.2 43.16 0.177 6.7 2.94 11.71
5/3/2023 9:15:00 AM 6.2 43.16 0.177 6.68 2.84 11.71
5/3/2023 9:30:00 AM 6.21 43.178 0.176 6.69 2.96 11.71
5/3/2023 9:45:00 AM 6.25 43.25 0.176 6.7 2.76 11.7
5/3/2023 10:00:00 AM 6.28 43.304 0.176 6.7 2.84 11.7
5/3/2023 10:15:00 AM 6.31 43.358 0.176 6.7 2.73 11.69
5/3/2023 10:30:00 AM 6.36 43.448 0.176 6.7 2.7 11.68
5/3/2023 10:45:00 AM 6.41 43.538 0.176 6.71 2.81 11.66
5/3/2023 11:00:00 AM 6.48 43.664 0.176 6.71 2.56 11.65
5/3/2023 11:15:00 AM 6.44 43.592 0.176 6.69 2.73 11.65
5/3/2023 11:30:00 AM 6.42 43.556 0.176 6.68 2.76 11.66
5/3/2023 11:45:00 AM 6.53 43.754 0.176 6.71 2.81 11.64
5/3/2023 12:00:00 PM 6.59 43.862 0.176 6.7 2.92 11.62
5/3/2023 12:15:00 PM 6.63 43.934 0.177 6.71 2.75 11.6
5/3/2023 12:30:00 PM 6.61 43.898 0.177 6.7 2.83 11.6
5/3/2023 12:45:00 PM 6.57 43.826 0.176 6.69 3.03 11.62
5/3/2023 1:00:00 PM 6.6 43.88 0.176 6.7 3.2 11.62
5/3/2023 1:15:00 PM 6.65 43.97 0.176 6.7 3.18 11.61
5/3/2023 1:30:00 PM 6.72 44.096 0.177 6.7 3.06 11.58
5/3/2023 1:45:00 PM 6.79 44.222 0.176 6.72 3.3 11.57
5/3/2023 2:00:00 PM 6.87 44.366 0.176 6.72 3.17 11.55
5/3/2023 2:15:00 PM 6.91 44.438 0.175 6.73 3.24 11.53
5/3/2023 2:30:00 PM 6.94 44.492 0.175 6.71 3.98 11.52
5/3/2023 2:45:00 PM 7.01 44.618 0.174 6.71 3.45 11.51
5/3/2023 3:00:00 PM 7.03 44.654 0.174 6.7 3.64 11.5
5/3/2023 3:15:00 PM 7.05 44.69 0.173 6.7 3.54 11.49
5/3/2023 3:30:00 PM 7.06 44.708 0.172 6.7 3.76 11.49
5/3/2023 3:45:00 PM 6.99 44.582 0.171 6.68 3.74 11.5
5/3/2023 4:00:00 PM 6.83 44.294 0.169 6.65 4.47 11.54
5/3/2023 4:15:00 PM 6.69 44.042 0.168 6.64 11.43 11.59
5/3/2023 4:30:00 PM 6.61 43.898 0.168 6.64 5.61 11.62
5/3/2023 4:45:00 PM 6.63 43.934 0.169 6.65 6.18 11.62
5/3/2023 5:00:00 PM 6.68 44.024 0.17 6.66 6.01 11.61
5/3/2023 5:15:00 PM 6.75 44.15 0.171 6.67 7.38 11.6
5/3/2023 5:30:00 PM 6.8 44.24 0.172 6.68 8.7 11.58
5/3/2023 5:45:00 PM 6.81 44.258 0.172 6.67 9.46 11.57
5/3/2023 6:00:00 PM 6.76 44.168 0.172 6.66 8.97 11.59
5/3/2023 6:15:00 PM 6.73 44.114 0.172 6.66 8.66 11.6
5/3/2023 6:30:00 PM 6.71 44.078 0.172 6.68 8.41 11.62
5/3/2023 6:45:00 PM 6.7 44.06 0.171 6.68 9 11.62
5/3/2023 7:00:00 PM 6.68 44.024 0.17 6.67 8.57 11.63
5/3/2023 7:15:00 PM 6.67 44.006 0.169 6.67 9.15 11.63
5/3/2023 7:30:00 PM 6.65 43.97 0.169 6.68 9.56 11.64
5/3/2023 7:45:00 PM 6.63 43.934 0.169 6.68 9.25 11.64
5/3/2023 8:00:00 PM 6.62 43.916 0.169 6.68 8.99 11.65
5/3/2023 8:15:00 PM 6.6 43.88 0.168 6.67 8.41 11.65
5/3/2023 8:30:00 PM 6.59 43.862 0.167 6.67 8.53 11.66
5/3/2023 8:45:00 PM 6.59 43.862 0.166 6.66 8.74 11.66
5/3/2023 9:00:00 PM 6.58 43.844 0.166 6.65 8.66 11.67
5/3/2023 9:15:00 PM 6.58 43.844 0.165 6.64 7.89 11.67
5/3/2023 9:30:00 PM 6.57 43.826 0.165 6.67 8.26 11.68
5/3/2023 9:45:00 PM 6.55 43.79 0.164 6.66 8.37 11.68
5/3/2023 10:00:00 PM 6.54 43.772 0.164 6.65 7.95 11.69
5/3/2023 10:15:00 PM 6.53 43.754 0.163 6.66 7.75 11.69
5/3/2023 10:30:00 PM 6.52 43.736 0.163 6.64 7.58 11.7
5/3/2023 10:45:00 PM 6.51 43.718 0.163 6.64 7.28 11.7
5/3/2023 11:00:00 PM 6.51 43.718 0.163 6.64 7.05 11.71
5/3/2023 11:15:00 PM 6.5 43.7 0.162 6.62 6.71 11.71
5/3/2023 11:30:00 PM 6.49 43.682 0.163 6.63 6.77 11.71
5/3/2023 11:45:00 PM 6.49 43.682 0.163 6.64 6.12 11.71
5/4/2023 12:00:00 AM 6.48 43.664 0.163 6.63 6.29 11.72
5/4/2023 12:15:00 AM 6.48 43.664 0.163 6.64 6.07 11.71
5/4/2023 12:30:00 AM 6.47 43.646 0.163 6.63 6.33 11.72
5/4/2023 12:45:00 AM 6.47 43.646 0.163 6.61 5.66 11.72
5/4/2023 1:00:00 AM 6.47 43.646 0.164 6.62 5.37 11.72
5/4/2023 1:15:00 AM 6.47 43.646 0.164 6.62 5.4 11.72
5/4/2023 1:30:00 AM 6.46 43.628 0.164 6.62 5.22 11.72
5/4/2023 1:45:00 AM 6.46 43.628 0.164 6.63 5.24 11.73
5/4/2023 2:00:00 AM 6.46 43.628 0.164 6.62 4.96 11.73
5/4/2023 2:15:00 AM 6.45 43.61 0.164 6.62 4.87 11.73
5/4/2023 2:30:00 AM 6.45 43.61 0.164 6.62 4.64 11.73
5/4/2023 2:45:00 AM 6.45 43.61 0.164 6.63 4.48 11.73
5/4/2023 3:00:00 AM 6.45 43.61 0.163 6.61 4.6 11.73
5/4/2023 3:15:00 AM 6.45 43.61 0.163 6.62 4.44 11.73
5/4/2023 3:30:00 AM 6.45 43.61 0.163 6.61 4.33 11.73
5/4/2023 3:45:00 AM 6.46 43.628 0.163 6.61 4.08 11.73
5/4/2023 4:00:00 AM 6.46 43.628 0.163 6.62 3.97 11.74
5/4/2023 4:15:00 AM 6.46 43.628 0.163 6.62 3.97 11.74
5/4/2023 4:30:00 AM 6.47 43.646 0.163 6.61 3.96 11.74
5/4/2023 4:45:00 AM 6.47 43.646 0.163 6.6 4.02 11.74
5/4/2023 5:00:00 AM 6.48 43.664 0.163 6.6 3.87 11.73
5/4/2023 5:15:00 AM 6.49 43.682 0.162 6.6 3.97 11.73
5/4/2023 5:30:00 AM 6.49 43.682 0.162 6.6 3.76 11.74
5/4/2023 5:45:00 AM 6.5 43.7 0.162 6.61 3.63 11.74
5/4/2023 6:00:00 AM 6.5 43.7 0.162 6.61 3.55 11.74
5/4/2023 6:15:00 AM 6.51 43.718 0.161 6.61 3.64 11.74
5/4/2023 6:30:00 AM 6.52 43.736 0.161 6.62 3.69 11.74
5/4/2023 6:45:00 AM 6.52 43.736 0.161 6.62 3.6 11.74
5/4/2023 7:00:00 AM 6.54 43.772 0.16 6.6 3.77 11.74
5/4/2023 7:15:00 AM 6.55 43.79 0.16 6.61 3.64 11.74
5/4/2023 7:30:00 AM 6.57 43.826 0.16 6.62 3.63 11.74
5/4/2023 7:45:00 AM 6.59 43.862 0.159 6.61 3.54 11.74
5/4/2023 8:00:00 AM 6.63 43.934 0.159 6.62 3.49 11.74
5/4/2023 8:15:00 AM 6.66 43.988 0.158 6.62 3.51 11.73
5/4/2023 8:30:00 AM 6.7 44.06 0.158 6.63 3.5 11.73
5/4/2023 8:45:00 AM 6.75 44.15 0.157 6.63 3.34 11.72
5/4/2023 9:00:00 AM 6.81 44.258 0.157 6.64 3.37 11.7
5/4/2023 9:15:00 AM 6.83 44.294 0.156 6.63 3.35 11.69
5/4/2023 9:30:00 AM 6.89 44.402 0.156 6.64 3.57 11.68
5/4/2023 9:45:00 AM 6.91 44.438 0.156 6.62 3.34 11.67
5/4/2023 10:00:00 AM 6.92 44.456 0.155 6.62 3.45 11.67
5/4/2023 10:15:00 AM 6.92 44.456 0.154 6.6 3.29 11.67
5/4/2023 10:30:00 AM 6.95 44.51 0.154 6.6 3.19 11.67
5/4/2023 10:45:00 AM 7.03 44.654 0.154 6.62 3.19 11.66
5/4/2023 11:00:00 AM 7.14 44.852 0.154 6.65 3.34 11.62
5/4/2023 11:15:00 AM 7.18 44.924 0.154 6.63 3.13 11.61
5/4/2023 11:30:00 AM 7.25 45.05 0.154 6.65 3.08 11.59
5/4/2023 11:45:00 AM 7.38 45.284 0.154 6.66 3.25 11.57
5/4/2023 12:00:00 PM 7.59 45.662 0.154 6.7 3.23 11.51
5/4/2023 12:15:00 PM 7.76 45.968 0.154 6.71 3.21 11.45
5/4/2023 12:30:00 PM 7.88 46.184 0.154 6.7 3.44 11.42
5/4/2023 12:45:00 PM 7.94 46.292 0.153 6.68 3.23 11.4
5/4/2023 1:00:00 PM 8.12 46.616 0.153 6.68 3.34 11.36
5/4/2023 1:15:00 PM 8.08 46.544 0.152 6.67 3.35 11.36
5/4/2023 1:30:00 PM 8.16 46.688 0.152 6.66 3.15 11.35
5/4/2023 1:45:00 PM 8.15 46.67 0.152 6.64 3.13 11.34
5/4/2023 2:00:00 PM 8.28 46.904 0.152 6.65 3.22 11.31
5/4/2023 2:15:00 PM 8.21 46.778 0.151 6.63 3.15 11.32
5/4/2023 2:30:00 PM 8.34 47.012 0.151 6.62 3.62 11.3
5/4/2023 2:45:00 PM 8.36 47.048 0.15 6.63 3.46 11.29
5/4/2023 3:00:00 PM 8.34 47.012 0.151 6.62 3.34 11.29
5/4/2023 3:15:00 PM 8.34 47.012 0.151 6.6 3.38 11.29
5/4/2023 3:30:00 PM 8.35 47.03 0.151 6.6 3.51 11.29
5/4/2023 3:45:00 PM 8.46 47.228 0.151 6.61 3.61 11.26
5/4/2023 4:00:00 PM 8.53 47.354 0.152 6.65 3.6 11.23
5/4/2023 4:15:00 PM 8.45 47.21 0.151 6.63 4.11 11.25
5/4/2023 4:30:00 PM 8.34 47.012 0.151 6.6 3.78 11.29
5/4/2023 4:45:00 PM 8.3 46.94 0.151 6.6 3.63 11.3
5/4/2023 5:00:00 PM 8.29 46.922 0.15 6.6 3.63 11.3
5/4/2023 5:15:00 PM 8.32 46.976 0.151 6.6 3.54 11.3
5/4/2023 5:30:00 PM 8.3 46.94 0.151 6.6 3.84 11.31
5/4/2023 5:45:00 PM 8.28 46.904 0.151 6.6 4.07 11.31
5/4/2023 6:00:00 PM 8.26 46.868 0.152 6.6 4.61 11.32
5/4/2023 6:15:00 PM 8.22 46.796 0.152 6.59 4.22 11.33
5/4/2023 6:30:00 PM 8.14 46.652 0.151 6.57 3.89 11.35
5/4/2023 6:45:00 PM 8.1 46.58 0.152 6.58 4.11 11.36
5/4/2023 7:00:00 PM 8.05 46.49 0.152 6.58 4.15 11.38
5/4/2023 7:15:00 PM 8.03 46.454 0.153 6.59 4.58 11.38
5/4/2023 7:30:00 PM 8.01 46.418 0.153 6.59 4.75 11.39
5/4/2023 7:45:00 PM 7.98 46.364 0.153 6.6 4.93 11.4
5/4/2023 8:00:00 PM 7.96 46.328 0.154 6.6 5.81 11.41
5/4/2023 8:15:00 PM 7.93 46.274 0.154 6.6 5.96 11.42
5/4/2023 8:30:00 PM 7.89 46.202 0.155 6.61 5.79 11.43
5/4/2023 8:45:00 PM 7.84 46.112 0.154 6.6 5.59 11.45
5/4/2023 9:00:00 PM 7.79 46.022 0.153 6.6 5.49 11.46
5/4/2023 9:15:00 PM 7.74 45.932 0.153 6.6 5.5 11.48
5/4/2023 9:30:00 PM 7.69 45.842 0.154 6.59 5.09 11.49
5/4/2023 9:45:00 PM 7.65 45.77 0.153 6.6 5.1 11.51
5/4/2023 10:00:00 PM 7.6 45.68 0.153 6.56 4.95 11.52
5/4/2023 10:15:00 PM 7.55 45.59 0.153 6.58 5.07 11.54
5/4/2023 10:30:00 PM 7.52 45.536 0.152 6.59 4.96 11.55
5/4/2023 10:45:00 PM 7.49 45.482 0.152 6.58 4.85 11.56
5/4/2023 11:00:00 PM 7.46 45.428 0.152 6.58 4.67 11.57
5/4/2023 11:15:00 PM 7.42 45.356 0.151 6.57 4.9 11.58
5/4/2023 11:30:00 PM 7.38 45.284 0.151 6.56 4.79 11.6
5/4/2023 11:45:00 PM 7.34 45.212 0.151 6.58 4.56 11.61
5/5/2023 12:00:00 AM 7.3 45.14 0.151 6.56 4.44 11.62
5/5/2023 12:15:00 AM 7.26 45.068 0.151 6.57 4.52 11.63
5/5/2023 12:30:00 AM 7.22 44.996 0.151 6.56 4.51 11.64
5/5/2023 12:45:00 AM 7.18 44.924 0.15 6.54 4.42 11.65
5/5/2023 1:00:00 AM 7.14 44.852 0.15 6.55 4.51 11.67
5/5/2023 1:15:00 AM 7.11 44.798 0.15 6.54 4.32 11.68
5/5/2023 1:30:00 AM 7.07 44.726 0.15 6.55 4.05 11.69
5/5/2023 1:45:00 AM 7.03 44.654 0.15 6.56 4.14 11.7
5/5/2023 2:00:00 AM 7 44.6 0.15 6.55 3.95 11.71
5/5/2023 2:15:00 AM 6.96 44.528 0.15 6.56 3.86 11.72
5/5/2023 2:30:00 AM 6.93 44.474 0.149 6.56 3.69 11.73
5/5/2023 2:45:00 AM 6.9 44.42 0.149 6.56 3.53 11.74
5/5/2023 3:00:00 AM 6.87 44.366 0.149 6.55 3.63 11.75
5/5/2023 3:15:00 AM 6.84 44.312 0.149 6.53 3.61 11.76
5/5/2023 3:30:00 AM 6.81 44.258 0.148 6.54 3.43 11.77
5/5/2023 3:45:00 AM 6.78 44.204 0.148 6.54 3.4 11.78
5/5/2023 4:00:00 AM 6.75 44.15 0.148 6.54 3.29 11.79
5/5/2023 4:15:00 AM 6.73 44.114 0.148 6.53 3.36 11.79
5/5/2023 4:30:00 AM 6.7 44.06 0.147 6.52 3.28 11.8
5/5/2023 4:45:00 AM 6.67 44.006 0.147 6.54 3.34 11.81
5/5/2023 5:00:00 AM 6.64 43.952 0.146 6.53 3.16 11.82
5/5/2023 5:15:00 AM 6.62 43.916 0.146 6.54 3.09 11.83
5/5/2023 5:30:00 AM 6.59 43.862 0.146 6.54 3.38 11.84
5/5/2023 5:45:00 AM 6.57 43.826 0.145 6.52 3.13 11.85
5/5/2023 6:00:00 AM 6.55 43.79 0.145 6.52 3.14 11.85
5/5/2023 6:15:00 AM 6.53 43.754 0.144 6.53 3.28 11.86
5/5/2023 6:30:00 AM 6.51 43.718 0.144 6.52 3.18 11.87
5/5/2023 6:45:00 AM 6.5 43.7 0.144 6.53 2.95 11.88
5/5/2023 7:00:00 AM 6.49 43.682 0.143 6.53 3.06 11.89
5/5/2023 7:15:00 AM 6.48 43.664 0.143 6.53 2.73 11.89
5/5/2023 7:30:00 AM 6.49 43.682 0.142 6.53 2.79 11.9
5/5/2023 7:45:00 AM 6.53 43.754 0.142 6.54 3.14 11.9
5/5/2023 8:00:00 AM 6.58 43.844 0.141 6.56 2.78 11.88
5/5/2023 8:15:00 AM 6.65 43.97 0.141 6.57 2.66 11.87
5/5/2023 8:30:00 AM 6.71 44.078 0.14 6.57 2.52 11.85
5/5/2023 8:45:00 AM 6.79 44.222 0.14 6.58 2.55 11.84
5/5/2023 9:00:00 AM 6.88 44.384 0.139 6.58 2.53 11.82
5/5/2023 9:15:00 AM 6.97 44.546 0.139 6.59 2.42 11.79
5/5/2023 9:30:00 AM 7.07 44.726 0.138 6.58 2.38 11.76
5/5/2023 9:45:00 AM 7.23 45.014 0.138 6.6 2.45 11.72
5/5/2023 10:00:00 AM 7.36 45.248 0.137 6.62 2.4 11.69
5/5/2023 10:15:00 AM 7.4 45.32 0.136 6.6 2.41 11.66
5/5/2023 10:30:00 AM 7.39 45.302 0.136 6.57 2.42 11.67
5/5/2023 10:45:00 AM 7.43 45.374 0.136 6.56 2.43 11.66
5/5/2023 11:00:00 AM 7.53 45.554 0.135 6.59 2.43 11.64
5/5/2023 11:15:00 AM 7.54 45.572 0.135 6.56 2.33 11.62
5/5/2023 11:30:00 AM 7.69 45.842 0.134 6.57 2.3 11.59
5/5/2023 11:45:00 AM 7.76 45.968 0.134 6.59 2.35 11.57
5/5/2023 12:00:00 PM 7.89 46.202 0.133 6.62 2.38 11.53
5/5/2023 12:15:00 PM 8.01 46.418 0.133 6.59 2.31 11.51
5/5/2023 12:30:00 PM 8.07 46.526 0.132 6.61 2.41 11.48
5/5/2023 12:45:00 PM 8.07 46.526 0.132 6.57 2.35 11.47
5/5/2023 1:00:00 PM 8.07 46.526 0.131 6.55 2.35 11.48
5/5/2023 1:15:00 PM 8.07 46.526 0.131 6.53 2.46 11.48
5/5/2023 1:30:00 PM 8.15 46.67 0.13 6.53 2.32 11.46
5/5/2023 1:45:00 PM 8.35 47.03 0.13 6.57 2.43 11.41
5/5/2023 2:00:00 PM 8.47 47.246 0.129 6.59 2.49 11.36
5/5/2023 2:15:00 PM 8.55 47.39 0.129 6.59 2.34 11.33
5/5/2023 2:30:00 PM 8.49 47.282 0.128 6.56 2.77 11.34
5/5/2023 2:45:00 PM 8.42 47.156 0.128 6.52 2.53 11.37
5/5/2023 3:00:00 PM 8.43 47.174 0.128 6.51 2.6 11.37
5/5/2023 3:15:00 PM 8.45 47.21 0.127 6.52 2.39 11.36
5/5/2023 3:30:00 PM 8.45 47.21 0.127 6.49 2.46 11.36
5/5/2023 3:45:00 PM 8.42 47.156 0.126 6.48 2.35 11.36
5/5/2023 4:00:00 PM 8.42 47.156 0.126 6.48 2.32 11.37
5/5/2023 4:15:00 PM 8.45 47.21 0.126 6.49 2.49 11.36
5/5/2023 4:30:00 PM 8.52 47.336 0.125 6.52 2.41 11.34
5/5/2023 4:45:00 PM 8.55 47.39 0.125 6.49 2.35 11.33
5/5/2023 5:00:00 PM 8.62 47.516 0.124 6.5 2.32 11.31
5/5/2023 5:15:00 PM 8.63 47.534 0.124 6.5 2.27 11.3
5/5/2023 5:30:00 PM 8.63 47.534 0.124 6.51 2.35 11.3
5/5/2023 5:45:00 PM 8.57 47.426 0.123 6.46 2.4 11.31
5/5/2023 6:00:00 PM 8.51 47.318 0.123 6.44 2.44 11.33
5/5/2023 6:15:00 PM 8.49 47.282 0.122 6.46 2.47 11.34
5/5/2023 6:30:00 PM 8.49 47.282 0.122 6.46 2.45 11.35
5/5/2023 6:45:00 PM 8.48 47.264 0.122 6.44 2.4 11.35
5/5/2023 7:00:00 PM 8.46 47.228 0.121 6.42 2.43 11.35
5/5/2023 7:15:00 PM 8.42 47.156 0.121 6.42 2.32 11.35
5/5/2023 7:30:00 PM 8.36 47.048 0.12 6.41 2.4 11.37
5/5/2023 7:45:00 PM 8.31 46.958 0.12 6.4 2.32 11.38
5/5/2023 8:00:00 PM 8.26 46.868 0.12 6.38 2.37 11.39
5/5/2023 8:15:00 PM 8.22 46.796 0.12 6.39 2.29 11.41
5/5/2023 8:30:00 PM 8.17 46.706 0.119 6.37 2.36 11.42
5/5/2023 8:45:00 PM 8.12 46.616 0.119 6.38 2.37 11.43
5/5/2023 9:00:00 PM 8.08 46.544 0.119 6.38 2.29 11.45
5/5/2023 9:15:00 PM 8.03 46.454 0.118 6.38 2.59 11.47
5/5/2023 9:30:00 PM 7.98 46.364 0.118 6.38 2.57 11.48
5/5/2023 9:45:00 PM 7.93 46.274 0.118 6.36 2.5 11.49
5/5/2023 10:00:00 PM 7.88 46.184 0.117 6.35 2.66 11.51
5/5/2023 10:15:00 PM 7.83 46.094 0.117 6.34 2.37 11.52
5/5/2023 10:30:00 PM 7.79 46.022 0.116 6.34 2.2 11.54
5/5/2023 10:45:00 PM 7.74 45.932 0.116 6.33 2.26 11.55
5/5/2023 11:00:00 PM 7.7 45.86 0.116 6.33 2.43 11.57
5/5/2023 11:15:00 PM 7.66 45.788 0.116 6.34 2.37 11.58
5/5/2023 11:30:00 PM 7.62 45.716 0.115 6.34 2.25 11.59
5/5/2023 11:45:00 PM 7.58 45.644 0.115 6.34 2.45 11.6
5/6/2023 12:00:00 AM 7.54 45.572 0.115 6.34 2.17 11.61
5/6/2023 12:15:00 AM 7.5 45.5 0.114 6.33 2.28 11.63
5/6/2023 12:30:00 AM 7.47 45.446 0.114 6.34 2.28 11.64
5/6/2023 12:45:00 AM 7.43 45.374 0.114 6.32 2.19 11.65
5/6/2023 1:00:00 AM 7.39 45.302 0.113 6.35 2.33 11.66
5/6/2023 1:15:00 AM 7.36 45.248 0.113 6.34 2.06 11.67
5/6/2023 1:30:00 AM 7.33 45.194 0.113 6.33 2.15 11.68
5/6/2023 1:45:00 AM 7.29 45.122 0.112 6.34 2.12 11.69
5/6/2023 2:00:00 AM 7.26 45.068 0.112 6.33 2.1 11.7
5/6/2023 2:15:00 AM 7.23 45.014 0.112 6.35 2.24 11.7
5/6/2023 2:30:00 AM 7.2 44.96 0.111 6.34 2.08 11.71
5/6/2023 2:45:00 AM 7.17 44.906 0.111 6.33 2.06 11.72
5/6/2023 3:00:00 AM 7.14 44.852 0.111 6.33 2.1 11.73
5/6/2023 3:15:00 AM 7.11 44.798 0.111 6.31 2.27 11.74
5/6/2023 3:30:00 AM 7.08 44.744 0.11 6.32 2.18 11.75
5/6/2023 3:45:00 AM 7.05 44.69 0.11 6.32 2.2 11.76
5/6/2023 4:00:00 AM 7.02 44.636 0.11 6.33 1.89 11.77
5/6/2023 4:15:00 AM 6.99 44.582 0.109 6.35 1.92 11.78
5/6/2023 4:30:00 AM 6.96 44.528 0.109 6.34 1.89 11.79
5/6/2023 4:45:00 AM 6.94 44.492 0.109 6.34 1.9 11.8
5/6/2023 5:00:00 AM 6.91 44.438 0.108 6.34 1.91 11.81
5/6/2023 5:15:00 AM 6.88 44.384 0.108 6.34 1.9 11.81
5/6/2023 5:30:00 AM 6.86 44.348 0.108 6.28 2.02 11.82
5/6/2023 5:45:00 AM 6.83 44.294 0.107 6.32 1.87 11.83
5/6/2023 6:00:00 AM 6.81 44.258 0.107 6.31 1.98 11.84
5/6/2023 6:15:00 AM 6.78 44.204 0.107 6.32 1.86 11.85
5/6/2023 6:30:00 AM 6.76 44.168 0.107 6.31 1.9 11.85
5/6/2023 6:45:00 AM 6.75 44.15 0.106 6.31 2.3 11.86
5/6/2023 7:00:00 AM 6.73 44.114 0.106 6.32 1.77 11.87
5/6/2023 7:15:00 AM 6.73 44.114 0.106 6.33 1.79 11.87
5/6/2023 7:30:00 AM 6.73 44.114 0.106 6.31 1.86 11.87
5/6/2023 7:45:00 AM 6.76 44.168 0.105 6.33 1.81 11.87
5/6/2023 8:00:00 AM 6.79 44.222 0.105 6.32 1.8 11.86
5/6/2023 8:15:00 AM 6.86 44.348 0.105 6.34 1.77 11.85
5/6/2023 8:30:00 AM 6.93 44.474 0.104 6.37 1.76 11.83
5/6/2023 8:45:00 AM 7.02 44.636 0.104 6.39 1.86 11.81
5/6/2023 9:00:00 AM 7.13 44.834 0.104 6.41 1.68 11.78
5/6/2023 9:15:00 AM 7.25 45.05 0.103 6.41 1.76 11.74
5/6/2023 9:30:00 AM 7.38 45.284 0.103 6.41 1.83 11.71
5/6/2023 9:45:00 AM 7.5 45.5 0.103 6.43 1.91 11.67
5/6/2023 10:00:00 AM 7.64 45.752 0.103 6.42 1.77 11.64
5/6/2023 10:15:00 AM 7.78 46.004 0.103 6.44 1.83 11.6
5/6/2023 10:30:00 AM 7.94 46.292 0.103 6.45 1.76 11.55
5/6/2023 10:45:00 AM 8.09 46.562 0.102 6.45 1.77 11.51
5/6/2023 11:00:00 AM 8.24 46.832 0.102 6.44 1.91 11.47
5/6/2023 11:15:00 AM 8.41 47.138 0.102 6.45 1.76 11.42
5/6/2023 11:30:00 AM 8.58 47.444 0.102 6.46 1.92 11.37
5/6/2023 11:45:00 AM 8.76 47.768 0.101 6.46 1.76 11.32
5/6/2023 12:00:00 PM 8.92 48.056 0.101 6.46 1.82 11.27
5/6/2023 12:15:00 PM 9.07 48.326 0.101 6.47 1.9 11.23
5/6/2023 12:30:00 PM 9.18 48.524 0.101 6.45 1.93 11.2
5/6/2023 12:45:00 PM 9.3 48.74 0.101 6.45 1.95 11.17
5/6/2023 1:00:00 PM 9.42 48.956 0.1 6.44 1.87 11.13
5/6/2023 1:15:00 PM 9.54 49.172 0.1 6.44 1.99 11.1
5/6/2023 1:30:00 PM 9.64 49.352 0.1 6.44 1.9 11.07
5/6/2023 1:45:00 PM 9.74 49.532 0.1 6.44 1.94 11.04
5/6/2023 2:00:00 PM 9.83 49.694 0.1 6.43 2 11.01
5/6/2023 2:15:00 PM 9.91 49.838 0.1 6.43 1.99 10.99
5/6/2023 2:30:00 PM 9.97 49.946 0.099 6.41 2.02 10.97
5/6/2023 2:45:00 PM 10.03 50.054 0.099 6.4 1.96 10.95
5/6/2023 3:00:00 PM 10.06 50.108 0.099 6.39 2.02 10.94
5/6/2023 3:15:00 PM 10.09 50.162 0.099 6.39 2.1 10.93
5/6/2023 3:30:00 PM 10.11 50.198 0.099 6.37 2.08 10.92
5/6/2023 3:45:00 PM 10.13 50.234 0.099 6.35 1.96 10.92
5/6/2023 4:00:00 PM 10.14 50.252 0.098 6.36 2.04 10.91
5/6/2023 4:15:00 PM 10.13 50.234 0.098 6.34 2.11 10.91
5/6/2023 4:30:00 PM 10.1 50.18 0.098 6.32 2 10.91
5/6/2023 4:45:00 PM 10.07 50.126 0.098 6.3 2.71 10.92
5/6/2023 5:00:00 PM 10.01 50.018 0.098 6.3 2.15 10.93
5/6/2023 5:15:00 PM 9.97 49.946 0.098 6.3 2.05 10.94
5/6/2023 5:30:00 PM 9.92 49.856 0.098 6.29 2.15 10.96
5/6/2023 5:45:00 PM 9.89 49.802 0.097 6.3 2.18 10.96
5/6/2023 6:00:00 PM 9.85 49.73 0.097 6.28 2.06 10.97
5/6/2023 6:15:00 PM 9.79 49.622 0.097 6.27 2.17 10.98
5/6/2023 6:30:00 PM 9.73 49.514 0.097 6.25 2.17 10.99
5/6/2023 6:45:00 PM 9.68 49.424 0.097 6.25 2.23 11.01
5/6/2023 7:00:00 PM 9.63 49.334 0.097 6.22 2.22 11.02
5/6/2023 7:15:00 PM 9.58 49.244 0.097 6.22 2.31 11.03
5/6/2023 7:30:00 PM 9.54 49.172 0.096 6.22 2.38 11.04
5/6/2023 7:45:00 PM 9.49 49.082 0.096 6.21 2.15 11.05
5/6/2023 8:00:00 PM 9.44 48.992 0.096 6.2 2.37 11.06
5/6/2023 8:15:00 PM 9.38 48.884 0.096 6.2 2.44 11.07
5/6/2023 8:30:00 PM 9.32 48.776 0.096 6.2 2.15 11.09
5/6/2023 8:45:00 PM 9.26 48.668 0.096 6.2 2.14 11.1
5/6/2023 9:00:00 PM 9.2 48.56 0.096 6.19 2.18 11.12
5/6/2023 9:15:00 PM 9.14 48.452 0.096 6.2 2.1 11.13
5/6/2023 9:30:00 PM 9.09 48.362 0.096 6.21 2.05 11.15
5/6/2023 9:45:00 PM 9.04 48.272 0.095 6.2 2.24 11.16
5/6/2023 10:00:00 PM 8.99 48.182 0.095 6.19 2.08 11.17
5/6/2023 10:15:00 PM 8.95 48.11 0.095 6.18 2.04 11.18
5/6/2023 10:30:00 PM 8.92 48.056 0.095 6.2 1.98 11.19
5/6/2023 10:45:00 PM 8.89 48.002 0.095 6.2 1.93 11.2
5/6/2023 11:00:00 PM 8.85 47.93 0.095 6.2 1.87 11.21
5/6/2023 11:15:00 PM 8.81 47.858 0.095 6.2 1.91 11.22
5/6/2023 11:30:00 PM 8.76 47.768 0.095 6.21 2.07 11.23
5/6/2023 11:45:00 PM 8.72 47.696 0.094 6.2 2.04 11.24
5/7/2023 12:00:00 AM 8.68 47.624 0.094 6.19 1.94 11.25
5/7/2023 12:15:00 AM 8.63 47.534 0.094 6.18 1.94 11.26
5/7/2023 12:30:00 AM 8.59 47.462 0.094 6.2 2 11.27
5/7/2023 12:45:00 AM 8.55 47.39 0.094 6.2 1.93 11.28
5/7/2023 1:00:00 AM 8.51 47.318 0.094 6.19 1.97 11.29
5/7/2023 1:15:00 AM 8.47 47.246 0.094 6.19 2.38 11.31
5/7/2023 1:30:00 AM 8.42 47.156 0.094 6.19 2.26 11.32
5/7/2023 1:45:00 AM 8.38 47.084 0.094 6.19 2.69 11.33
5/7/2023 2:00:00 AM 8.35 47.03 0.093 6.17 2.36 11.34
5/7/2023 2:15:00 AM 8.31 46.958 0.093 6.21 2.38 11.35
5/7/2023 2:30:00 AM 8.27 46.886 0.093 6.2 2.2 11.36
5/7/2023 2:45:00 AM 8.24 46.832 0.093 6.19 2.19 11.37
5/7/2023 3:00:00 AM 8.2 46.76 0.093 6.2 2.31 11.38
5/7/2023 3:15:00 AM 8.17 46.706 0.093 6.21 2.04 11.39
5/7/2023 3:30:00 AM 8.13 46.634 0.093 6.19 2 11.4
5/7/2023 3:45:00 AM 8.11 46.598 0.093 6.2 2.06 11.4
5/7/2023 4:00:00 AM 8.1 46.58 0.093 6.2 2.13 11.4
5/7/2023 4:15:00 AM 8.11 46.598 0.093 6.21 2.09 11.4
5/7/2023 4:30:00 AM 8.11 46.598 0.093 6.22 2.12 11.4
5/7/2023 4:45:00 AM 8.11 46.598 0.092 6.21 1.95 11.4
5/7/2023 5:00:00 AM 8.11 46.598 0.092 6.22 2.01 11.4
5/7/2023 5:15:00 AM 8.11 46.598 0.092 6.22 2.1 11.4
5/7/2023 5:30:00 AM 8.11 46.598 0.092 6.22 2.07 11.4
5/7/2023 5:45:00 AM 8.11 46.598 0.092 6.22 1.94 11.39
5/7/2023 6:00:00 AM 8.11 46.598 0.092 6.22 1.98 11.4
5/7/2023 6:15:00 AM 8.11 46.598 0.092 6.21 2.16 11.39
5/7/2023 6:30:00 AM 8.12 46.616 0.092 6.21 2.2 11.39
5/7/2023 6:45:00 AM 8.13 46.634 0.092 6.23 1.95 11.39
5/7/2023 7:00:00 AM 8.14 46.652 0.092 6.23 2.53 11.38
5/7/2023 7:15:00 AM 8.16 46.688 0.092 6.23 1.9 11.38
5/7/2023 7:30:00 AM 8.18 46.724 0.092 6.24 1.81 11.38
5/7/2023 7:45:00 AM 8.2 46.76 0.091 6.24 1.78 11.37
5/7/2023 8:00:00 AM 8.23 46.814 0.091 6.23 1.84 11.37
5/7/2023 8:15:00 AM 8.25 46.85 0.091 6.23 2 11.36
5/7/2023 8:30:00 AM 8.27 46.886 0.091 6.23 2 11.35
5/7/2023 8:45:00 AM 8.29 46.922 0.091 6.24 1.9 11.35
5/7/2023 9:00:00 AM 8.33 46.994 0.091 6.26 1.86 11.34
5/7/2023 9:15:00 AM 8.37 47.066 0.091 6.27 1.83 11.33
5/7/2023 9:30:00 AM 8.41 47.138 0.091 6.28 1.81 11.32
5/7/2023 9:45:00 AM 8.45 47.21 0.091 6.29 1.76 11.31
5/7/2023 10:00:00 AM 8.5 47.3 0.091 6.29 1.78 11.29
5/7/2023 10:15:00 AM 8.58 47.444 0.091 6.31 1.7 11.27
5/7/2023 10:30:00 AM 8.69 47.642 0.091 6.32 1.89 11.24
5/7/2023 10:45:00 AM 8.75 47.75 0.091 6.32 1.79 11.22
5/7/2023 11:00:00 AM 8.81 47.858 0.091 6.3 1.83 11.2
5/7/2023 11:15:00 AM 8.82 47.876 0.091 6.3 1.84 11.19
5/7/2023 11:30:00 AM 8.83 47.894 0.091 6.28 1.81 11.19
5/7/2023 11:45:00 AM 8.89 48.002 0.091 6.29 1.8 11.17
5/7/2023 12:00:00 PM 9 48.2 0.091 6.31 1.76 11.15
5/7/2023 12:15:00 PM 9.12 48.416 0.09 6.33 1.83 11.11
5/7/2023 12:30:00 PM 9.26 48.668 0.09 6.35 1.79 11.08
5/7/2023 12:45:00 PM 9.33 48.794 0.09 6.34 2.01 11.05
5/7/2023 1:00:00 PM 9.36 48.848 0.09 6.32 1.78 11.04
5/7/2023 1:15:00 PM 9.35 48.83 0.09 6.29 1.8 11.04
5/7/2023 1:30:00 PM 9.34 48.812 0.09 6.27 1.91 11.04
5/7/2023 1:45:00 PM 9.35 48.83 0.09 6.26 1.87 11.03
5/7/2023 2:00:00 PM 9.39 48.902 0.09 6.28 1.89 11.02
5/7/2023 2:15:00 PM 9.41 48.938 0.09 6.27 1.88 11.01
5/7/2023 2:30:00 PM 9.42 48.956 0.09 6.26 1.76 11.01
5/7/2023 2:45:00 PM 9.41 48.938 0.09 6.26 1.78 11.01
5/7/2023 3:00:00 PM 9.4 48.92 0.09 6.25 1.91 11.01
5/7/2023 3:15:00 PM 9.4 48.92 0.09 6.24 2.22 11.01
5/7/2023 3:30:00 PM 9.39 48.902 0.09 6.22 2.15 11.01
5/7/2023 3:45:00 PM 9.38 48.884 0.09 6.23 2.25 11
5/7/2023 4:00:00 PM 9.39 48.902 0.09 6.23 2.13 11
5/7/2023 4:15:00 PM 9.42 48.956 0.09 6.23 2.16 11
5/7/2023 4:30:00 PM 9.41 48.938 0.09 6.23 1.98 10.99
5/7/2023 4:45:00 PM 9.41 48.938 0.09 6.21 2.03 10.99
5/7/2023 5:00:00 PM 9.41 48.938 0.09 6.23 2.24 10.99
5/7/2023 5:15:00 PM 9.47 49.046 0.09 6.26 2.05 10.98
5/7/2023 5:30:00 PM 9.51 49.118 0.09 6.28 2.06 10.97
5/7/2023 5:45:00 PM 9.57 49.226 0.09 6.29 2.05 10.95
5/7/2023 6:00:00 PM 9.58 49.244 0.09 6.29 1.91 10.94
5/7/2023 6:15:00 PM 9.53 49.154 0.091 6.26 1.98 10.95
5/7/2023 6:30:00 PM 9.49 49.082 0.091 6.24 1.84 10.95
5/7/2023 6:45:00 PM 9.46 49.028 0.091 6.25 1.91 10.96
5/7/2023 7:00:00 PM 9.46 49.028 0.091 6.25 2.57 10.96
5/7/2023 7:15:00 PM 9.45 49.01 0.091 6.25 2.18 10.96
5/7/2023 7:30:00 PM 9.44 48.992 0.091 6.24 1.89 10.96
5/7/2023 7:45:00 PM 9.44 48.992 0.091 6.23 1.91 10.96
5/7/2023 8:00:00 PM 9.44 48.992 0.09 6.23 2.07 10.96
5/7/2023 8:15:00 PM 9.43 48.974 0.09 6.22 2.13 10.96
5/7/2023 8:30:00 PM 9.42 48.956 0.09 6.23 2.07 10.96
5/7/2023 8:45:00 PM 9.42 48.956 0.09 6.23 2.04 10.96
5/7/2023 9:00:00 PM 9.42 48.956 0.09 6.23 2.04 10.96
5/7/2023 9:15:00 PM 9.41 48.938 0.09 6.23 1.96 10.97
5/7/2023 9:30:00 PM 9.42 48.956 0.091 6.23 1.95 10.97
5/7/2023 9:45:00 PM 9.43 48.974 0.091 6.24 2.05 10.96
5/7/2023 10:00:00 PM 9.44 48.992 0.091 6.23 1.99 10.96
5/7/2023 10:15:00 PM 9.44 48.992 0.091 6.24 2.1 10.96
5/7/2023 10:30:00 PM 9.44 48.992 0.091 6.23 2.25 10.96
5/7/2023 10:45:00 PM 9.45 49.01 0.091 6.24 1.94 10.96
5/7/2023 11:00:00 PM 9.46 49.028 0.091 6.24 2.17 10.95
5/7/2023 11:15:00 PM 9.47 49.046 0.09 6.25 2.48 10.94
5/7/2023 11:30:00 PM 9.48 49.064 0.09 6.24 2.28 10.94
5/7/2023 11:45:00 PM 9.48 49.064 0.09 6.24 1.95 10.94
5/8/2023 12:00:00 AM 9.49 49.082 0.09 6.24 1.92 10.94
5/8/2023 12:15:00 AM 9.5 49.1 0.09 6.24 1.93 10.93
5/8/2023 12:30:00 AM 9.5 49.1 0.09 6.23 2.36 10.93
5/8/2023 12:45:00 AM 9.49 49.082 0.09 6.22 1.93 10.93
5/8/2023 1:00:00 AM 9.49 49.082 0.09 6.23 1.94 10.93
5/8/2023 1:15:00 AM 9.5 49.1 0.09 6.23 2.09 10.93
5/8/2023 1:30:00 AM 9.51 49.118 0.09 6.24 1.85 10.93
5/8/2023 1:45:00 AM 9.51 49.118 0.09 6.22 2.07 10.93
5/8/2023 2:00:00 AM 9.5 49.1 0.09 6.23 1.87 10.93
5/8/2023 2:15:00 AM 9.51 49.118 0.09 6.23 2.02 10.92
5/8/2023 2:30:00 AM 9.52 49.136 0.09 6.23 1.98 10.92
5/8/2023 2:45:00 AM 9.52 49.136 0.09 6.23 2.01 10.92
5/8/2023 3:00:00 AM 9.52 49.136 0.09 6.22 1.81 10.92
5/8/2023 3:15:00 AM 9.52 49.136 0.09 6.22 1.93 10.92
5/8/2023 3:30:00 AM 9.53 49.154 0.09 6.22 1.96 10.92
5/8/2023 3:45:00 AM 9.53 49.154 0.09 6.22 1.89 10.92
5/8/2023 4:00:00 AM 9.53 49.154 0.09 6.22 1.95 10.92
5/8/2023 4:15:00 AM 9.52 49.136 0.089 6.22 2.32 10.92
5/8/2023 4:30:00 AM 9.49 49.082 0.089 6.19 2.18 10.92
5/8/2023 4:45:00 AM 9.48 49.064 0.09 6.21 2.01 10.93
5/8/2023 5:00:00 AM 9.47 49.046 0.09 6.19 1.83 10.93
5/8/2023 5:15:00 AM 9.46 49.028 0.089 6.19 2 10.93
5/8/2023 5:30:00 AM 9.45 49.01 0.089 6.2 2.01 10.94
5/8/2023 5:45:00 AM 9.44 48.992 0.089 6.19 1.94 10.94
5/8/2023 6:00:00 AM 9.43 48.974 0.089 6.21 1.89 10.95
5/8/2023 6:15:00 AM 9.42 48.956 0.089 6.2 2.51 10.95
5/8/2023 6:30:00 AM 9.41 48.938 0.089 6.2 2.24 10.96
5/8/2023 6:45:00 AM 9.39 48.902 0.089 6.19 2.07 10.97
5/8/2023 7:00:00 AM 9.37 48.866 0.089 6.19 1.93 10.97
5/8/2023 7:15:00 AM 9.37 48.866 0.089 6.2 1.84 10.98
5/8/2023 7:30:00 AM 9.37 48.866 0.089 6.21 1.84 10.98
5/8/2023 7:45:00 AM 9.39 48.902 0.089 6.23 2.18 10.99
5/8/2023 8:00:00 AM 9.41 48.938 0.089 6.22 1.95 10.98
5/8/2023 8:15:00 AM 9.41 48.938 0.089 6.23 1.81 10.98
5/8/2023 8:30:00 AM 9.44 48.992 0.089 6.23 1.86 10.98
5/8/2023 8:45:00 AM 9.48 49.064 0.089 6.25 1.84 10.98
5/8/2023 9:00:00 AM 9.52 49.136 0.089 6.25 1.97 10.97
5/8/2023 9:15:00 AM 9.57 49.226 0.089 6.27 1.85 10.96
5/8/2023 9:30:00 AM 9.62 49.316 0.089 6.29 2.54 10.94
5/8/2023 9:45:00 AM 9.62 49.316 0.089 6.27 1.88 10.94
5/8/2023 10:00:00 AM 9.62 49.316 0.089 6.27 1.82 10.94
5/8/2023 10:15:00 AM 9.62 49.316 0.089 6.26 1.98 10.95
5/8/2023 10:30:00 AM 9.66 49.388 0.089 6.27 2.1 10.94
5/8/2023 10:45:00 AM 9.72 49.496 0.089 6.28 1.88 10.93
5/8/2023 11:00:00 AM 9.77 49.586 0.089 6.29 2.04 10.92
5/8/2023 11:15:00 AM 9.81 49.658 0.089 6.29 1.93 10.9
5/8/2023 11:30:00 AM 9.84 49.712 0.089 6.29 2.01 10.9
5/8/2023 11:45:00 AM 9.87 49.766 0.089 6.28 1.87 10.89
5/8/2023 12:00:00 PM 9.9 49.82 0.089 6.29 2.11 10.88
5/8/2023 12:15:00 PM 9.92 49.856 0.089 6.29 1.87 10.88
5/8/2023 12:30:00 PM 9.94 49.892 0.089 6.28 1.96 10.87
5/8/2023 12:45:00 PM 10 50 0.089 6.28 2.02 10.86
5/8/2023 1:00:00 PM 10.21 50.378 0.089 6.33 2.05 10.81
5/8/2023 1:15:00 PM 10.43 50.774 0.089 6.37 2.02 10.76
5/8/2023 1:30:00 PM 10.64 51.152 0.089 6.4 1.96 10.7
5/8/2023 1:45:00 PM 10.86 51.548 0.089 6.4 2 10.65
5/8/2023 2:00:00 PM 10.93 51.674 0.089 6.39 2 10.63
5/8/2023 2:15:00 PM 10.96 51.728 0.089 6.37 2 10.62
5/8/2023 2:30:00 PM 10.98 51.764 0.089 6.34 1.99 10.61
5/8/2023 2:45:00 PM 10.93 51.674 0.089 6.32 1.96 10.62
5/8/2023 3:00:00 PM 10.97 51.746 0.089 6.31 1.89 10.6
5/8/2023 3:15:00 PM 11.02 51.836 0.089 6.29 2.17 10.6
5/8/2023 3:30:00 PM 11.01 51.818 0.089 6.29 1.97 10.59
5/8/2023 3:45:00 PM 10.99 51.782 0.089 6.28 2.14 10.6
5/8/2023 4:00:00 PM 10.98 51.764 0.089 6.27 2.05 10.6
5/8/2023 4:15:00 PM 10.96 51.728 0.089 6.25 2.11 10.6
5/8/2023 4:30:00 PM 10.97 51.746 0.089 6.24 2.21 10.6
5/8/2023 4:45:00 PM 10.97 51.746 0.089 6.25 2.11 10.59
5/8/2023 5:00:00 PM 10.99 51.782 0.089 6.25 2.05 10.58
5/8/2023 5:15:00 PM 10.99 51.782 0.089 6.26 2.1 10.59
5/8/2023 5:30:00 PM 10.97 51.746 0.089 6.25 2.28 10.59
5/8/2023 5:45:00 PM 10.96 51.728 0.089 6.24 2.1 10.59
5/8/2023 6:00:00 PM 10.93 51.674 0.089 6.24 2.37 10.6
5/8/2023 6:15:00 PM 10.86 51.548 0.089 6.22 1.98 10.61
5/8/2023 6:30:00 PM 10.8 51.44 0.089 6.21 2.21 10.62
5/8/2023 6:45:00 PM 10.75 51.35 0.089 6.21 2.07 10.63
5/8/2023 7:00:00 PM 10.69 51.242 0.089 6.2 2.12 10.65
5/8/2023 7:15:00 PM 10.64 51.152 0.089 6.19 2.61 10.65
5/8/2023 7:30:00 PM 10.6 51.08 0.089 6.18 2.13 10.66
5/8/2023 7:45:00 PM 10.55 50.99 0.089 6.18 2.96 10.68
5/8/2023 8:00:00 PM 10.51 50.918 0.089 6.15 2.15 10.69
5/8/2023 8:15:00 PM 10.46 50.828 0.089 6.16 2.11 10.7
5/8/2023 8:30:00 PM 10.41 50.738 0.089 6.16 2.12 10.71
5/8/2023 8:45:00 PM 10.36 50.648 0.089 6.15 2.2 10.72
5/8/2023 9:00:00 PM 10.3 50.54 0.089 6.15 2.27 10.74
5/8/2023 9:15:00 PM 10.25 50.45 0.089 6.15 2.06 10.75
5/8/2023 9:30:00 PM 10.2 50.36 0.089 6.13 2.1 10.76
5/8/2023 9:45:00 PM 10.16 50.288 0.089 6.15 1.98 10.78
5/8/2023 10:00:00 PM 10.12 50.216 0.089 6.15 2.07 10.79
5/8/2023 10:15:00 PM 10.09 50.162 0.089 6.15 2 10.8
5/8/2023 10:30:00 PM 10.05 50.09 0.089 6.15 1.81 10.8
5/8/2023 10:45:00 PM 10.02 50.036 0.089 6.15 1.92 10.82
5/8/2023 11:00:00 PM 9.99 49.982 0.089 6.15 2.05 10.82
5/8/2023 11:15:00 PM 9.96 49.928 0.089 6.16 1.93 10.83
5/8/2023 11:30:00 PM 9.93 49.874 0.089 6.17 1.96 10.84
5/8/2023 11:45:00 PM 9.9 49.82 0.089 6.16 1.95 10.85
5/9/2023 12:00:00 AM 9.87 49.766 0.089 6.16 1.88 10.86
5/9/2023 12:15:00 AM 9.84 49.712 0.089 6.17 1.81 10.86
5/9/2023 12:30:00 AM 9.81 49.658 0.089 6.17 1.95 10.87
5/9/2023 12:45:00 AM 9.79 49.622 0.089 6.18 1.88 10.88
5/9/2023 1:00:00 AM 9.76 49.568 0.089 6.17 1.96 10.88
5/9/2023 1:15:00 AM 9.74 49.532 0.089 6.16 1.86 10.89
5/9/2023 1:30:00 AM 9.71 49.478 0.089 6.17 1.94 10.9
5/9/2023 1:45:00 AM 9.68 49.424 0.089 6.17 1.81 10.9
5/9/2023 2:00:00 AM 9.66 49.388 0.089 6.16 1.87 10.91
5/9/2023 2:15:00 AM 9.63 49.334 0.089 6.17 2.08 10.92
5/9/2023 2:30:00 AM 9.61 49.298 0.089 6.17 1.98 10.92
5/9/2023 2:45:00 AM 9.6 49.28 0.089 6.16 1.85 10.93
5/9/2023 3:00:00 AM 9.58 49.244 0.089 6.17 1.84 10.93
5/9/2023 3:15:00 AM 9.56 49.208 0.089 6.17 1.93 10.93
5/9/2023 3:30:00 AM 9.55 49.19 0.089 6.17 1.76 10.94
5/9/2023 3:45:00 AM 9.54 49.172 0.089 6.17 1.79 10.94
5/9/2023 4:00:00 AM 9.52 49.136 0.089 6.18 2.67 10.94
5/9/2023 4:15:00 AM 9.5 49.1 0.089 6.17 2.06 10.94
5/9/2023 4:30:00 AM 9.49 49.082 0.089 6.18 3.43 10.95
5/9/2023 4:45:00 AM 9.47 49.046 0.089 6.19 2.01 10.96
5/9/2023 5:00:00 AM 9.46 49.028 0.089 6.19 1.97 10.97
5/9/2023 5:15:00 AM 9.44 48.992 0.089 6.19 1.98 10.97
5/9/2023 5:30:00 AM 9.43 48.974 0.089 6.18 2.29 10.97
5/9/2023 5:45:00 AM 9.41 48.938 0.089 6.18 2.17 10.98
5/9/2023 6:00:00 AM 9.39 48.902 0.089 6.18 2.44 10.98
5/9/2023 6:15:00 AM 9.38 48.884 0.089 6.19 2.4 10.99
5/9/2023 6:30:00 AM 9.36 48.848 0.089 6.19 1.95 11
5/9/2023 6:45:00 AM 9.35 48.83 0.089 6.18 1.82 11
5/9/2023 7:00:00 AM 9.34 48.812 0.089 6.18 1.88 11.01
5/9/2023 7:15:00 AM 9.34 48.812 0.089 6.2 1.83 11.01
5/9/2023 7:30:00 AM 9.34 48.812 0.089 6.2 1.94 11.01
5/9/2023 7:45:00 AM 9.35 48.83 0.089 6.2 1.95 11.01
5/9/2023 8:00:00 AM 9.36 48.848 0.089 6.21 1.85 11.02
5/9/2023 8:15:00 AM 9.38 48.884 0.089 6.23 1.95 11.02
5/9/2023 8:30:00 AM 9.39 48.902 0.089 6.25 1.81 11.02
5/9/2023 8:45:00 AM 9.41 48.938 0.089 6.26 1.79 11.01
5/9/2023 9:00:00 AM 9.44 48.992 0.089 6.27 1.79 11.01
5/9/2023 9:15:00 AM 9.47 49.046 0.089 6.28 1.93 11.01
5/9/2023 9:30:00 AM 9.49 49.082 0.089 6.27 1.83 11
5/9/2023 9:45:00 AM 9.55 49.19 0.089 6.29 1.99 10.99
5/9/2023 10:00:00 AM 9.6 49.28 0.089 6.3 1.75 10.98
5/9/2023 10:15:00 AM 9.63 49.334 0.089 6.3 1.78 10.97
5/9/2023 10:30:00 AM 9.72 49.496 0.089 6.31 1.84 10.96
5/9/2023 10:45:00 AM 9.88 49.784 0.089 6.35 1.94 10.91
5/9/2023 11:00:00 AM 10.03 50.054 0.089 6.36 2.04 10.88
5/9/2023 11:15:00 AM 10.18 50.324 0.089 6.37 1.98 10.84
5/9/2023 11:30:00 AM 10.32 50.576 0.089 6.37 1.84 10.8
5/9/2023 11:45:00 AM 10.49 50.882 0.089 6.38 1.79 10.76
5/9/2023 12:00:00 PM 10.66 51.188 0.089 6.38 1.89 10.72
5/9/2023 12:15:00 PM 10.82 51.476 0.089 6.39 1.85 10.67
5/9/2023 12:30:00 PM 10.97 51.746 0.089 6.39 1.84 10.64
5/9/2023 12:45:00 PM 11.1 51.98 0.089 6.39 1.98 10.6
5/9/2023 1:00:00 PM 11.2 52.16 0.089 6.38 1.89 10.57
5/9/2023 1:15:00 PM 11.3 52.34 0.089 6.38 1.84 10.55
5/9/2023 1:30:00 PM 11.38 52.484 0.089 6.38 1.9 10.52
5/9/2023 1:45:00 PM 11.45 52.61 0.089 6.37 2.05 10.5
5/9/2023 2:00:00 PM 11.51 52.718 0.089 6.36 1.99 10.49
5/9/2023 2:15:00 PM 11.56 52.808 0.089 6.35 1.91 10.48
5/9/2023 2:30:00 PM 11.6 52.88 0.089 6.35 2.16 10.47
5/9/2023 2:45:00 PM 11.63 52.934 0.089 6.34 2.11 10.46
5/9/2023 3:00:00 PM 11.65 52.97 0.089 6.33 2.01 10.45
5/9/2023 3:15:00 PM 11.68 53.024 0.089 6.32 2.01 10.44
5/9/2023 3:30:00 PM 11.69 53.042 0.089 6.32 1.99 10.44
5/9/2023 3:45:00 PM 11.69 53.042 0.089 6.3 2.05 10.44
5/9/2023 4:00:00 PM 11.68 53.024 0.089 6.29 1.97 10.43
5/9/2023 4:15:00 PM 11.64 52.952 0.089 6.28 2.04 10.44
5/9/2023 4:30:00 PM 11.62 52.916 0.089 6.27 1.9 10.45
5/9/2023 4:45:00 PM 11.57 52.826 0.089 6.27 2.02 10.46
5/9/2023 5:00:00 PM 11.53 52.754 0.089 6.24 2.01 10.47
5/9/2023 5:15:00 PM 11.5 52.7 0.089 6.25 1.95 10.48
5/9/2023 5:30:00 PM 11.45 52.61 0.089 6.24 2.1 10.49
5/9/2023 5:45:00 PM 11.39 52.502 0.089 6.22 2.07 10.5
5/9/2023 6:00:00 PM 11.32 52.376 0.089 6.22 2.04 10.52
5/9/2023 6:15:00 PM 11.24 52.232 0.089 6.19 2.12 10.54
5/9/2023 6:30:00 PM 11.16 52.088 0.089 6.19 2.07 10.56
5/9/2023 6:45:00 PM 11.07 51.926 0.089 6.19 2.48 10.58
5/9/2023 7:00:00 PM 10.98 51.764 0.089 6.17 1.93 10.6
5/9/2023 7:15:00 PM 10.9 51.62 0.089 6.15 2.03 10.63
5/9/2023 7:30:00 PM 10.8 51.44 0.089 6.14 2.12 10.65
5/9/2023 7:45:00 PM 10.73 51.314 0.089 6.13 2.24 10.67
5/9/2023 8:00:00 PM 10.64 51.152 0.089 6.14 1.98 10.7
5/9/2023 8:15:00 PM 10.56 51.008 0.089 6.12 2.04 10.72
5/9/2023 8:30:00 PM 10.48 50.864 0.089 6.13 2.1 10.74
5/9/2023 8:45:00 PM 10.41 50.738 0.089 6.12 2.28 10.76
5/9/2023 9:00:00 PM 10.33 50.594 0.089 6.12 2.17 10.78
5/9/2023 9:15:00 PM 10.26 50.468 0.089 6.12 2.15 10.8
5/9/2023 9:30:00 PM 10.19 50.342 0.089 6.11 2.04 10.82
5/9/2023 9:45:00 PM 10.13 50.234 0.089 6.11 1.95 10.84
5/9/2023 10:00:00 PM 10.06 50.108 0.089 6.12 1.98 10.86
5/9/2023 10:15:00 PM 9.99 49.982 0.089 6.12 1.96 10.88
5/9/2023 10:30:00 PM 9.92 49.856 0.089 6.11 2.18 10.9
5/9/2023 10:45:00 PM 9.86 49.748 0.089 6.13 2.1 10.91
5/9/2023 11:00:00 PM 9.79 49.622 0.089 6.12 2.14 10.93
5/9/2023 11:15:00 PM 9.72 49.496 0.089 6.1 2.01 10.95
5/9/2023 11:30:00 PM 9.65 49.37 0.089 6.11 1.95 10.97
5/9/2023 11:45:00 PM 9.58 49.244 0.089 6.11 2.28 10.99
5/10/2023 12:00:00 AM 9.52 49.136 0.089 6.13 2.34 11.01
5/10/2023 12:15:00 AM 9.45 49.01 0.089 6.12 2.08 11.03
5/10/2023 12:30:00 AM 9.39 48.902 0.089 6.13 1.97 11.05
5/10/2023 12:45:00 AM 9.32 48.776 0.089 6.13 1.84 11.07
5/10/2023 1:00:00 AM 9.26 48.668 0.089 6.13 1.86 11.08
5/10/2023 1:15:00 AM 9.19 48.542 0.089 6.12 1.8 11.1
5/10/2023 1:30:00 AM 9.13 48.434 0.089 6.15 2.31 11.12
5/10/2023 1:45:00 AM 9.07 48.326 0.089 6.18 2.06 11.13
5/10/2023 2:00:00 AM 9.01 48.218 0.089 6.17 1.92 11.15
5/10/2023 2:15:00 AM 8.96 48.128 0.089 6.18 1.93 11.16
5/10/2023 2:30:00 AM 8.9 48.02 0.089 6.18 1.74 11.18
5/10/2023 2:45:00 AM 8.84 47.912 0.089 6.18 1.71 11.2
5/10/2023 3:00:00 AM 8.79 47.822 0.089 6.19 1.72 11.21
5/10/2023 3:15:00 AM 8.73 47.714 0.089 6.18 1.75 11.23
5/10/2023 3:30:00 AM 8.68 47.624 0.089 6.18 1.73 11.25
5/10/2023 3:45:00 AM 8.63 47.534 0.089 6.17 2.02 11.26
5/10/2023 4:00:00 AM 8.58 47.444 0.089 6.19 1.84 11.28
5/10/2023 4:15:00 AM 8.53 47.354 0.089 6.2 1.79 11.29
5/10/2023 4:30:00 AM 8.48 47.264 0.089 6.22 1.76 11.31
5/10/2023 4:45:00 AM 8.43 47.174 0.089 6.23 1.74 11.32
5/10/2023 5:00:00 AM 8.39 47.102 0.089 6.22 1.93 11.34
5/10/2023 5:15:00 AM 8.34 47.012 0.089 6.21 2.3 11.35
5/10/2023 5:30:00 AM 8.3 46.94 0.089 6.18 1.68 11.36
5/10/2023 5:45:00 AM 8.25 46.85 0.089 6.18 1.72 11.38
5/10/2023 6:00:00 AM 8.21 46.778 0.089 6.18 1.72 11.39
5/10/2023 6:15:00 AM 8.17 46.706 0.089 6.19 2.18 11.4
5/10/2023 6:30:00 AM 8.13 46.634 0.089 6.18 1.67 11.41
5/10/2023 6:45:00 AM 8.1 46.58 0.089 6.19 1.6 11.43
5/10/2023 7:00:00 AM 8.08 46.544 0.089 6.18 1.55 11.44
5/10/2023 7:15:00 AM 8.06 46.508 0.089 6.21 1.68 11.45
5/10/2023 7:30:00 AM 8.07 46.526 0.089 6.22 1.65 11.45
5/10/2023 7:45:00 AM 8.1 46.58 0.089 6.25 1.42 11.45
5/10/2023 8:00:00 AM 8.14 46.652 0.089 6.25 1.46 11.45
5/10/2023 8:15:00 AM 8.2 46.76 0.089 6.26 1.51 11.43
5/10/2023 8:30:00 AM 8.29 46.922 0.089 6.29 1.52 11.41
5/10/2023 8:45:00 AM 8.37 47.066 0.089 6.29 1.43 11.39
5/10/2023 9:00:00 AM 8.47 47.246 0.089 6.31 1.53 11.37
5/10/2023 9:15:00 AM 8.56 47.408 0.089 6.32 1.52 11.34
5/10/2023 9:30:00 AM 8.67 47.606 0.089 6.34 1.65 11.31
5/10/2023 9:45:00 AM 8.79 47.822 0.089 6.34 1.49 11.28
5/10/2023 10:00:00 AM 8.91 48.038 0.089 6.36 1.55 11.25
5/10/2023 10:15:00 AM 9.05 48.29 0.089 6.36 1.53 11.21
5/10/2023 10:30:00 AM 9.19 48.542 0.089 6.37 1.59 11.18
5/10/2023 10:45:00 AM 9.34 48.812 0.089 6.36 1.55 11.14
5/10/2023 11:00:00 AM 9.49 49.082 0.089 6.38 1.64 11.1
5/10/2023 11:15:00 AM 9.64 49.352 0.089 6.37 1.6 11.06
5/10/2023 11:30:00 AM 9.82 49.676 0.089 6.39 1.68 11.01
5/10/2023 11:45:00 AM 10.01 50.018 0.089 6.39 1.62 10.96
5/10/2023 12:00:00 PM 10.19 50.342 0.089 6.4 1.56 10.91
5/10/2023 12:15:00 PM 10.38 50.684 0.089 6.4 1.83 10.86
5/10/2023 12:30:00 PM 10.54 50.972 0.089 6.4 1.82 10.81
5/10/2023 12:45:00 PM 10.69 51.242 0.089 6.4 1.69 10.77
5/10/2023 1:00:00 PM 10.82 51.476 0.089 6.39 1.66 10.74
5/10/2023 1:15:00 PM 10.93 51.674 0.089 6.39 1.64 10.7
5/10/2023 1:30:00 PM 11.03 51.854 0.089 6.39 1.63 10.68
5/10/2023 1:45:00 PM 11.11 51.998 0.089 6.38 1.64 10.65
5/10/2023 2:00:00 PM 11.18 52.124 0.089 6.38 1.67 10.63
5/10/2023 2:15:00 PM 11.24 52.232 0.089 6.37 1.89 10.61
5/10/2023 2:30:00 PM 11.29 52.322 0.089 6.37 1.75 10.6
5/10/2023 2:45:00 PM 11.32 52.376 0.089 6.36 1.79 10.59
5/10/2023 3:00:00 PM 11.35 52.43 0.089 6.35 1.77 10.58
5/10/2023 3:15:00 PM 11.37 52.466 0.089 6.33 1.72 10.57
5/10/2023 3:30:00 PM 11.4 52.52 0.089 6.32 1.84 10.56
5/10/2023 3:45:00 PM 11.42 52.556 0.089 6.31 1.91 10.55
5/10/2023 4:00:00 PM 11.42 52.556 0.089 6.31 1.94 10.55
5/10/2023 4:15:00 PM 11.42 52.556 0.089 6.29 1.73 10.55
5/10/2023 4:30:00 PM 11.41 52.538 0.089 6.29 1.87 10.55
5/10/2023 4:45:00 PM 11.38 52.484 0.089 6.27 1.98 10.56
5/10/2023 5:00:00 PM 11.33 52.394 0.089 6.26 1.94 10.56
5/10/2023 5:15:00 PM 11.3 52.34 0.089 6.25 1.82 10.58
5/10/2023 5:30:00 PM 11.26 52.268 0.089 6.23 1.83 10.58
5/10/2023 5:45:00 PM 11.19 52.142 0.089 6.23 1.9 10.6
5/10/2023 6:00:00 PM 11.13 52.034 0.089 6.21 1.88 10.61
5/10/2023 6:15:00 PM 11.08 51.944 0.089 6.2 1.9 10.62
5/10/2023 6:30:00 PM 11.02 51.836 0.089 6.21 1.81 10.64
5/10/2023 6:45:00 PM 10.96 51.728 0.089 6.2 1.9 10.65
5/10/2023 7:00:00 PM 10.89 51.602 0.089 6.18 2.01 10.66
5/10/2023 7:15:00 PM 10.82 51.476 0.089 6.18 1.85 10.68
5/10/2023 7:30:00 PM 10.75 51.35 0.089 6.16 1.88 10.7
5/10/2023 7:45:00 PM 10.68 51.224 0.09 6.15 1.98 10.71
5/10/2023 8:00:00 PM 10.61 51.098 0.09 6.14 2.06 10.73
5/10/2023 8:15:00 PM 10.54 50.972 0.09 6.16 1.86 10.75
5/10/2023 8:30:00 PM 10.47 50.846 0.09 6.15 1.81 10.76
5/10/2023 8:45:00 PM 10.4 50.72 0.09 6.16 1.82 10.78
5/10/2023 9:00:00 PM 10.33 50.594 0.09 6.17 1.81 10.8
5/10/2023 9:15:00 PM 10.26 50.468 0.09 6.17 1.88 10.82
5/10/2023 9:30:00 PM 10.18 50.324 0.09 6.16 1.89 10.84
5/10/2023 9:45:00 PM 10.12 50.216 0.09 6.15 1.83 10.85
5/10/2023 10:00:00 PM 10.06 50.108 0.09 6.15 1.88 10.87
5/10/2023 10:15:00 PM 10 50 0.09 6.13 1.77 10.89
5/10/2023 10:30:00 PM 9.94 49.892 0.09 6.12 1.73 10.91
5/10/2023 10:45:00 PM 9.89 49.802 0.09 6.13 1.96 10.92
5/10/2023 11:00:00 PM 9.83 49.694 0.09 6.13 1.76 10.93
5/10/2023 11:15:00 PM 9.78 49.604 0.09 6.14 1.68 10.95
5/10/2023 11:30:00 PM 9.73 49.514 0.09 6.14 1.73 10.97
5/10/2023 11:45:00 PM 9.68 49.424 0.09 6.15 1.8 10.98
5/11/2023 12:00:00 AM 9.63 49.334 0.09 6.14 1.65 10.99
5/11/2023 12:15:00 AM 9.58 49.244 0.09 6.15 1.66 11.01
5/11/2023 12:30:00 AM 9.53 49.154 0.09 6.15 1.71 11.02
5/11/2023 12:45:00 AM 9.48 49.064 0.09 6.15 1.6 11.03
5/11/2023 1:00:00 AM 9.43 48.974 0.09 6.15 1.75 11.04
5/11/2023 1:15:00 AM 9.38 48.884 0.09 6.16 1.63 11.06
5/11/2023 1:30:00 AM 9.33 48.794 0.09 6.16 1.56 11.07
5/11/2023 1:45:00 AM 9.28 48.704 0.09 6.17 1.67 11.08
5/11/2023 2:00:00 AM 9.22 48.596 0.09 6.15 1.62 11.1
5/11/2023 2:15:00 AM 9.17 48.506 0.09 6.16 1.62 11.11
5/11/2023 2:30:00 AM 9.12 48.416 0.09 6.17 1.59 11.12
5/11/2023 2:45:00 AM 9.07 48.326 0.09 6.18 1.54 11.14
5/11/2023 3:00:00 AM 9.02 48.236 0.09 6.16 1.59 11.15
5/11/2023 3:15:00 AM 8.98 48.164 0.09 6.17 1.48 11.16
5/11/2023 3:30:00 AM 8.93 48.074 0.09 6.17 1.58 11.17
5/11/2023 3:45:00 AM 8.88 47.984 0.09 6.17 1.57 11.18
5/11/2023 4:00:00 AM 8.84 47.912 0.09 6.17 1.48 11.19
5/11/2023 4:15:00 AM 8.79 47.822 0.09 6.17 1.54 11.21
5/11/2023 4:30:00 AM 8.75 47.75 0.09 6.17 1.51 11.22
5/11/2023 4:45:00 AM 8.71 47.678 0.09 6.16 1.57 11.23
5/11/2023 5:00:00 AM 8.66 47.588 0.09 6.17 1.55 11.24
5/11/2023 5:15:00 AM 8.62 47.516 0.09 6.18 1.67 11.26
5/11/2023 5:30:00 AM 8.58 47.444 0.09 6.18 1.5 11.27
5/11/2023 5:45:00 AM 8.54 47.372 0.09 6.18 1.65 11.28
5/11/2023 6:00:00 AM 8.5 47.3 0.09 6.19 1.57 11.29
5/11/2023 6:15:00 AM 8.46 47.228 0.09 6.18 1.46 11.31
5/11/2023 6:30:00 AM 8.43 47.174 0.09 6.2 1.58 11.32
5/11/2023 6:45:00 AM 8.4 47.12 0.09 6.19 1.56 11.34
5/11/2023 7:00:00 AM 8.38 47.084 0.09 6.2 1.5 11.35
5/11/2023 7:15:00 AM 8.37 47.066 0.09 6.2 1.54 11.36
5/11/2023 7:30:00 AM 8.38 47.084 0.09 6.22 1.49 11.36
5/11/2023 7:45:00 AM 8.41 47.138 0.09 6.25 1.47 11.35
5/11/2023 8:00:00 AM 8.45 47.21 0.09 6.26 1.5 11.35
5/11/2023 8:15:00 AM 8.51 47.318 0.09 6.27 1.5 11.33
5/11/2023 8:30:00 AM 8.59 47.462 0.09 6.31 1.48 11.31
5/11/2023 8:45:00 AM 8.69 47.642 0.09 6.31 1.5 11.29
5/11/2023 9:00:00 AM 8.79 47.822 0.09 6.32 1.45 11.26
5/11/2023 9:15:00 AM 8.92 48.056 0.09 6.33 1.43 11.23
5/11/2023 9:30:00 AM 9.05 48.29 0.09 6.34 1.46 11.2
5/11/2023 9:45:00 AM 9.2 48.56 0.09 6.36 1.5 11.16
5/11/2023 10:00:00 AM 9.34 48.812 0.09 6.39 1.48 11.12
5/11/2023 10:15:00 AM 9.49 49.082 0.09 6.38 1.49 11.09
5/11/2023 10:30:00 AM 9.67 49.406 0.09 6.38 1.63 11.04
5/11/2023 10:45:00 AM 9.84 49.712 0.09 6.39 1.62 10.99
5/11/2023 11:00:00 AM 10.02 50.036 0.09 6.39 1.55 10.95
5/11/2023 11:15:00 AM 10.18 50.324 0.09 6.4 1.61 10.9
5/11/2023 11:30:00 AM 10.35 50.63 0.09 6.41 1.59 10.86
5/11/2023 11:45:00 AM 10.54 50.972 0.09 6.41 1.55 10.81
5/11/2023 12:00:00 PM 10.74 51.332 0.09 6.41 1.75 10.76
5/11/2023 12:15:00 PM 10.93 51.674 0.09 6.42 1.65 10.71
5/11/2023 12:30:00 PM 11.11 51.998 0.09 6.41 1.56 10.66
5/11/2023 12:45:00 PM 11.25 52.25 0.09 6.42 1.69 10.62
5/11/2023 1:00:00 PM 11.4 52.52 0.09 6.41 1.69 10.58
5/11/2023 1:15:00 PM 11.54 52.772 0.09 6.41 1.58 10.55
5/11/2023 1:30:00 PM 11.67 53.006 0.09 6.4 1.68 10.51
5/11/2023 1:45:00 PM 11.76 53.168 0.09 6.41 1.72 10.49
5/11/2023 2:00:00 PM 11.83 53.294 0.09 6.4 1.72 10.47
5/11/2023 2:15:00 PM 11.9 53.42 0.09 6.39 1.69 10.45
5/11/2023 2:30:00 PM 11.95 53.51 0.09 6.38 1.78 10.44
5/11/2023 2:45:00 PM 11.98 53.564 0.09 6.37 1.81 10.42
5/11/2023 3:00:00 PM 12.02 53.636 0.09 6.35 1.74 10.41
5/11/2023 3:15:00 PM 12.05 53.69 0.09 6.35 1.83 10.4
5/11/2023 3:30:00 PM 12.09 53.762 0.09 6.35 1.72 10.39
5/11/2023 3:45:00 PM 12.12 53.816 0.09 6.33 1.86 10.38
5/11/2023 4:00:00 PM 12.14 53.852 0.09 6.34 1.78 10.37
5/11/2023 4:15:00 PM 12.12 53.816 0.09 6.33 1.87 10.37
5/11/2023 4:30:00 PM 12.12 53.816 0.09 6.32 1.77 10.38
5/11/2023 4:45:00 PM 12.1 53.78 0.09 6.32 1.8 10.37
5/11/2023 5:00:00 PM 12.08 53.744 0.09 6.29 1.83 10.38
5/11/2023 5:15:00 PM 12.02 53.636 0.09 6.29 1.8 10.39
5/11/2023 5:30:00 PM 11.96 53.528 0.09 6.28 1.79 10.4
5/11/2023 5:45:00 PM 11.9 53.42 0.091 6.24 1.91 10.42
5/11/2023 6:00:00 PM 11.83 53.294 0.091 6.24 1.84 10.43
5/11/2023 6:15:00 PM 11.78 53.204 0.091 6.2 1.96 10.44
5/11/2023 6:30:00 PM 11.74 53.132 0.091 6.2 1.89 10.44
5/11/2023 6:45:00 PM 11.69 53.042 0.091 6.2 1.81 10.45
5/11/2023 7:00:00 PM 11.64 52.952 0.091 6.16 1.81 10.46
5/11/2023 7:15:00 PM 11.58 52.844 0.091 6.16 2.09 10.48
5/11/2023 7:30:00 PM 11.5 52.7 0.091 6.15 1.89 10.49
5/11/2023 7:45:00 PM 11.43 52.574 0.091 6.15 1.95 10.51
5/11/2023 8:00:00 PM 11.35 52.43 0.091 6.14 1.84 10.53
5/11/2023 8:15:00 PM 11.27 52.286 0.091 6.12 1.79 10.54
5/11/2023 8:30:00 PM 11.2 52.16 0.091 6.14 1.82 10.56
5/11/2023 8:45:00 PM 11.13 52.034 0.091 6.11 1.98 10.58
5/11/2023 9:00:00 PM 11.06 51.908 0.091 6.11 1.84 10.61
5/11/2023 9:15:00 PM 10.99 51.782 0.091 6.1 1.85 10.62
5/11/2023 9:30:00 PM 10.92 51.656 0.091 6.08 1.88 10.64
5/11/2023 9:45:00 PM 10.86 51.548 0.091 6.11 1.93 10.66
5/11/2023 10:00:00 PM 10.81 51.458 0.091 6.09 1.95 10.67
5/11/2023 10:15:00 PM 10.76 51.368 0.091 6.1 1.68 10.68
5/11/2023 10:30:00 PM 10.71 51.278 0.091 6.11 1.77 10.7
5/11/2023 10:45:00 PM 10.66 51.188 0.091 6.09 1.82 10.71
5/11/2023 11:00:00 PM 10.6 51.08 0.091 6.11 1.73 10.72
5/11/2023 11:15:00 PM 10.55 50.99 0.091 6.11 1.8 10.74
5/11/2023 11:30:00 PM 10.51 50.918 0.091 6.13 1.81 10.75
5/11/2023 11:45:00 PM 10.46 50.828 0.091 6.12 1.8 10.76
5/12/2023 12:00:00 AM 10.41 50.738 0.091 6.14 1.68 10.77
5/12/2023 12:15:00 AM 10.37 50.666 0.091 6.12 1.75 10.78
5/12/2023 12:30:00 AM 10.33 50.594 0.091 6.14 1.71 10.79
5/12/2023 12:45:00 AM 10.28 50.504 0.091 6.13 1.7 10.8
5/12/2023 1:00:00 AM 10.24 50.432 0.091 6.14 1.64 10.81
5/12/2023 1:15:00 AM 10.2 50.36 0.091 6.13 1.77 10.82
5/12/2023 1:30:00 AM 10.16 50.288 0.091 6.15 1.63 10.83
5/12/2023 1:45:00 AM 10.12 50.216 0.091 6.16 1.73 10.84
5/12/2023 2:00:00 AM 10.08 50.144 0.091 6.15 1.62 10.85
5/12/2023 2:15:00 AM 10.03 50.054 0.091 6.15 1.69 10.86
5/12/2023 2:30:00 AM 9.99 49.982 0.091 6.15 1.72 10.87
5/12/2023 2:45:00 AM 9.96 49.928 0.091 6.15 1.65 10.88
5/12/2023 3:00:00 AM 9.92 49.856 0.091 6.16 1.69 10.89
5/12/2023 3:15:00 AM 9.88 49.784 0.091 6.16 1.66 10.9
5/12/2023 3:30:00 AM 9.84 49.712 0.091 6.17 1.66 10.91
5/12/2023 3:45:00 AM 9.8 49.64 0.091 6.16 1.67 10.92
5/12/2023 4:00:00 AM 9.77 49.586 0.091 6.16 1.69 10.93
5/12/2023 4:15:00 AM 9.73 49.514 0.091 6.15 1.52 10.94
5/12/2023 4:30:00 AM 9.7 49.46 0.091 6.15 1.75 10.95
5/12/2023 4:45:00 AM 9.66 49.388 0.091 6.15 1.74 10.96
5/12/2023 5:00:00 AM 9.63 49.334 0.091 6.17 1.7 10.97
5/12/2023 5:15:00 AM 9.59 49.262 0.091 6.16 1.58 10.98
5/12/2023 5:30:00 AM 9.55 49.19 0.091 6.17 1.54 10.99
5/12/2023 5:45:00 AM 9.52 49.136 0.091 6.17 1.56 11
5/12/2023 6:00:00 AM 9.49 49.082 0.091 6.18 1.51 11.01
5/12/2023 6:15:00 AM 9.46 49.028 0.091 6.18 1.59 11.02
5/12/2023 6:30:00 AM 9.43 48.974 0.091 6.2 1.68 11.03
5/12/2023 6:45:00 AM 9.41 48.938 0.091 6.19 1.54 11.04
5/12/2023 7:00:00 AM 9.41 48.938 0.091 6.21 1.6 11.05
5/12/2023 7:15:00 AM 9.42 48.956 0.091 6.21 1.61 11.05
5/12/2023 7:30:00 AM 9.44 48.992 0.091 6.24 1.54 11.05
5/12/2023 7:45:00 AM 9.47 49.046 0.091 6.25 1.59 11.05
5/12/2023 8:00:00 AM 9.51 49.118 0.091 6.26 1.52 11.04
5/12/2023 8:15:00 AM 9.55 49.19 0.091 6.26 1.62 11.03
5/12/2023 8:30:00 AM 9.61 49.298 0.091 6.26 1.58 11.02
5/12/2023 8:45:00 AM 9.69 49.442 0.091 6.29 1.53 11
5/12/2023 9:00:00 AM 9.79 49.622 0.091 6.31 1.55 10.98
5/12/2023 9:15:00 AM 9.91 49.838 0.091 6.33 1.62 10.95
5/12/2023 9:30:00 AM 10.03 50.054 0.091 6.34 1.51 10.92
5/12/2023 9:45:00 AM 10.17 50.306 0.091 6.37 1.69 10.89
5/12/2023 10:00:00 AM 10.31 50.558 0.091 6.38 1.6 10.86
5/12/2023 10:15:00 AM 10.45 50.81 0.091 6.39 1.56 10.82
5/12/2023 10:30:00 AM 10.62 51.116 0.091 6.4 1.67 10.78
5/12/2023 10:45:00 AM 10.78 51.404 0.091 6.39 1.61 10.74
5/12/2023 11:00:00 AM 10.96 51.728 0.091 6.4 1.68 10.7
5/12/2023 11:15:00 AM 11.14 52.052 0.091 6.4 1.63 10.65
5/12/2023 11:30:00 AM 11.31 52.358 0.091 6.4 1.54 10.61
5/12/2023 11:45:00 AM 11.52 52.736 0.091 6.41 1.63 10.55
5/12/2023 12:00:00 PM 11.73 53.114 0.091 6.42 1.55 10.5
5/12/2023 12:15:00 PM 11.93 53.474 0.091 6.43 1.59 10.45
5/12/2023 12:30:00 PM 12.12 53.816 0.091 6.43 1.57 10.4
5/12/2023 12:45:00 PM 12.3 54.14 0.091 6.43 1.73 10.36
5/12/2023 1:00:00 PM 12.44 54.392 0.091 6.42 1.72 10.32
5/12/2023 1:15:00 PM 12.55 54.59 0.091 6.41 1.67 10.29
5/12/2023 1:30:00 PM 12.65 54.77 0.091 6.41 1.72 10.27
5/12/2023 1:45:00 PM 12.73 54.914 0.091 6.4 1.77 10.25
5/12/2023 2:00:00 PM 12.77 54.986 0.091 6.4 1.73 10.24
5/12/2023 2:15:00 PM 12.76 54.968 0.091 6.37 1.79 10.23
5/12/2023 2:30:00 PM 12.78 55.004 0.091 6.36 1.7 10.23
5/12/2023 2:45:00 PM 12.78 55.004 0.091 6.34 1.68 10.23
5/12/2023 3:00:00 PM 12.77 54.986 0.091 6.33 1.73 10.23
5/12/2023 3:15:00 PM 12.75 54.95 0.091 6.32 1.8 10.23
5/12/2023 3:30:00 PM 12.73 54.914 0.091 6.31 1.81 10.23
5/12/2023 3:45:00 PM 12.7 54.86 0.091 6.29 1.88 10.23
5/12/2023 4:00:00 PM 12.67 54.806 0.091 6.28 1.92 10.24
5/12/2023 4:15:00 PM 12.66 54.788 0.091 6.27 1.91 10.24
5/12/2023 4:30:00 PM 12.66 54.788 0.092 6.26 1.9 10.24
5/12/2023 4:45:00 PM 12.66 54.788 0.092 6.26 1.86 10.23
5/12/2023 5:00:00 PM 12.67 54.806 0.092 6.26 2.03 10.23
5/12/2023 5:15:00 PM 12.66 54.788 0.092 6.26 1.89 10.23
5/12/2023 5:30:00 PM 12.63 54.734 0.092 6.26 1.87 10.23
5/12/2023 5:45:00 PM 12.6 54.68 0.092 6.25 1.76 10.24
5/12/2023 6:00:00 PM 12.55 54.59 0.092 6.24 1.84 10.25
5/12/2023 6:15:00 PM 12.49 54.482 0.092 6.23 1.97 10.26
5/12/2023 6:30:00 PM 12.43 54.374 0.092 6.22 2 10.27
5/12/2023 6:45:00 PM 12.37 54.266 0.092 6.22 1.91 10.29
5/12/2023 7:00:00 PM 12.31 54.158 0.092 6.22 1.86 10.3
5/12/2023 7:15:00 PM 12.25 54.05 0.092 6.19 1.79 10.31
5/12/2023 7:30:00 PM 12.18 53.924 0.092 6.17 1.79 10.32
5/12/2023 7:45:00 PM 12.12 53.816 0.092 6.16 1.86 10.34
5/12/2023 8:00:00 PM 12.05 53.69 0.092 6.15 1.8 10.35
5/12/2023 8:15:00 PM 11.99 53.582 0.092 6.13 1.8 10.36
5/12/2023 8:30:00 PM 11.93 53.474 0.092 6.12 1.84 10.38
5/12/2023 8:45:00 PM 11.87 53.366 0.092 6.12 1.86 10.39
5/12/2023 9:00:00 PM 11.82 53.276 0.092 6.12 1.94 10.4
5/12/2023 9:15:00 PM 11.77 53.186 0.092 6.12 1.9 10.41
5/12/2023 9:30:00 PM 11.72 53.096 0.092 6.12 1.99 10.42
5/12/2023 9:45:00 PM 11.68 53.024 0.092 6.13 1.84 10.43
5/12/2023 10:00:00 PM 11.64 52.952 0.092 6.13 1.93 10.44
5/12/2023 10:15:00 PM 11.6 52.88 0.092 6.15 1.85 10.45
5/12/2023 10:30:00 PM 11.56 52.808 0.092 6.14 1.71 10.46
5/12/2023 10:45:00 PM 11.52 52.736 0.092 6.16 1.79 10.47
5/12/2023 11:00:00 PM 11.48 52.664 0.092 6.16 1.79 10.48
5/12/2023 11:15:00 PM 11.45 52.61 0.092 6.15 1.75 10.49
5/12/2023 11:30:00 PM 11.42 52.556 0.092 6.15 1.81 10.5
5/12/2023 11:45:00 PM 11.4 52.52 0.092 6.17 1.77 10.5
5/13/2023 12:00:00 AM 11.37 52.466 0.092 6.17 1.8 10.51
5/13/2023 12:15:00 AM 11.35 52.43 0.092 6.17 1.64 10.52
5/13/2023 12:30:00 AM 11.32 52.376 0.092 6.17 1.85 10.52
5/13/2023 12:45:00 AM 11.3 52.34 0.092 6.16 1.78 10.53
5/13/2023 1:00:00 AM 11.27 52.286 0.092 6.18 1.81 10.54
5/13/2023 1:15:00 AM 11.24 52.232 0.092 6.18 1.73 10.54
5/13/2023 1:30:00 AM 11.22 52.196 0.092 6.16 1.64 10.55
5/13/2023 1:45:00 AM 11.19 52.142 0.092 6.17 1.75 10.55
5/13/2023 2:00:00 AM 11.16 52.088 0.092 6.16 1.71 10.56
5/13/2023 2:15:00 AM 11.13 52.034 0.093 6.17 1.75 10.57
5/13/2023 2:30:00 AM 11.1 51.98 0.093 6.18 1.72 10.57
5/13/2023 2:45:00 AM 11.08 51.944 0.093 6.17 1.65 10.58
5/13/2023 3:00:00 AM 11.06 51.908 0.093 6.17 1.65 10.58
5/13/2023 3:15:00 AM 11.04 51.872 0.093 6.18 1.7 10.59
5/13/2023 3:30:00 AM 11.02 51.836 0.093 6.18 1.54 10.59
5/13/2023 3:45:00 AM 11 51.8 0.093 6.19 1.7 10.6
5/13/2023 4:00:00 AM 10.99 51.782 0.093 6.18 1.65 10.6
5/13/2023 4:15:00 AM 10.97 51.746 0.093 6.18 1.63 10.61
5/13/2023 4:30:00 AM 10.96 51.728 0.093 6.18 1.63 10.61
5/13/2023 4:45:00 AM 10.94 51.692 0.093 6.2 1.7 10.62
5/13/2023 5:00:00 AM 10.92 51.656 0.093 6.2 1.61 10.62
5/13/2023 5:15:00 AM 10.91 51.638 0.093 6.19 1.7 10.62
5/13/2023 5:30:00 AM 10.89 51.602 0.093 6.21 1.6 10.63
5/13/2023 5:45:00 AM 10.87 51.566 0.093 6.18 1.72 10.64
5/13/2023 6:00:00 AM 10.85 51.53 0.093 6.18 1.65 10.64
5/13/2023 6:15:00 AM 10.83 51.494 0.093 6.22 1.83 10.65
5/13/2023 6:30:00 AM 10.82 51.476 0.093 6.2 1.64 10.65
5/13/2023 6:45:00 AM 10.8 51.44 0.093 6.21 1.63 10.66
5/13/2023 7:00:00 AM 10.79 51.422 0.093 6.22 1.68 10.66
5/13/2023 7:15:00 AM 10.78 51.404 0.093 6.21 1.7 10.67
5/13/2023 7:30:00 AM 10.77 51.386 0.093 6.2 1.77 10.68
5/13/2023 7:45:00 AM 10.77 51.386 0.093 6.21 1.71 10.68
5/13/2023 8:00:00 AM 10.77 51.386 0.093 6.21 1.63 10.68
5/13/2023 8:15:00 AM 10.78 51.404 0.093 6.24 1.62 10.69
5/13/2023 8:30:00 AM 10.79 51.422 0.093 6.25 1.64 10.69
5/13/2023 8:45:00 AM 10.8 51.44 0.093 6.26 1.66 10.69
5/13/2023 9:00:00 AM 10.82 51.476 0.093 6.26 1.55 10.68
5/13/2023 9:15:00 AM 10.85 51.53 0.093 6.26 1.66 10.68
5/13/2023 9:30:00 AM 10.88 51.584 0.093 6.27 1.75 10.67
5/13/2023 9:45:00 AM 10.91 51.638 0.093 6.3 1.62 10.67
5/13/2023 10:00:00 AM 10.94 51.692 0.093 6.3 1.73 10.66
5/13/2023 10:15:00 AM 10.97 51.746 0.093 6.3 1.69 10.65
5/13/2023 10:30:00 AM 10.99 51.782 0.093 6.3 1.62 10.65
5/13/2023 10:45:00 AM 11.02 51.836 0.093 6.31 1.6 10.64
5/13/2023 11:00:00 AM 11.03 51.854 0.093 6.31 1.74 10.64
5/13/2023 11:15:00 AM 11.04 51.872 0.093 6.31 1.69 10.63
5/13/2023 11:30:00 AM 11.05 51.89 0.093 6.3 1.71 10.63
5/13/2023 11:45:00 AM 11.04 51.872 0.093 6.3 1.65 10.63
5/13/2023 12:00:00 PM 11.05 51.89 0.093 6.28 1.64 10.63
5/13/2023 12:15:00 PM 11.05 51.89 0.093 6.29 1.71 10.63
5/13/2023 12:30:00 PM 11.05 51.89 0.093 6.27 1.8 10.63
5/13/2023 12:45:00 PM 11.06 51.908 0.093 6.29 1.92 10.63
5/13/2023 1:00:00 PM 11.08 51.944 0.093 6.3 1.62 10.63
5/13/2023 1:15:00 PM 11.11 51.998 0.093 6.31 1.57 10.62
5/13/2023 1:30:00 PM 11.13 52.034 0.093 6.3 1.57 10.61
5/13/2023 1:45:00 PM 11.16 52.088 0.093 6.31 2.28 10.61
5/13/2023 2:00:00 PM 11.21 52.178 0.093 6.32 1.76 10.6
5/13/2023 2:15:00 PM 11.25 52.25 0.093 6.33 1.88 10.59
5/13/2023 2:30:00 PM 11.29 52.322 0.093 6.33 1.98 10.58
5/13/2023 2:45:00 PM 11.34 52.412 0.093 6.33 1.72 10.57
5/13/2023 3:00:00 PM 11.37 52.466 0.093 6.35 1.74 10.56
5/13/2023 3:15:00 PM 11.42 52.556 0.093 6.34 1.67 10.55
5/13/2023 3:30:00 PM 11.47 52.646 0.093 6.35 1.73 10.54
5/13/2023 3:45:00 PM 11.5 52.7 0.093 6.35 1.84 10.52
5/13/2023 4:00:00 PM 11.55 52.79 0.093 6.35 1.83 10.51
5/13/2023 4:15:00 PM 11.58 52.844 0.093 6.35 1.81 10.5
5/13/2023 4:30:00 PM 11.62 52.916 0.093 6.35 1.69 10.49
5/13/2023 4:45:00 PM 11.64 52.952 0.093 6.33 1.71 10.48
5/13/2023 5:00:00 PM 11.65 52.97 0.093 6.34 1.84 10.48
5/13/2023 5:15:00 PM 11.67 53.006 0.093 6.33 1.71 10.48
5/13/2023 5:30:00 PM 11.67 53.006 0.093 6.33 1.85 10.47
5/13/2023 5:45:00 PM 11.67 53.006 0.093 6.31 1.81 10.47
5/13/2023 6:00:00 PM 11.69 53.042 0.093 6.32 1.81 10.47
5/13/2023 6:15:00 PM 11.69 53.042 0.093 6.32 1.8 10.46
5/13/2023 6:30:00 PM 11.69 53.042 0.093 6.31 1.84 10.46
5/13/2023 6:45:00 PM 11.66 52.988 0.093 6.29 1.72 10.46
5/13/2023 7:00:00 PM 11.63 52.934 0.093 6.29 1.68 10.46
5/13/2023 7:15:00 PM 11.59 52.862 0.093 6.28 1.69 10.46
5/13/2023 7:30:00 PM 11.55 52.79 0.093 6.27 1.79 10.47
5/13/2023 7:45:00 PM 11.5 52.7 0.093 6.26 1.9 10.49
5/13/2023 8:00:00 PM 11.44 52.592 0.093 6.24 1.72 10.51
5/13/2023 8:15:00 PM 11.38 52.484 0.093 6.24 1.66 10.52
5/13/2023 8:30:00 PM 11.33 52.394 0.093 6.21 1.72 10.53
5/13/2023 8:45:00 PM 11.27 52.286 0.093 6.2 1.68 10.55
5/13/2023 9:00:00 PM 11.23 52.214 0.093 6.2 1.74 10.56
5/13/2023 9:15:00 PM 11.18 52.124 0.094 6.2 1.7 10.57
5/13/2023 9:30:00 PM 11.15 52.07 0.094 6.2 1.92 10.59
5/13/2023 9:45:00 PM 11.13 52.034 0.094 6.21 1.75 10.6
5/13/2023 10:00:00 PM 11.11 51.998 0.094 6.21 1.85 10.6
5/13/2023 10:15:00 PM 11.09 51.962 0.094 6.22 1.71 10.61
5/13/2023 10:30:00 PM 11.06 51.908 0.094 6.21 1.71 10.62
5/13/2023 10:45:00 PM 11.04 51.872 0.094 6.22 1.75 10.62
5/13/2023 11:00:00 PM 11.02 51.836 0.094 6.22 1.85 10.63
5/13/2023 11:15:00 PM 10.99 51.782 0.094 6.2 1.67 10.64
5/13/2023 11:30:00 PM 10.96 51.728 0.094 6.21 1.57 10.64
5/13/2023 11:45:00 PM 10.92 51.656 0.094 6.2 1.74 10.66
5/14/2023 12:00:00 AM 10.88 51.584 0.094 6.2 1.57 10.67
5/14/2023 12:15:00 AM 10.83 51.494 0.094 6.19 1.79 10.68
5/14/2023 12:30:00 AM 10.78 51.404 0.094 6.2 1.69 10.69
5/14/2023 12:45:00 AM 10.73 51.314 0.094 6.19 1.73 10.71
5/14/2023 1:00:00 AM 10.68 51.224 0.094 6.2 1.54 10.72
5/14/2023 1:15:00 AM 10.63 51.134 0.094 6.21 1.78 10.73
5/14/2023 1:30:00 AM 10.58 51.044 0.094 6.2 1.69 10.74
5/14/2023 1:45:00 AM 10.53 50.954 0.094 6.2 1.56 10.75
5/14/2023 2:00:00 AM 10.48 50.864 0.094 6.2 1.64 10.77
5/14/2023 2:15:00 AM 10.43 50.774 0.094 6.21 1.63 10.78
5/14/2023 2:30:00 AM 10.38 50.684 0.094 6.21 1.58 10.79
5/14/2023 2:45:00 AM 10.33 50.594 0.094 6.2 1.76 10.81
5/14/2023 3:00:00 AM 10.27 50.486 0.094 6.2 1.53 10.82
5/14/2023 3:15:00 AM 10.21 50.378 0.094 6.21 1.61 10.83
5/14/2023 3:30:00 AM 10.16 50.288 0.094 6.2 1.57 10.85
5/14/2023 3:45:00 AM 10.1 50.18 0.094 6.19 1.71 10.87
5/14/2023 4:00:00 AM 10.04 50.072 0.094 6.19 1.61 10.88
5/14/2023 4:15:00 AM 9.98 49.964 0.094 6.19 1.7 10.9
5/14/2023 4:30:00 AM 9.93 49.874 0.094 6.19 1.59 10.92
5/14/2023 4:45:00 AM 9.87 49.766 0.094 6.21 1.53 10.93
5/14/2023 5:00:00 AM 9.83 49.694 0.094 6.19 1.54 10.94
5/14/2023 5:15:00 AM 9.79 49.622 0.094 6.21 1.58 10.96
5/14/2023 5:30:00 AM 9.75 49.55 0.094 6.21 1.59 10.97
5/14/2023 5:45:00 AM 9.72 49.496 0.094 6.22 1.56 10.98
5/14/2023 6:00:00 AM 9.69 49.442 0.094 6.22 1.67 10.99
5/14/2023 6:15:00 AM 9.66 49.388 0.094 6.22 1.5 11
5/14/2023 6:30:00 AM 9.63 49.334 0.094 6.23 1.56 11.01
5/14/2023 6:45:00 AM 9.61 49.298 0.094 6.24 1.41 11.02
5/14/2023 7:00:00 AM 9.59 49.262 0.094 6.26 1.45 11.03
5/14/2023 7:15:00 AM 9.57 49.226 0.094 6.26 1.46 11.03
5/14/2023 7:30:00 AM 9.56 49.208 0.094 6.26 1.48 11.04
5/14/2023 7:45:00 AM 9.56 49.208 0.094 6.27 1.56 11.05
5/14/2023 8:00:00 AM 9.59 49.262 0.094 6.29 1.43 11.04
5/14/2023 8:15:00 AM 9.63 49.334 0.094 6.31 1.49 11.03
5/14/2023 8:30:00 AM 9.68 49.424 0.094 6.33 1.46 11.03
5/14/2023 8:45:00 AM 9.75 49.55 0.094 6.34 1.56 11.01
5/14/2023 9:00:00 AM 9.83 49.694 0.094 6.36 1.51 11
5/14/2023 9:15:00 AM 9.91 49.838 0.094 6.38 1.48 10.98
5/14/2023 9:30:00 AM 10.02 50.036 0.094 6.39 1.39 10.95
5/14/2023 9:45:00 AM 10.12 50.216 0.094 6.4 1.52 10.93
5/14/2023 10:00:00 AM 10.23 50.414 0.094 6.41 1.54 10.9
5/14/2023 10:15:00 AM 10.34 50.612 0.094 6.41 1.37 10.87
5/14/2023 10:30:00 AM 10.48 50.864 0.094 6.41 1.59 10.84
5/14/2023 10:45:00 AM 10.62 51.116 0.094 6.43 1.41 10.8
5/14/2023 11:00:00 AM 10.76 51.368 0.094 6.44 1.56 10.76
5/14/2023 11:15:00 AM 10.87 51.566 0.094 6.43 1.67 10.73
5/14/2023 11:30:00 AM 10.99 51.782 0.094 6.43 1.6 10.71
5/14/2023 11:45:00 AM 11.19 52.142 0.094 6.44 1.48 10.65
5/14/2023 12:00:00 PM 11.37 52.466 0.094 6.45 1.72 10.61
5/14/2023 12:15:00 PM 11.58 52.844 0.094 6.45 1.6 10.55
5/14/2023 12:30:00 PM 11.77 53.186 0.094 6.46 1.56 10.5
5/14/2023 12:45:00 PM 11.95 53.51 0.094 6.47 1.58 10.46
5/14/2023 1:00:00 PM 12.13 53.834 0.094 6.47 1.49 10.42
5/14/2023 1:15:00 PM 12.25 54.05 0.094 6.47 1.65 10.38
5/14/2023 1:30:00 PM 12.35 54.23 0.094 6.47 1.79 10.36
5/14/2023 1:45:00 PM 12.44 54.392 0.094 6.46 1.67 10.33
5/14/2023 2:00:00 PM 12.49 54.482 0.094 6.45 1.72 10.32
5/14/2023 2:15:00 PM 12.51 54.518 0.094 6.44 1.79 10.31
5/14/2023 2:30:00 PM 12.51 54.518 0.094 6.43 1.59 10.31
5/14/2023 2:45:00 PM 12.52 54.536 0.094 6.42 1.81 10.31
5/14/2023 3:00:00 PM 12.49 54.482 0.094 6.41 1.8 10.32
5/14/2023 3:15:00 PM 12.46 54.428 0.094 6.39 1.63 10.32
5/14/2023 3:30:00 PM 12.43 54.374 0.094 6.38 1.75 10.33
5/14/2023 3:45:00 PM 12.41 54.338 0.094 6.37 1.71 10.34
5/14/2023 4:00:00 PM 12.38 54.284 0.094 6.35 1.59 10.34
5/14/2023 4:15:00 PM 12.32 54.176 0.094 6.34 1.77 10.36
5/14/2023 4:30:00 PM 12.25 54.05 0.095 6.33 1.65 10.37
5/14/2023 4:45:00 PM 12.18 53.924 0.095 6.3 1.69 10.38
5/14/2023 5:00:00 PM 12.14 53.852 0.095 6.3 1.79 10.39
5/14/2023 5:15:00 PM 12.08 53.744 0.095 6.3 1.77 10.4
5/14/2023 5:30:00 PM 12.03 53.654 0.095 6.29 1.66 10.42
5/14/2023 5:45:00 PM 11.97 53.546 0.095 6.28 1.92 10.43
5/14/2023 6:00:00 PM 11.91 53.438 0.095 6.26 2.13 10.44
5/14/2023 6:15:00 PM 11.88 53.384 0.095 6.26 1.78 10.45
5/14/2023 6:30:00 PM 11.82 53.276 0.095 6.26 1.78 10.46
5/14/2023 6:45:00 PM 11.77 53.186 0.095 6.25 1.59 10.47
5/14/2023 7:00:00 PM 11.71 53.078 0.095 6.26 1.61 10.48
5/14/2023 7:15:00 PM 11.63 52.934 0.095 6.24 1.63 10.5
5/14/2023 7:30:00 PM 11.57 52.826 0.095 6.23 1.63 10.52
5/14/2023 7:45:00 PM 11.49 52.682 0.095 6.23 1.56 10.54
5/14/2023 8:00:00 PM 11.42 52.556 0.095 6.23 1.72 10.55
5/14/2023 8:15:00 PM 11.35 52.43 0.095 6.2 1.75 10.57
5/14/2023 8:30:00 PM 11.27 52.286 0.095 6.2 1.67 10.59
5/14/2023 8:45:00 PM 11.21 52.178 0.095 6.2 1.4 10.6
5/14/2023 9:00:00 PM 11.14 52.052 0.095 6.21 1.53 10.62
5/14/2023 9:15:00 PM 11.07 51.926 0.095 6.21 1.68 10.65
5/14/2023 9:30:00 PM 11 51.8 0.095 6.21 1.55 10.66
5/14/2023 9:45:00 PM 10.94 51.692 0.095 6.21 1.62 10.68
5/14/2023 10:00:00 PM 10.87 51.566 0.095 6.21 1.73 10.7
5/14/2023 10:15:00 PM 10.81 51.458 0.095 6.21 1.52 10.72
5/14/2023 10:30:00 PM 10.75 51.35 0.095 6.2 1.57 10.73
5/14/2023 10:45:00 PM 10.69 51.242 0.095 6.21 1.49 10.75
5/14/2023 11:00:00 PM 10.63 51.134 0.095 6.21 1.51 10.76
5/14/2023 11:15:00 PM 10.57 51.026 0.096 6.21 1.72 10.78
5/14/2023 11:30:00 PM 10.52 50.936 0.095 6.22 1.43 10.79
5/14/2023 11:45:00 PM 10.47 50.846 0.095 6.23 1.5 10.81
5/15/2023 12:00:00 AM 10.42 50.756 0.095 6.22 1.5 10.82
5/15/2023 12:15:00 AM 10.36 50.648 0.095 6.23 1.52 10.84
5/15/2023 12:30:00 AM 10.29 50.522 0.095 6.23 1.48 10.85
5/15/2023 12:45:00 AM 10.23 50.414 0.096 6.22 1.55 10.87
5/15/2023 1:00:00 AM 10.17 50.306 0.096 6.22 1.49 10.88
5/15/2023 1:15:00 AM 10.1 50.18 0.096 6.22 1.4 10.9
5/15/2023 1:30:00 AM 10.04 50.072 0.096 6.22 1.49 10.92
5/15/2023 1:45:00 AM 9.97 49.946 0.095 6.22 1.52 10.94
5/15/2023 2:00:00 AM 9.91 49.838 0.095 6.23 1.4 10.95
5/15/2023 2:15:00 AM 9.85 49.73 0.096 6.22 1.42 10.97
5/15/2023 2:30:00 AM 9.79 49.622 0.096 6.23 1.43 10.98
5/15/2023 2:45:00 AM 9.73 49.514 0.096 6.21 1.41 11
5/15/2023 3:00:00 AM 9.67 49.406 0.096 6.22 1.58 11.02
5/15/2023 3:15:00 AM 9.61 49.298 0.096 6.22 1.48 11.03
5/15/2023 3:30:00 AM 9.55 49.19 0.096 6.22 1.56 11.05
5/15/2023 3:45:00 AM 9.49 49.082 0.096 6.23 1.35 11.06
5/15/2023 4:00:00 AM 9.43 48.974 0.096 6.22 1.32 11.08
5/15/2023 4:15:00 AM 9.38 48.884 0.096 6.22 1.41 11.1
5/15/2023 4:30:00 AM 9.33 48.794 0.096 6.22 1.36 11.11
5/15/2023 4:45:00 AM 9.28 48.704 0.096 6.23 1.36 11.12
5/15/2023 5:00:00 AM 9.22 48.596 0.096 6.23 1.39 11.14
5/15/2023 5:15:00 AM 9.16 48.488 0.096 6.23 1.4 11.15
5/15/2023 5:30:00 AM 9.1 48.38 0.096 6.23 1.38 11.16
5/15/2023 5:45:00 AM 9.03 48.254 0.096 6.22 1.35 11.18
5/15/2023 6:00:00 AM 8.96 48.128 0.096 6.23 1.33 11.2
5/15/2023 6:15:00 AM 8.9 48.02 0.096 6.23 1.33 11.22
5/15/2023 6:30:00 AM 8.83 47.894 0.096 6.23 1.43 11.24
5/15/2023 6:45:00 AM 8.78 47.804 0.096 6.22 1.37 11.26
5/15/2023 7:00:00 AM 8.72 47.696 0.096 6.23 1.37 11.27
5/15/2023 7:15:00 AM 8.69 47.642 0.096 6.23 1.32 11.29
5/15/2023 7:30:00 AM 8.67 47.606 0.096 6.24 1.35 11.3
5/15/2023 7:45:00 AM 8.68 47.624 0.096 6.28 1.25 11.3
5/15/2023 8:00:00 AM 8.71 47.678 0.096 6.29 1.22 11.3
5/15/2023 8:15:00 AM 8.75 47.75 0.096 6.3 1.29 11.29
5/15/2023 8:30:00 AM 8.81 47.858 0.096 6.32 1.33 11.27
5/15/2023 8:45:00 AM 8.88 47.984 0.096 6.36 1.37 11.26
5/15/2023 9:00:00 AM 8.96 48.128 0.096 6.37 1.25 11.24
5/15/2023 9:15:00 AM 9.06 48.308 0.096 6.38 1.23 11.22
5/15/2023 9:30:00 AM 9.17 48.506 0.096 6.39 1.2 11.19
5/15/2023 9:45:00 AM 9.29 48.722 0.096 6.41 1.27 11.16
5/15/2023 10:00:00 AM 9.4 48.92 0.096 6.41 1.58 11.13
5/15/2023 10:15:00 AM 9.52 49.136 0.096 6.43 1.38 11.1
5/15/2023 10:30:00 AM 9.65 49.37 0.096 6.43 1.27 11.06
5/15/2023 10:45:00 AM 9.8 49.64 0.096 6.43 1.32 11.02
5/15/2023 11:00:00 AM 9.96 49.928 0.096 6.45 1.39 10.98
5/15/2023 11:15:00 AM 10.12 50.216 0.096 6.45 1.36 10.94
5/15/2023 11:30:00 AM 10.27 50.486 0.096 6.45 1.25 10.9
5/15/2023 11:45:00 AM 10.44 50.792 0.096 6.45 1.26 10.85
5/15/2023 12:00:00 PM 10.63 51.134 0.096 6.46 1.27 10.8
5/15/2023 12:15:00 PM 10.84 51.512 0.096 6.46 1.25 10.74
5/15/2023 12:30:00 PM 11.05 51.89 0.096 6.47 1.34 10.68
5/15/2023 12:45:00 PM 11.25 52.25 0.096 6.47 1.54 10.62
5/15/2023 1:00:00 PM 11.42 52.556 0.096 6.48 1.44 10.58
5/15/2023 1:15:00 PM 11.58 52.844 0.096 6.47 1.57 10.53
5/15/2023 1:30:00 PM 11.72 53.096 0.096 6.48 1.3 10.49
5/15/2023 1:45:00 PM 11.84 53.312 0.096 6.47 1.4 10.46
5/15/2023 2:00:00 PM 11.93 53.474 0.096 6.47 1.43 10.44
5/15/2023 2:15:00 PM 11.99 53.582 0.096 6.46 1.46 10.43
5/15/2023 2:30:00 PM 12.03 53.654 0.096 6.46 1.53 10.41
5/15/2023 2:45:00 PM 12.05 53.69 0.096 6.45 1.55 10.4
5/15/2023 3:00:00 PM 12.05 53.69 0.096 6.44 1.5 10.4
5/15/2023 3:15:00 PM 12.05 53.69 0.096 6.43 1.4 10.39
5/15/2023 3:30:00 PM 12.06 53.708 0.096 6.42 1.48 10.39
5/15/2023 3:45:00 PM 12.05 53.69 0.096 6.41 1.4 10.39
5/15/2023 4:00:00 PM 12.04 53.672 0.096 6.4 1.52 10.38
5/15/2023 4:15:00 PM 12.03 53.654 0.096 6.39 1.44 10.38
5/15/2023 4:30:00 PM 12.01 53.618 0.096 6.39 1.5 10.39
5/15/2023 4:45:00 PM 11.98 53.564 0.096 6.38 1.45 10.39
5/15/2023 5:00:00 PM 11.95 53.51 0.096 6.37 1.49 10.39
5/15/2023 5:15:00 PM 11.91 53.438 0.096 6.35 1.54 10.4
5/15/2023 5:30:00 PM 11.89 53.402 0.096 6.35 1.71 10.4
5/15/2023 5:45:00 PM 11.84 53.312 0.096 6.33 1.53 10.41
5/15/2023 6:00:00 PM 11.8 53.24 0.096 6.33 1.49 10.41
5/15/2023 6:15:00 PM 11.77 53.186 0.096 6.32 1.64 10.41
5/15/2023 6:30:00 PM 11.71 53.078 0.097 6.31 1.39 10.43
5/15/2023 6:45:00 PM 11.65 52.97 0.097 6.3 1.52 10.44
5/15/2023 7:00:00 PM 11.59 52.862 0.097 6.3 1.56 10.45
5/15/2023 7:15:00 PM 11.53 52.754 0.097 6.28 1.51 10.46
5/15/2023 7:30:00 PM 11.47 52.646 0.097 6.28 1.41 10.47
5/15/2023 7:45:00 PM 11.41 52.538 0.097 6.27 1.52 10.49
5/15/2023 8:00:00 PM 11.35 52.43 0.097 6.26 1.5 10.5
5/15/2023 8:15:00 PM 11.28 52.304 0.097 6.24 1.42 10.51
5/15/2023 8:30:00 PM 11.21 52.178 0.097 6.23 1.58 10.53
5/15/2023 8:45:00 PM 11.13 52.034 0.097 6.23 1.48 10.55
5/15/2023 9:00:00 PM 11.04 51.872 0.097 6.23 1.67 10.57
5/15/2023 9:15:00 PM 10.95 51.71 0.097 6.22 1.49 10.59
5/15/2023 9:30:00 PM 10.86 51.548 0.097 6.21 1.58 10.62
5/15/2023 9:45:00 PM 10.78 51.404 0.097 6.21 1.73 10.64
5/15/2023 10:00:00 PM 10.69 51.242 0.097 6.22 1.52 10.66
5/15/2023 10:15:00 PM 10.61 51.098 0.097 6.21 1.52 10.68
5/15/2023 10:30:00 PM 10.53 50.954 0.097 6.2 1.49 10.7
5/15/2023 10:45:00 PM 10.46 50.828 0.097 6.21 1.33 10.72
5/15/2023 11:00:00 PM 10.39 50.702 0.097 6.21 1.47 10.73
5/15/2023 11:15:00 PM 10.32 50.576 0.097 6.2 1.44 10.75
5/15/2023 11:30:00 PM 10.26 50.468 0.097 6.19 1.54 10.76
5/15/2023 11:45:00 PM 10.19 50.342 0.097 6.19 1.54 10.78
5/16/2023 12:00:00 AM 10.13 50.234 0.097 6.2 1.39 10.79
5/16/2023 12:15:00 AM 10.06 50.108 0.097 6.19 1.65 10.81
5/16/2023 12:30:00 AM 9.99 49.982 0.097 6.2 2.13 10.82
5/16/2023 12:45:00 AM 9.93 49.874 0.097 6.21 1.74 10.84
5/16/2023 1:00:00 AM 9.87 49.766 0.097 6.21 1.35 10.85
5/16/2023 1:15:00 AM 9.81 49.658 0.097 6.21 1.39 10.87
5/16/2023 1:30:00 AM 9.75 49.55 0.097 6.22 1.65 10.88
5/16/2023 1:45:00 AM 9.69 49.442 0.097 6.22 2.17 10.89
5/16/2023 2:00:00 AM 9.62 49.316 0.097 6.22 1.67 10.91
5/16/2023 2:15:00 AM 9.56 49.208 0.097 6.22 1.5 10.93
5/16/2023 2:30:00 AM 9.5 49.1 0.097 6.23 2.08 10.94
5/16/2023 2:45:00 AM 9.44 48.992 0.097 6.22 1.54 10.96
5/16/2023 3:00:00 AM 9.38 48.884 0.097 6.22 1.39 10.97
5/16/2023 3:15:00 AM 9.32 48.776 0.097 6.22 1.41 10.99
5/16/2023 3:30:00 AM 9.27 48.686 0.097 6.23 1.39 11
5/16/2023 3:45:00 AM 9.21 48.578 0.097 6.23 1.32 11.01
5/16/2023 4:00:00 AM 9.15 48.47 0.097 6.22 1.28 11.02
5/16/2023 4:15:00 AM 9.1 48.38 0.097 6.22 1.31 11.04
5/16/2023 4:30:00 AM 9.04 48.272 0.097 6.22 1.5 11.05
5/16/2023 4:45:00 AM 8.99 48.182 0.097 6.23 1.34 11.06
5/16/2023 5:00:00 AM 8.93 48.074 0.097 6.23 1.25 11.08
5/16/2023 5:15:00 AM 8.88 47.984 0.097 6.24 1.28 11.09
5/16/2023 5:30:00 AM 8.83 47.894 0.097 6.24 1.26 11.1
5/16/2023 5:45:00 AM 8.78 47.804 0.097 6.24 1.28 11.11
5/16/2023 6:00:00 AM 8.74 47.732 0.097 6.24 1.31 11.12
5/16/2023 6:15:00 AM 8.7 47.66 0.097 6.24 1.25 11.13
5/16/2023 6:30:00 AM 8.66 47.588 0.097 6.24 1.29 11.14
5/16/2023 6:45:00 AM 8.62 47.516 0.097 6.25 1.27 11.15
5/16/2023 7:00:00 AM 8.6 47.48 0.097 6.26 1.36 11.16
5/16/2023 7:15:00 AM 8.58 47.444 0.097 6.26 1.26 11.16
5/16/2023 7:30:00 AM 8.59 47.462 0.097 6.27 1.2 11.17
5/16/2023 7:45:00 AM 8.63 47.534 0.097 6.29 1.25 11.16
5/16/2023 8:00:00 AM 8.69 47.642 0.097 6.32 1.21 11.16
5/16/2023 8:15:00 AM 8.77 47.786 0.097 6.35 1.19 11.13
5/16/2023 8:30:00 AM 8.85 47.93 0.097 6.36 1.3 11.11
5/16/2023 8:45:00 AM 8.95 48.11 0.097 6.38 1.12 11.08
5/16/2023 9:00:00 AM 9.07 48.326 0.097 6.4 1.32 11.05
5/16/2023 9:15:00 AM 9.19 48.542 0.097 6.4 1.34 11.02
5/16/2023 9:30:00 AM 9.31 48.758 0.097 6.41 1.26 10.99
5/16/2023 9:45:00 AM 9.43 48.974 0.097 6.42 1.31 10.96
5/16/2023 10:00:00 AM 9.54 49.172 0.097 6.43 1.29 10.93
5/16/2023 10:15:00 AM 9.66 49.388 0.097 6.43 1.16 10.9
5/16/2023 10:30:00 AM 9.78 49.604 0.097 6.44 1.29 10.87
5/16/2023 10:45:00 AM 9.87 49.766 0.097 6.44 1.21 10.84
5/16/2023 11:00:00 AM 9.96 49.928 0.097 6.43 1.21 10.81
5/16/2023 11:15:00 AM 10.08 50.144 0.097 6.44 1.17 10.78
5/16/2023 11:30:00 AM 10.17 50.306 0.097 6.44 1.32 10.76
5/16/2023 11:45:00 AM 10.29 50.522 0.097 6.44 1.31 10.73
5/16/2023 12:00:00 PM 10.39 50.702 0.097 6.44 1.27 10.7
5/16/2023 12:15:00 PM 10.52 50.936 0.097 6.44 1.26 10.66
5/16/2023 12:30:00 PM 10.64 51.152 0.097 6.45 1.26 10.63
5/16/2023 12:45:00 PM 10.77 51.386 0.097 6.45 1.26 10.59
5/16/2023 1:00:00 PM 10.86 51.548 0.097 6.45 1.32 10.56
5/16/2023 1:15:00 PM 10.96 51.728 0.097 6.45 1.25 10.54
5/16/2023 1:30:00 PM 11.02 51.836 0.097 6.45 1.4 10.52
5/16/2023 1:45:00 PM 11.09 51.962 0.097 6.44 1.28 10.5
5/16/2023 2:00:00 PM 11.13 52.034 0.097 6.43 1.52 10.49
5/16/2023 2:15:00 PM 11.18 52.124 0.097 6.43 1.32 10.47
5/16/2023 2:30:00 PM 11.19 52.142 0.097 6.42 1.32 10.46
5/16/2023 2:45:00 PM 11.21 52.178 0.097 6.42 1.62 10.46
5/16/2023 3:00:00 PM 11.23 52.214 0.097 6.41 1.3 10.45
5/16/2023 3:15:00 PM 11.26 52.268 0.097 6.4 1.3 10.44
5/16/2023 3:30:00 PM 11.27 52.286 0.097 6.39 1.37 10.43
5/16/2023 3:45:00 PM 11.29 52.322 0.097 6.39 1.25 10.43
5/16/2023 4:00:00 PM 11.31 52.358 0.097 6.38 1.45 10.42
5/16/2023 4:15:00 PM 11.32 52.376 0.097 6.38 1.41 10.41
5/16/2023 4:30:00 PM 11.33 52.394 0.097 6.37 1.32 10.4
5/16/2023 4:45:00 PM 11.34 52.412 0.097 6.37 1.32 10.4
5/16/2023 5:00:00 PM 11.33 52.394 0.097 6.36 1.45 10.39
5/16/2023 5:15:00 PM 11.33 52.394 0.097 6.35 1.4 10.39
5/16/2023 5:30:00 PM 11.33 52.394 0.098 6.34 1.46 10.39
5/16/2023 5:45:00 PM 11.3 52.34 0.098 6.34 1.39 10.39
5/16/2023 6:00:00 PM 11.28 52.304 0.098 6.33 1.37 10.4
5/16/2023 6:15:00 PM 11.25 52.25 0.098 6.33 1.44 10.4
5/16/2023 6:30:00 PM 11.22 52.196 0.098 6.32 1.37 10.4
5/16/2023 6:45:00 PM 11.18 52.124 0.098 6.32 1.36 10.41
5/16/2023 7:00:00 PM 11.13 52.034 0.098 6.3 1.52 10.42
5/16/2023 7:15:00 PM 11.08 51.944 0.098 6.31 1.39 10.43
5/16/2023 7:30:00 PM 11.03 51.854 0.098 6.28 1.38 10.44
5/16/2023 7:45:00 PM 10.99 51.782 0.098 6.27 1.38 10.45
5/16/2023 8:00:00 PM 10.95 51.71 0.098 6.26 1.56 10.45
5/16/2023 8:15:00 PM 10.9 51.62 0.098 6.25 1.48 10.46
5/16/2023 8:30:00 PM 10.85 51.53 0.098 6.24 1.33 10.48
5/16/2023 8:45:00 PM 10.79 51.422 0.098 6.23 1.49 10.49
5/16/2023 9:00:00 PM 10.73 51.314 0.098 6.23 1.39 10.51
5/16/2023 9:15:00 PM 10.66 51.188 0.098 6.23 1.44 10.52
5/16/2023 9:30:00 PM 10.6 51.08 0.098 6.21 1.38 10.54
5/16/2023 9:45:00 PM 10.55 50.99 0.098 6.22 1.47 10.55
5/16/2023 10:00:00 PM 10.49 50.882 0.098 6.22 1.44 10.57
5/16/2023 10:15:00 PM 10.44 50.792 0.098 6.21 1.39 10.58
5/16/2023 10:30:00 PM 10.4 50.72 0.098 6.22 1.42 10.59
5/16/2023 10:45:00 PM 10.36 50.648 0.098 6.21 1.34 10.6
5/16/2023 11:00:00 PM 10.32 50.576 0.098 6.22 1.28 10.61
5/16/2023 11:15:00 PM 10.28 50.504 0.098 6.21 1.5 10.62
5/16/2023 11:30:00 PM 10.25 50.45 0.098 6.22 1.51 10.63
5/16/2023 11:45:00 PM 10.21 50.378 0.098 6.22 1.27 10.64
5/17/2023 12:00:00 AM 10.18 50.324 0.098 6.22 1.29 10.65
5/17/2023 12:15:00 AM 10.16 50.288 0.098 6.23 1.33 10.65
5/17/2023 12:30:00 AM 10.16 50.288 0.098 6.25 1.37 10.65
5/17/2023 12:45:00 AM 10.17 50.306 0.098 6.28 1.3 10.65
5/17/2023 1:00:00 AM 10.17 50.306 0.098 6.29 1.33 10.65
5/17/2023 1:15:00 AM 10.17 50.306 0.098 6.29 1.3 10.65
5/17/2023 1:30:00 AM 10.17 50.306 0.098 6.3 1.22 10.65
5/17/2023 1:45:00 AM 10.18 50.324 0.098 6.3 1.38 10.65
5/17/2023 2:00:00 AM 10.18 50.324 0.098 6.29 1.29 10.65
5/17/2023 2:15:00 AM 10.16 50.288 0.098 6.28 1.3 10.65
5/17/2023 2:30:00 AM 10.14 50.252 0.098 6.29 1.24 10.66
5/17/2023 2:45:00 AM 10.12 50.216 0.098 6.28 1.26 10.67
5/17/2023 3:00:00 AM 10.08 50.144 0.098 6.28 1.26 10.68
5/17/2023 3:15:00 AM 10.04 50.072 0.098 6.28 1.25 10.69
5/17/2023 3:30:00 AM 9.99 49.982 0.098 6.28 1.24 10.7
5/17/2023 3:45:00 AM 9.94 49.892 0.098 6.28 1.35 10.72
5/17/2023 4:00:00 AM 9.89 49.802 0.098 6.26 1.21 10.73
5/17/2023 4:15:00 AM 9.84 49.712 0.098 6.26 1.31 10.75
5/17/2023 4:30:00 AM 9.78 49.604 0.098 6.26 1.33 10.77
5/17/2023 4:45:00 AM 9.73 49.514 0.098 6.26 1.27 10.78
5/17/2023 5:00:00 AM 9.69 49.442 0.098 6.25 1.23 10.8
5/17/2023 5:15:00 AM 9.64 49.352 0.098 6.26 1.25 10.81
5/17/2023 5:30:00 AM 9.6 49.28 0.098 6.26 1.19 10.83
5/17/2023 5:45:00 AM 9.56 49.208 0.098 6.27 1.21 10.84
5/17/2023 6:00:00 AM 9.52 49.136 0.098 6.27 1.22 10.85
5/17/2023 6:15:00 AM 9.48 49.064 0.098 6.27 1.27 10.87
5/17/2023 6:30:00 AM 9.45 49.01 0.098 6.27 1.33 10.88
5/17/2023 6:45:00 AM 9.42 48.956 0.098 6.27 1.31 10.89
5/17/2023 7:00:00 AM 9.39 48.902 0.098 6.27 1.22 10.9
5/17/2023 7:15:00 AM 9.37 48.866 0.098 6.29 1.32 10.91
5/17/2023 7:30:00 AM 9.35 48.83 0.098 6.28 1.26 10.92
5/17/2023 7:45:00 AM 9.34 48.812 0.098 6.28 1.23 10.93
5/17/2023 8:00:00 AM 9.33 48.794 0.098 6.28 1.29 10.94
5/17/2023 8:15:00 AM 9.33 48.794 0.098 6.29 1.2 10.95
5/17/2023 8:30:00 AM 9.35 48.83 0.098 6.31 1.25 10.95
5/17/2023 8:45:00 AM 9.37 48.866 0.098 6.31 1.2 10.94
5/17/2023 9:00:00 AM 9.42 48.956 0.098 6.33 1.2 10.93
5/17/2023 9:15:00 AM 9.48 49.064 0.098 6.34 1.22 10.92
5/17/2023 9:30:00 AM 9.56 49.208 0.098 6.37 1.17 10.91
5/17/2023 9:45:00 AM 9.63 49.334 0.098 6.38 1.19 10.89
5/17/2023 10:00:00 AM 9.71 49.478 0.098 6.38 1.19 10.88
5/17/2023 10:15:00 AM 9.78 49.604 0.098 6.39 1.21 10.86
5/17/2023 10:30:00 AM 9.86 49.748 0.098 6.39 1.25 10.84
5/17/2023 10:45:00 AM 9.95 49.91 0.098 6.39 1.14 10.82
5/17/2023 11:00:00 AM 10.05 50.09 0.098 6.4 1.18 10.8
5/17/2023 11:15:00 AM 10.15 50.27 0.098 6.42 1.29 10.77
5/17/2023 11:30:00 AM 10.24 50.432 0.098 6.41 1.29 10.75
5/17/2023 11:45:00 AM 10.35 50.63 0.098 6.42 1.24 10.72
5/17/2023 12:00:00 PM 10.49 50.882 0.098 6.42 1.46 10.69
5/17/2023 12:15:00 PM 10.66 51.188 0.098 6.43 1.4 10.65
5/17/2023 12:30:00 PM 10.83 51.494 0.098 6.44 1.32 10.6
5/17/2023 12:45:00 PM 10.99 51.782 0.098 6.45 1.25 10.56
5/17/2023 1:00:00 PM 11.13 52.034 0.098 6.45 1.27 10.52
5/17/2023 1:15:00 PM 11.26 52.268 0.098 6.45 1.22 10.48
5/17/2023 1:30:00 PM 11.36 52.448 0.098 6.44 1.18 10.46
5/17/2023 1:45:00 PM 11.44 52.592 0.098 6.44 1.33 10.44
5/17/2023 2:00:00 PM 11.5 52.7 0.098 6.44 1.31 10.42
5/17/2023 2:15:00 PM 11.53 52.754 0.098 6.43 1.3 10.41
5/17/2023 2:30:00 PM 11.52 52.736 0.098 6.42 1.33 10.41
5/17/2023 2:45:00 PM 11.49 52.682 0.098 6.4 1.34 10.42
5/17/2023 3:00:00 PM 11.47 52.646 0.098 6.38 1.29 10.43
5/17/2023 3:15:00 PM 11.44 52.592 0.098 6.37 1.36 10.43
5/17/2023 3:30:00 PM 11.41 52.538 0.098 6.37 1.28 10.44
5/17/2023 3:45:00 PM 11.38 52.484 0.098 6.36 1.3 10.45
5/17/2023 4:00:00 PM 11.34 52.412 0.098 6.34 1.51 10.46
5/17/2023 4:15:00 PM 11.3 52.34 0.098 6.33 1.36 10.47
5/17/2023 4:30:00 PM 11.25 52.25 0.098 6.32 1.39 10.48
5/17/2023 4:45:00 PM 11.21 52.178 0.099 6.31 1.41 10.49
5/17/2023 5:00:00 PM 11.15 52.07 0.099 6.31 1.23 10.51
5/17/2023 5:15:00 PM 11.09 51.962 0.099 6.28 1.29 10.53
5/17/2023 5:30:00 PM 11.03 51.854 0.099 6.29 1.39 10.54
5/17/2023 5:45:00 PM 10.96 51.728 0.099 6.28 1.36 10.56
5/17/2023 6:00:00 PM 10.89 51.602 0.099 6.27 1.31 10.58
5/17/2023 6:15:00 PM 10.83 51.494 0.099 6.27 1.3 10.59
5/17/2023 6:30:00 PM 10.77 51.386 0.099 6.26 1.47 10.61
5/17/2023 6:45:00 PM 10.7 51.26 0.099 6.26 1.3 10.62
5/17/2023 7:00:00 PM 10.63 51.134 0.099 6.25 1.3 10.64
5/17/2023 7:15:00 PM 10.57 51.026 0.099 6.25 1.34 10.66
5/17/2023 7:30:00 PM 10.5 50.9 0.099 6.23 1.36 10.67
5/17/2023 7:45:00 PM 10.44 50.792 0.099 6.23 1.39 10.69
5/17/2023 8:00:00 PM 10.37 50.666 0.099 6.23 1.26 10.7
5/17/2023 8:15:00 PM 10.3 50.54 0.099 6.23 1.37 10.72
5/17/2023 8:30:00 PM 10.21 50.378 0.099 6.23 1.35 10.74
5/17/2023 8:45:00 PM 10.12 50.216 0.099 6.21 1.4 10.77
5/17/2023 9:00:00 PM 10.03 50.054 0.099 6.21 1.49 10.8
5/17/2023 9:15:00 PM 9.93 49.874 0.099 6.2 1.42 10.82
5/17/2023 9:30:00 PM 9.84 49.712 0.099 6.21 1.33 10.85
5/17/2023 9:45:00 PM 9.75 49.55 0.099 6.2 1.39 10.88
5/17/2023 10:00:00 PM 9.65 49.37 0.099 6.18 1.4 10.91
5/17/2023 10:15:00 PM 9.56 49.208 0.099 6.17 1.37 10.93
5/17/2023 10:30:00 PM 9.47 49.046 0.099 6.18 1.22 10.96
5/17/2023 10:45:00 PM 9.38 48.884 0.099 6.18 1.37 10.99
5/17/2023 11:00:00 PM 9.3 48.74 0.099 6.17 1.33 11.01
5/17/2023 11:15:00 PM 9.22 48.596 0.099 6.16 1.23 11.04
5/17/2023 11:30:00 PM 9.13 48.434 0.099 6.16 1.29 11.06
5/17/2023 11:45:00 PM 9.05 48.29 0.099 6.19 1.27 11.08
5/18/2023 12:00:00 AM 8.97 48.146 0.1 6.19 1.23 11.1
5/18/2023 12:15:00 AM 8.89 48.002 0.1 6.17 1.26 11.13
5/18/2023 12:30:00 AM 8.81 47.858 0.1 6.17 1.2 11.15
5/18/2023 12:45:00 AM 8.74 47.732 0.1 6.18 1.21 11.17
5/18/2023 1:00:00 AM 8.67 47.606 0.099 6.18 1.36 11.19
5/18/2023 1:15:00 AM 8.61 47.498 0.099 6.19 1.63 11.21
5/18/2023 1:30:00 AM 8.54 47.372 0.099 6.18 1.7 11.23
5/18/2023 1:45:00 AM 8.48 47.264 0.099 6.18 2.13 11.25
5/18/2023 2:00:00 AM 8.42 47.156 0.099 6.19 1.62 11.27
5/18/2023 2:15:00 AM 8.36 47.048 0.099 6.21 1.9 11.29
5/18/2023 2:30:00 AM 8.3 46.94 0.099 6.21 1.46 11.31
5/18/2023 2:45:00 AM 8.25 46.85 0.1 6.21 1.32 11.33
5/18/2023 3:00:00 AM 8.19 46.742 0.1 6.21 1.3 11.34
5/18/2023 3:15:00 AM 8.13 46.634 0.1 6.2 1.34 11.36
5/18/2023 3:30:00 AM 8.07 46.526 0.1 6.22 1.2 11.38
5/18/2023 3:45:00 AM 8.02 46.436 0.099 6.21 1.11 11.4
5/18/2023 4:00:00 AM 7.96 46.328 0.1 6.22 1.15 11.41
5/18/2023 4:15:00 AM 7.9 46.22 0.099 6.22 1.14 11.43
5/18/2023 4:30:00 AM 7.84 46.112 0.099 6.22 1.2 11.44
5/18/2023 4:45:00 AM 7.79 46.022 0.1 6.23 1.2 11.46
5/18/2023 5:00:00 AM 7.74 45.932 0.1 6.23 1.21 11.48
5/18/2023 5:15:00 AM 7.68 45.824 0.1 6.23 1.17 11.49
5/18/2023 5:30:00 AM 7.63 45.734 0.099 6.22 1.26 11.51
5/18/2023 5:45:00 AM 7.58 45.644 0.1 6.24 1.08 11.52
5/18/2023 6:00:00 AM 7.53 45.554 0.099 6.24 1.12 11.54
5/18/2023 6:15:00 AM 7.48 45.464 0.1 6.24 1.11 11.56
5/18/2023 6:30:00 AM 7.44 45.392 0.1 6.23 1.04 11.57
5/18/2023 6:45:00 AM 7.41 45.338 0.1 6.25 1.05 11.58
5/18/2023 7:00:00 AM 7.38 45.284 0.1 6.25 1.09 11.6
5/18/2023 7:15:00 AM 7.37 45.266 0.1 6.27 1.22 11.61
5/18/2023 7:30:00 AM 7.37 45.266 0.1 6.27 1.08 11.61
5/18/2023 7:45:00 AM 7.39 45.302 0.1 6.29 1.06 11.62
5/18/2023 8:00:00 AM 7.42 45.356 0.1 6.32 1.07 11.61
5/18/2023 8:15:00 AM 7.44 45.392 0.1 6.32 1.02 11.61
5/18/2023 8:30:00 AM 7.47 45.446 0.1 6.33 0.99 11.6
5/18/2023 8:45:00 AM 7.53 45.554 0.1 6.34 1.02 11.59
5/18/2023 9:00:00 AM 7.59 45.662 0.1 6.35 0.95 11.57
5/18/2023 9:15:00 AM 7.68 45.824 0.1 6.37 0.97 11.55
5/18/2023 9:30:00 AM 7.77 45.986 0.1 6.39 0.97 11.53
5/18/2023 9:45:00 AM 7.86 46.148 0.1 6.38 1.05 11.5
5/18/2023 10:00:00 AM 7.97 46.346 0.1 6.39 1.06 11.48
5/18/2023 10:15:00 AM 8.08 46.544 0.1 6.4 1.01 11.45
5/18/2023 10:30:00 AM 8.21 46.778 0.1 6.41 1.22 11.41
5/18/2023 10:45:00 AM 8.36 47.048 0.1 6.42 1.07 11.37
5/18/2023 11:00:00 AM 8.52 47.336 0.1 6.43 1.09 11.33
5/18/2023 11:15:00 AM 8.7 47.66 0.1 6.44 1 11.28
5/18/2023 11:30:00 AM 8.86 47.948 0.1 6.44 0.97 11.23
5/18/2023 11:45:00 AM 9.04 48.272 0.1 6.45 1.13 11.18
5/18/2023 12:00:00 PM 9.24 48.632 0.099 6.45 1.03 11.13
5/18/2023 12:15:00 PM 9.46 49.028 0.099 6.46 1.04 11.07
5/18/2023 12:30:00 PM 9.69 49.442 0.099 6.47 1.08 11.01
5/18/2023 12:45:00 PM 9.91 49.838 0.099 6.47 1.11 10.94
5/18/2023 1:00:00 PM 10.11 50.198 0.099 6.47 1.1 10.89
5/18/2023 1:15:00 PM 10.29 50.522 0.1 6.47 1.14 10.84
5/18/2023 1:30:00 PM 10.45 50.81 0.099 6.47 1.06 10.8
5/18/2023 1:45:00 PM 10.59 51.062 0.1 6.46 1.23 10.76
5/18/2023 2:00:00 PM 10.7 51.26 0.1 6.46 1.2 10.73
5/18/2023 2:15:00 PM 10.79 51.422 0.1 6.45 1.19 10.7
5/18/2023 2:30:00 PM 10.85 51.53 0.1 6.45 1.13 10.68
5/18/2023 2:45:00 PM 10.9 51.62 0.1 6.44 1.33 10.67
5/18/2023 3:00:00 PM 10.92 51.656 0.1 6.42 1.12 10.66
5/18/2023 3:15:00 PM 10.95 51.71 0.1 6.41 1.24 10.66
5/18/2023 3:30:00 PM 10.96 51.728 0.1 6.4 1.25 10.65
5/18/2023 3:45:00 PM 10.98 51.764 0.1 6.4 1.25 10.64
5/18/2023 4:00:00 PM 10.99 51.782 0.1 6.38 1.24 10.63
5/18/2023 4:15:00 PM 10.99 51.782 0.1 6.38 1.27 10.63
5/18/2023 4:30:00 PM 10.99 51.782 0.1 6.37 1.14 10.63
5/18/2023 4:45:00 PM 10.98 51.764 0.1 6.35 1.29 10.63
5/18/2023 5:00:00 PM 10.97 51.746 0.1 6.34 1.31 10.63
5/18/2023 5:15:00 PM 10.96 51.728 0.1 6.33 1.34 10.63
5/18/2023 5:30:00 PM 10.95 51.71 0.1 6.33 1.2 10.63
5/18/2023 5:45:00 PM 10.93 51.674 0.1 6.32 1.26 10.64
5/18/2023 6:00:00 PM 10.9 51.62 0.1 6.31 1.19 10.64
5/18/2023 6:15:00 PM 10.86 51.548 0.1 6.3 1.28 10.65
5/18/2023 6:30:00 PM 10.82 51.476 0.1 6.29 1.22 10.66
5/18/2023 6:45:00 PM 10.78 51.404 0.1 6.28 1.24 10.67
5/18/2023 7:00:00 PM 10.74 51.332 0.1 6.27 1.23 10.68

These are provisional data and have not been subject to a quality assurance process, but rather are the raw data reported by the instrument.
H: value is above sensor operating range
L: value is below sensor operating range
Offline: station is not reporting data
NC: parameter is not collected at site

Data Availability & Limitations

Uncertainty and potential for error can be associated with environmental monitoring data. Provisional data have not been subject to a quality assurance process, but rather are the raw data reported by the instrument. Data users are cautioned to consider carefully the provisional nature of the information before using it for decisions that concern personal or public safety or the conduct of business that involves substantial monetary or operational consequences.

Approved data are currently available by request by emailing: [email protected]. Approved data have been subject to a quality assurance process to correct for equipment or fouling drift. Data recorded during equipment malfunctions have been removed.

View Historical Stations that have been discontinued.